<?xml version="1.0" encoding="UTF-8" standalone="no" ?>
<gpx xmlns="http://www.topografix.com/GPX/1/1" xmlns:xsi="http://www.w3.org/2001/XMLSchema-instance" xsi:schemaLocation="http://www.topografix.com/GPX/1/1 http://www.topografix.com/GPX/1/1/gpx.xsd" version="1.1" creator="VisuGPX - https://www.visugpx.com">
  <metadata>
    <name>GR6 puis GR65 de Lagarrigue à Conques</name>
    <desc><![CDATA[Une variante sur le chemin de Saint Jacques de Compostelle]]></desc>
  </metadata>
  <trk>
    <name><![CDATA[ACTIVE LOG084800]]></name>
    <trkseg>
      <trkpt lat="44.58074" lon="2.57355">
        <ele>639.641</ele>
        <time>2013-06-22T06:47:58Z</time>
      </trkpt>
      <trkpt lat="44.58074" lon="2.57355">
        <ele>639.641</ele>
        <time>2013-06-22T06:47:59Z</time>
      </trkpt>
      <trkpt lat="44.58074" lon="2.57355">
        <ele>645.206</ele>
        <time>2013-06-22T06:48:01Z</time>
      </trkpt>
      <trkpt lat="44.58074" lon="2.57355">
        <ele>644.229</ele>
        <time>2013-06-22T06:48:02Z</time>
      </trkpt>
      <trkpt lat="44.58074" lon="2.57355">
        <ele>649.679</ele>
        <time>2013-06-22T06:48:07Z</time>
      </trkpt>
      <trkpt lat="44.58074" lon="2.57355">
        <ele>649.802</ele>
        <time>2013-06-22T06:48:08Z</time>
      </trkpt>
      <trkpt lat="44.58077" lon="2.57355">
        <ele>649.345</ele>
        <time>2013-06-22T06:48:27Z</time>
      </trkpt>
      <trkpt lat="44.58075" lon="2.57352">
        <ele>649.952</ele>
        <time>2013-06-22T06:48:51Z</time>
      </trkpt>
      <trkpt lat="44.58075" lon="2.57352">
        <ele>650.1</ele>
        <time>2013-06-22T06:49:09Z</time>
      </trkpt>
      <trkpt lat="44.5808" lon="2.57333">
        <ele>651.975</ele>
        <time>2013-06-22T06:49:26Z</time>
      </trkpt>
      <trkpt lat="44.58081" lon="2.57307">
        <ele>652.781</ele>
        <time>2013-06-22T06:49:47Z</time>
      </trkpt>
      <trkpt lat="44.58083" lon="2.57284">
        <ele>654.041</ele>
        <time>2013-06-22T06:50:09Z</time>
      </trkpt>
      <trkpt lat="44.58084" lon="2.5728">
        <ele>654.469</ele>
        <time>2013-06-22T06:50:14Z</time>
      </trkpt>
      <trkpt lat="44.5808" lon="2.57268">
        <ele>654.078</ele>
        <time>2013-06-22T06:50:26Z</time>
      </trkpt>
      <trkpt lat="44.58065" lon="2.5725">
        <ele>654.181</ele>
        <time>2013-06-22T06:50:45Z</time>
      </trkpt>
      <trkpt lat="44.5805" lon="2.57217">
        <ele>654.518</ele>
        <time>2013-06-22T06:51:12Z</time>
      </trkpt>
      <trkpt lat="44.58036" lon="2.57179">
        <ele>656.738</ele>
        <time>2013-06-22T06:51:41Z</time>
      </trkpt>
      <trkpt lat="44.58022" lon="2.57139">
        <ele>657.648</ele>
        <time>2013-06-22T06:52:12Z</time>
      </trkpt>
      <trkpt lat="44.58008" lon="2.57112">
        <ele>656.434</ele>
        <time>2013-06-22T06:52:36Z</time>
      </trkpt>
      <trkpt lat="44.57992" lon="2.57082">
        <ele>656.032</ele>
        <time>2013-06-22T06:53:00Z</time>
      </trkpt>
      <trkpt lat="44.57973" lon="2.57046">
        <ele>655.389</ele>
        <time>2013-06-22T06:53:28Z</time>
      </trkpt>
      <trkpt lat="44.57951" lon="2.57006">
        <ele>654.561</ele>
        <time>2013-06-22T06:54:01Z</time>
      </trkpt>
      <trkpt lat="44.57932" lon="2.56966">
        <ele>654.458</ele>
        <time>2013-06-22T06:54:32Z</time>
      </trkpt>
      <trkpt lat="44.57914" lon="2.56927">
        <ele>654.328</ele>
        <time>2013-06-22T06:55:03Z</time>
      </trkpt>
      <trkpt lat="44.57898" lon="2.5689">
        <ele>654.678</ele>
        <time>2013-06-22T06:55:30Z</time>
      </trkpt>
      <trkpt lat="44.57875" lon="2.56838">
        <ele>653.55</ele>
        <time>2013-06-22T06:56:08Z</time>
      </trkpt>
      <trkpt lat="44.57857" lon="2.56787">
        <ele>653.811</ele>
        <time>2013-06-22T06:56:45Z</time>
      </trkpt>
      <trkpt lat="44.57846" lon="2.56747">
        <ele>654.813</ele>
        <time>2013-06-22T06:57:14Z</time>
      </trkpt>
      <trkpt lat="44.57839" lon="2.5673">
        <ele>655.037</ele>
        <time>2013-06-22T06:57:33Z</time>
      </trkpt>
      <trkpt lat="44.57841" lon="2.56723">
        <ele>655.004</ele>
        <time>2013-06-22T06:57:48Z</time>
      </trkpt>
      <trkpt lat="44.57841" lon="2.56717">
        <ele>655.427</ele>
        <time>2013-06-22T06:58:00Z</time>
      </trkpt>
      <trkpt lat="44.57846" lon="2.56697">
        <ele>655.402</ele>
        <time>2013-06-22T06:58:17Z</time>
      </trkpt>
      <trkpt lat="44.57867" lon="2.56661">
        <ele>655.328</ele>
        <time>2013-06-22T06:58:47Z</time>
      </trkpt>
      <trkpt lat="44.57888" lon="2.56627">
        <ele>655.247</ele>
        <time>2013-06-22T06:59:15Z</time>
      </trkpt>
      <trkpt lat="44.57912" lon="2.56586">
        <ele>655.658</ele>
        <time>2013-06-22T06:59:48Z</time>
      </trkpt>
      <trkpt lat="44.57931" lon="2.56554">
        <ele>655.823</ele>
        <time>2013-06-22T07:00:15Z</time>
      </trkpt>
      <trkpt lat="44.57935" lon="2.56539">
        <ele>656.507</ele>
        <time>2013-06-22T07:00:32Z</time>
      </trkpt>
      <trkpt lat="44.57937" lon="2.56522">
        <ele>655.408</ele>
        <time>2013-06-22T07:00:48Z</time>
      </trkpt>
      <trkpt lat="44.5794" lon="2.56511">
        <ele>655.078</ele>
        <time>2013-06-22T07:00:57Z</time>
      </trkpt>
      <trkpt lat="44.57947" lon="2.56486">
        <ele>653.99</ele>
        <time>2013-06-22T07:01:15Z</time>
      </trkpt>
      <trkpt lat="44.57952" lon="2.56458">
        <ele>652.883</ele>
        <time>2013-06-22T07:01:32Z</time>
      </trkpt>
      <trkpt lat="44.57954" lon="2.56432">
        <ele>653.685</ele>
        <time>2013-06-22T07:01:52Z</time>
      </trkpt>
      <trkpt lat="44.57958" lon="2.56409">
        <ele>653.257</ele>
        <time>2013-06-22T07:02:13Z</time>
      </trkpt>
      <trkpt lat="44.57964" lon="2.56381">
        <ele>652.749</ele>
        <time>2013-06-22T07:02:35Z</time>
      </trkpt>
      <trkpt lat="44.57972" lon="2.56358">
        <ele>651.014</ele>
        <time>2013-06-22T07:02:56Z</time>
      </trkpt>
      <trkpt lat="44.57976" lon="2.5634">
        <ele>650.764</ele>
        <time>2013-06-22T07:03:12Z</time>
      </trkpt>
      <trkpt lat="44.57977" lon="2.56312">
        <ele>649.255</ele>
        <time>2013-06-22T07:03:33Z</time>
      </trkpt>
      <trkpt lat="44.57974" lon="2.56297">
        <ele>648.132</ele>
        <time>2013-06-22T07:03:47Z</time>
      </trkpt>
      <trkpt lat="44.57966" lon="2.56285">
        <ele>647.405</ele>
        <time>2013-06-22T07:04:06Z</time>
      </trkpt>
      <trkpt lat="44.57958" lon="2.56274">
        <ele>646.884</ele>
        <time>2013-06-22T07:04:21Z</time>
      </trkpt>
      <trkpt lat="44.5795" lon="2.56264">
        <ele>646.452</ele>
        <time>2013-06-22T07:04:37Z</time>
      </trkpt>
      <trkpt lat="44.5794" lon="2.56248">
        <ele>645.24</ele>
        <time>2013-06-22T07:04:54Z</time>
      </trkpt>
      <trkpt lat="44.57933" lon="2.56234">
        <ele>644.604</ele>
        <time>2013-06-22T07:05:12Z</time>
      </trkpt>
      <trkpt lat="44.5793" lon="2.56233">
        <ele>644.687</ele>
        <time>2013-06-22T07:05:29Z</time>
      </trkpt>
      <trkpt lat="44.57928" lon="2.56232">
        <ele>644.614</ele>
        <time>2013-06-22T07:06:02Z</time>
      </trkpt>
      <trkpt lat="44.57929" lon="2.56233">
        <ele>644.56</ele>
        <time>2013-06-22T07:06:53Z</time>
      </trkpt>
      <trkpt lat="44.57921" lon="2.5622">
        <ele>643.618</ele>
        <time>2013-06-22T07:07:08Z</time>
      </trkpt>
      <trkpt lat="44.57912" lon="2.56205">
        <ele>641.399</ele>
        <time>2013-06-22T07:07:25Z</time>
      </trkpt>
      <trkpt lat="44.57909" lon="2.56201">
        <ele>639.705</ele>
        <time>2013-06-22T07:07:30Z</time>
      </trkpt>
      <trkpt lat="44.57901" lon="2.56188">
        <ele>638.359</ele>
        <time>2013-06-22T07:07:46Z</time>
      </trkpt>
      <trkpt lat="44.57888" lon="2.56172">
        <ele>636.363</ele>
        <time>2013-06-22T07:08:03Z</time>
      </trkpt>
      <trkpt lat="44.57883" lon="2.56157">
        <ele>634.396</ele>
        <time>2013-06-22T07:08:16Z</time>
      </trkpt>
      <trkpt lat="44.57879" lon="2.5613">
        <ele>633.001</ele>
        <time>2013-06-22T07:08:33Z</time>
      </trkpt>
      <trkpt lat="44.57877" lon="2.56111">
        <ele>632.322</ele>
        <time>2013-06-22T07:08:46Z</time>
      </trkpt>
      <trkpt lat="44.57863" lon="2.56086">
        <ele>631.199</ele>
        <time>2013-06-22T07:09:06Z</time>
      </trkpt>
      <trkpt lat="44.57846" lon="2.56067">
        <ele>631.15</ele>
        <time>2013-06-22T07:09:29Z</time>
      </trkpt>
      <trkpt lat="44.57831" lon="2.56046">
        <ele>629.848</ele>
        <time>2013-06-22T07:09:51Z</time>
      </trkpt>
      <trkpt lat="44.57818" lon="2.56027">
        <ele>629.365</ele>
        <time>2013-06-22T07:10:08Z</time>
      </trkpt>
      <trkpt lat="44.57807" lon="2.56003">
        <ele>629.139</ele>
        <time>2013-06-22T07:10:28Z</time>
      </trkpt>
      <trkpt lat="44.57793" lon="2.55974">
        <ele>629.041</ele>
        <time>2013-06-22T07:10:51Z</time>
      </trkpt>
      <trkpt lat="44.57777" lon="2.55959">
        <ele>628.089</ele>
        <time>2013-06-22T07:11:10Z</time>
      </trkpt>
      <trkpt lat="44.57764" lon="2.55948">
        <ele>628.301</ele>
        <time>2013-06-22T07:11:27Z</time>
      </trkpt>
      <trkpt lat="44.57745" lon="2.55938">
        <ele>627.338</ele>
        <time>2013-06-22T07:11:44Z</time>
      </trkpt>
      <trkpt lat="44.57722" lon="2.55931">
        <ele>626.896</ele>
        <time>2013-06-22T07:12:04Z</time>
      </trkpt>
      <trkpt lat="44.57701" lon="2.55926">
        <ele>626.957</ele>
        <time>2013-06-22T07:12:23Z</time>
      </trkpt>
      <trkpt lat="44.57673" lon="2.55922">
        <ele>626.645</ele>
        <time>2013-06-22T07:12:48Z</time>
      </trkpt>
      <trkpt lat="44.57663" lon="2.55923">
        <ele>627.139</ele>
        <time>2013-06-22T07:13:12Z</time>
      </trkpt>
      <trkpt lat="44.5766" lon="2.55921">
        <ele>626.976</ele>
        <time>2013-06-22T07:13:35Z</time>
      </trkpt>
      <trkpt lat="44.57658" lon="2.55913">
        <ele>627.293</ele>
        <time>2013-06-22T07:14:09Z</time>
      </trkpt>
      <trkpt lat="44.57648" lon="2.55897">
        <ele>627.809</ele>
        <time>2013-06-22T07:14:27Z</time>
      </trkpt>
      <trkpt lat="44.57641" lon="2.55892">
        <ele>628.021</ele>
        <time>2013-06-22T07:14:36Z</time>
      </trkpt>
      <trkpt lat="44.5762" lon="2.5588">
        <ele>630.046</ele>
        <time>2013-06-22T07:14:59Z</time>
      </trkpt>
      <trkpt lat="44.57598" lon="2.55856">
        <ele>631.456</ele>
        <time>2013-06-22T07:15:25Z</time>
      </trkpt>
      <trkpt lat="44.57596" lon="2.5582">
        <ele>628.909</ele>
        <time>2013-06-22T07:15:51Z</time>
      </trkpt>
      <trkpt lat="44.57607" lon="2.55796">
        <ele>627.761</ele>
        <time>2013-06-22T07:16:13Z</time>
      </trkpt>
      <trkpt lat="44.57631" lon="2.5578">
        <ele>627.024</ele>
        <time>2013-06-22T07:16:39Z</time>
      </trkpt>
      <trkpt lat="44.57649" lon="2.55758">
        <ele>626.662</ele>
        <time>2013-06-22T07:17:02Z</time>
      </trkpt>
      <trkpt lat="44.57663" lon="2.55728">
        <ele>626.333</ele>
        <time>2013-06-22T07:17:24Z</time>
      </trkpt>
      <trkpt lat="44.57674" lon="2.55699">
        <ele>626.726</ele>
        <time>2013-06-22T07:17:45Z</time>
      </trkpt>
      <trkpt lat="44.57681" lon="2.55667">
        <ele>625.642</ele>
        <time>2013-06-22T07:18:06Z</time>
      </trkpt>
      <trkpt lat="44.57676" lon="2.55613">
        <ele>625.681</ele>
        <time>2013-06-22T07:18:40Z</time>
      </trkpt>
      <trkpt lat="44.5767" lon="2.55564">
        <ele>624.165</ele>
        <time>2013-06-22T07:19:12Z</time>
      </trkpt>
      <trkpt lat="44.57668" lon="2.55518">
        <ele>623.869</ele>
        <time>2013-06-22T07:19:42Z</time>
      </trkpt>
      <trkpt lat="44.57658" lon="2.55475">
        <ele>624.104</ele>
        <time>2013-06-22T07:20:10Z</time>
      </trkpt>
      <trkpt lat="44.57658" lon="2.55431">
        <ele>624.228</ele>
        <time>2013-06-22T07:20:39Z</time>
      </trkpt>
      <trkpt lat="44.57666" lon="2.55382">
        <ele>624.311</ele>
        <time>2013-06-22T07:21:11Z</time>
      </trkpt>
      <trkpt lat="44.57676" lon="2.55337">
        <ele>624.328</ele>
        <time>2013-06-22T07:21:42Z</time>
      </trkpt>
      <trkpt lat="44.57692" lon="2.55304">
        <ele>625.201</ele>
        <time>2013-06-22T07:22:10Z</time>
      </trkpt>
      <trkpt lat="44.57702" lon="2.55295">
        <ele>625.568</ele>
        <time>2013-06-22T07:22:32Z</time>
      </trkpt>
      <trkpt lat="44.57703" lon="2.5529">
        <ele>625.252</ele>
        <time>2013-06-22T07:23:11Z</time>
      </trkpt>
      <trkpt lat="44.57711" lon="2.55268">
        <ele>627.975</ele>
        <time>2013-06-22T07:23:31Z</time>
      </trkpt>
      <trkpt lat="44.57718" lon="2.55236">
        <ele>628.832</ele>
        <time>2013-06-22T07:23:54Z</time>
      </trkpt>
      <trkpt lat="44.57728" lon="2.55194">
        <ele>628.458</ele>
        <time>2013-06-22T07:24:24Z</time>
      </trkpt>
      <trkpt lat="44.57739" lon="2.55167">
        <ele>628.543</ele>
        <time>2013-06-22T07:24:45Z</time>
      </trkpt>
      <trkpt lat="44.57756" lon="2.55169">
        <ele>626.932</ele>
        <time>2013-06-22T07:25:06Z</time>
      </trkpt>
      <trkpt lat="44.57762" lon="2.55172">
        <ele>625.957</ele>
        <time>2013-06-22T07:25:13Z</time>
      </trkpt>
      <trkpt lat="44.5778" lon="2.55181">
        <ele>624.012</ele>
        <time>2013-06-22T07:25:32Z</time>
      </trkpt>
      <trkpt lat="44.57803" lon="2.55189">
        <ele>623.166</ele>
        <time>2013-06-22T07:25:55Z</time>
      </trkpt>
      <trkpt lat="44.57827" lon="2.55191">
        <ele>620.848</ele>
        <time>2013-06-22T07:26:17Z</time>
      </trkpt>
      <trkpt lat="44.57853" lon="2.55186">
        <ele>619.746</ele>
        <time>2013-06-22T07:26:40Z</time>
      </trkpt>
      <trkpt lat="44.57879" lon="2.55176">
        <ele>619.263</ele>
        <time>2013-06-22T07:27:05Z</time>
      </trkpt>
      <trkpt lat="44.57907" lon="2.5517">
        <ele>618.752</ele>
        <time>2013-06-22T07:27:31Z</time>
      </trkpt>
      <trkpt lat="44.57927" lon="2.55168">
        <ele>618.975</ele>
        <time>2013-06-22T07:27:51Z</time>
      </trkpt>
      <trkpt lat="44.57949" lon="2.55166">
        <ele>620.177</ele>
        <time>2013-06-22T07:28:10Z</time>
      </trkpt>
      <trkpt lat="44.5797" lon="2.55168">
        <ele>619.905</ele>
        <time>2013-06-22T07:28:31Z</time>
      </trkpt>
      <trkpt lat="44.57985" lon="2.55173">
        <ele>619.107</ele>
        <time>2013-06-22T07:28:48Z</time>
      </trkpt>
      <trkpt lat="44.58006" lon="2.55185">
        <ele>617.405</ele>
        <time>2013-06-22T07:29:09Z</time>
      </trkpt>
      <trkpt lat="44.58038" lon="2.55207">
        <ele>616.894</ele>
        <time>2013-06-22T07:29:40Z</time>
      </trkpt>
      <trkpt lat="44.58064" lon="2.55225">
        <ele>616.042</ele>
        <time>2013-06-22T07:30:07Z</time>
      </trkpt>
      <trkpt lat="44.58088" lon="2.55214">
        <ele>616.434</ele>
        <time>2013-06-22T07:30:31Z</time>
      </trkpt>
      <trkpt lat="44.58111" lon="2.55197">
        <ele>617.102</ele>
        <time>2013-06-22T07:30:56Z</time>
      </trkpt>
      <trkpt lat="44.58135" lon="2.5518">
        <ele>618.223</ele>
        <time>2013-06-22T07:31:22Z</time>
      </trkpt>
      <trkpt lat="44.58149" lon="2.55171">
        <ele>619.233</ele>
        <time>2013-06-22T07:31:39Z</time>
      </trkpt>
      <trkpt lat="44.58161" lon="2.55161">
        <ele>619.912</ele>
        <time>2013-06-22T07:31:57Z</time>
      </trkpt>
      <trkpt lat="44.58169" lon="2.55158">
        <ele>620.517</ele>
        <time>2013-06-22T07:32:31Z</time>
      </trkpt>
      <trkpt lat="44.5817" lon="2.55156">
        <ele>620.155</ele>
        <time>2013-06-22T07:33:09Z</time>
      </trkpt>
      <trkpt lat="44.58171" lon="2.55156">
        <ele>620.554</ele>
        <time>2013-06-22T07:33:34Z</time>
      </trkpt>
      <trkpt lat="44.58176" lon="2.55154">
        <ele>620.213</ele>
        <time>2013-06-22T07:33:48Z</time>
      </trkpt>
      <trkpt lat="44.5818" lon="2.55149">
        <ele>620.561</ele>
        <time>2013-06-22T07:34:15Z</time>
      </trkpt>
      <trkpt lat="44.58177" lon="2.5514">
        <ele>620.534</ele>
        <time>2013-06-22T07:34:41Z</time>
      </trkpt>
      <trkpt lat="44.58175" lon="2.55137">
        <ele>621.882</ele>
        <time>2013-06-22T07:35:07Z</time>
      </trkpt>
      <trkpt lat="44.58175" lon="2.5515">
        <ele>620.52</ele>
        <time>2013-06-22T07:35:28Z</time>
      </trkpt>
      <trkpt lat="44.58182" lon="2.55156">
        <ele>620.952</ele>
        <time>2013-06-22T07:36:11Z</time>
      </trkpt>
      <trkpt lat="44.58175" lon="2.55154">
        <ele>621.354</ele>
        <time>2013-06-22T07:36:46Z</time>
      </trkpt>
      <trkpt lat="44.58171" lon="2.55152">
        <ele>621.656</ele>
        <time>2013-06-22T07:37:11Z</time>
      </trkpt>
      <trkpt lat="44.58171" lon="2.55152">
        <ele>621.261</ele>
        <time>2013-06-22T07:38:20Z</time>
      </trkpt>
      <trkpt lat="44.58186" lon="2.55154">
        <ele>622.879</ele>
        <time>2013-06-22T07:38:37Z</time>
      </trkpt>
      <trkpt lat="44.58196" lon="2.55154">
        <ele>623.435</ele>
        <time>2013-06-22T07:38:51Z</time>
      </trkpt>
      <trkpt lat="44.58206" lon="2.55159">
        <ele>624.15</ele>
        <time>2013-06-22T07:39:04Z</time>
      </trkpt>
      <trkpt lat="44.58227" lon="2.55167">
        <ele>623.839</ele>
        <time>2013-06-22T07:39:24Z</time>
      </trkpt>
      <trkpt lat="44.58232" lon="2.55169">
        <ele>623.721</ele>
        <time>2013-06-22T07:39:30Z</time>
      </trkpt>
      <trkpt lat="44.58248" lon="2.5518">
        <ele>622.854</ele>
        <time>2013-06-22T07:39:48Z</time>
      </trkpt>
      <trkpt lat="44.58262" lon="2.55193">
        <ele>622.245</ele>
        <time>2013-06-22T07:40:05Z</time>
      </trkpt>
      <trkpt lat="44.58277" lon="2.55201">
        <ele>621.748</ele>
        <time>2013-06-22T07:40:20Z</time>
      </trkpt>
      <trkpt lat="44.5829" lon="2.55201">
        <ele>620.916</ele>
        <time>2013-06-22T07:40:35Z</time>
      </trkpt>
      <trkpt lat="44.58308" lon="2.55204">
        <ele>618.749</ele>
        <time>2013-06-22T07:40:53Z</time>
      </trkpt>
      <trkpt lat="44.58325" lon="2.55202">
        <ele>617.669</ele>
        <time>2013-06-22T07:41:09Z</time>
      </trkpt>
      <trkpt lat="44.58339" lon="2.552">
        <ele>617.177</ele>
        <time>2013-06-22T07:41:25Z</time>
      </trkpt>
      <trkpt lat="44.58343" lon="2.55192">
        <ele>617.029</ele>
        <time>2013-06-22T07:41:54Z</time>
      </trkpt>
      <trkpt lat="44.58343" lon="2.55186">
        <ele>616.673</ele>
        <time>2013-06-22T07:42:17Z</time>
      </trkpt>
      <trkpt lat="44.58354" lon="2.55176">
        <ele>616.64</ele>
        <time>2013-06-22T07:42:29Z</time>
      </trkpt>
      <trkpt lat="44.5836" lon="2.55168">
        <ele>617.02</ele>
        <time>2013-06-22T07:42:44Z</time>
      </trkpt>
      <trkpt lat="44.58369" lon="2.55153">
        <ele>617.309</ele>
        <time>2013-06-22T07:43:01Z</time>
      </trkpt>
      <trkpt lat="44.58378" lon="2.55135">
        <ele>618.348</ele>
        <time>2013-06-22T07:43:18Z</time>
      </trkpt>
      <trkpt lat="44.58387" lon="2.55122">
        <ele>619.252</ele>
        <time>2013-06-22T07:43:33Z</time>
      </trkpt>
      <trkpt lat="44.58395" lon="2.55108">
        <ele>619.303</ele>
        <time>2013-06-22T07:43:47Z</time>
      </trkpt>
      <trkpt lat="44.58408" lon="2.55086">
        <ele>620.059</ele>
        <time>2013-06-22T07:44:05Z</time>
      </trkpt>
      <trkpt lat="44.5842" lon="2.5506">
        <ele>619.669</ele>
        <time>2013-06-22T07:44:24Z</time>
      </trkpt>
      <trkpt lat="44.58428" lon="2.5504">
        <ele>618.31</ele>
        <time>2013-06-22T07:44:42Z</time>
      </trkpt>
      <trkpt lat="44.58433" lon="2.55019">
        <ele>617.429</ele>
        <time>2013-06-22T07:44:57Z</time>
      </trkpt>
      <trkpt lat="44.58438" lon="2.54996">
        <ele>615.781</ele>
        <time>2013-06-22T07:45:13Z</time>
      </trkpt>
      <trkpt lat="44.58447" lon="2.54979">
        <ele>615.271</ele>
        <time>2013-06-22T07:45:30Z</time>
      </trkpt>
      <trkpt lat="44.58461" lon="2.54964">
        <ele>614.851</ele>
        <time>2013-06-22T07:45:47Z</time>
      </trkpt>
      <trkpt lat="44.58471" lon="2.54955">
        <ele>614.744</ele>
        <time>2013-06-22T07:45:57Z</time>
      </trkpt>
      <trkpt lat="44.5849" lon="2.54948">
        <ele>614.251</ele>
        <time>2013-06-22T07:46:16Z</time>
      </trkpt>
      <trkpt lat="44.58518" lon="2.54948">
        <ele>614.4</ele>
        <time>2013-06-22T07:46:41Z</time>
      </trkpt>
      <trkpt lat="44.58533" lon="2.54965">
        <ele>616.045</ele>
        <time>2013-06-22T07:47:02Z</time>
      </trkpt>
      <trkpt lat="44.58534" lon="2.5497">
        <ele>616.353</ele>
        <time>2013-06-22T07:47:25Z</time>
      </trkpt>
      <trkpt lat="44.58541" lon="2.54975">
        <ele>617.042</ele>
        <time>2013-06-22T07:47:59Z</time>
      </trkpt>
      <trkpt lat="44.58579" lon="2.54984">
        <ele>617.881</ele>
        <time>2013-06-22T07:48:33Z</time>
      </trkpt>
      <trkpt lat="44.58596" lon="2.54983">
        <ele>618.657</ele>
        <time>2013-06-22T07:48:52Z</time>
      </trkpt>
      <trkpt lat="44.5861" lon="2.54987">
        <ele>619.419</ele>
        <time>2013-06-22T07:49:07Z</time>
      </trkpt>
      <trkpt lat="44.58628" lon="2.54987">
        <ele>618.977</ele>
        <time>2013-06-22T07:49:23Z</time>
      </trkpt>
      <trkpt lat="44.58645" lon="2.54976">
        <ele>618.076</ele>
        <time>2013-06-22T07:49:38Z</time>
      </trkpt>
      <trkpt lat="44.58659" lon="2.54967">
        <ele>617.678</ele>
        <time>2013-06-22T07:49:54Z</time>
      </trkpt>
      <trkpt lat="44.5866" lon="2.54966">
        <ele>617.874</ele>
        <time>2013-06-22T07:49:56Z</time>
      </trkpt>
      <trkpt lat="44.58678" lon="2.5495">
        <ele>617.63</ele>
        <time>2013-06-22T07:50:12Z</time>
      </trkpt>
      <trkpt lat="44.58688" lon="2.54926">
        <ele>617.584</ele>
        <time>2013-06-22T07:50:27Z</time>
      </trkpt>
      <trkpt lat="44.58705" lon="2.5491">
        <ele>617.484</ele>
        <time>2013-06-22T07:50:45Z</time>
      </trkpt>
      <trkpt lat="44.5872" lon="2.54901">
        <ele>617.962</ele>
        <time>2013-06-22T07:51:03Z</time>
      </trkpt>
      <trkpt lat="44.58742" lon="2.54888">
        <ele>619.132</ele>
        <time>2013-06-22T07:51:25Z</time>
      </trkpt>
      <trkpt lat="44.58766" lon="2.54872">
        <ele>620.681</ele>
        <time>2013-06-22T07:51:47Z</time>
      </trkpt>
      <trkpt lat="44.5879" lon="2.54861">
        <ele>622.404</ele>
        <time>2013-06-22T07:52:11Z</time>
      </trkpt>
      <trkpt lat="44.58819" lon="2.54851">
        <ele>625.683</ele>
        <time>2013-06-22T07:52:41Z</time>
      </trkpt>
      <trkpt lat="44.58843" lon="2.54841">
        <ele>628.371</ele>
        <time>2013-06-22T07:53:07Z</time>
      </trkpt>
      <trkpt lat="44.58873" lon="2.5483">
        <ele>631.13</ele>
        <time>2013-06-22T07:53:38Z</time>
      </trkpt>
      <trkpt lat="44.58901" lon="2.54818">
        <ele>631.791</ele>
        <time>2013-06-22T07:54:07Z</time>
      </trkpt>
      <trkpt lat="44.58931" lon="2.54803">
        <ele>632.604</ele>
        <time>2013-06-22T07:54:38Z</time>
      </trkpt>
      <trkpt lat="44.58943" lon="2.548">
        <ele>632.521</ele>
        <time>2013-06-22T07:54:54Z</time>
      </trkpt>
      <trkpt lat="44.58952" lon="2.54782">
        <ele>631.548</ele>
        <time>2013-06-22T07:55:17Z</time>
      </trkpt>
      <trkpt lat="44.58951" lon="2.54762">
        <ele>627.8</ele>
        <time>2013-06-22T07:55:33Z</time>
      </trkpt>
      <trkpt lat="44.58951" lon="2.54739">
        <ele>626.121</ele>
        <time>2013-06-22T07:55:51Z</time>
      </trkpt>
      <trkpt lat="44.58954" lon="2.5471">
        <ele>622.867</ele>
        <time>2013-06-22T07:56:11Z</time>
      </trkpt>
      <trkpt lat="44.58959" lon="2.54686">
        <ele>619.711</ele>
        <time>2013-06-22T07:56:30Z</time>
      </trkpt>
      <trkpt lat="44.58967" lon="2.54662">
        <ele>617.244</ele>
        <time>2013-06-22T07:56:51Z</time>
      </trkpt>
      <trkpt lat="44.58974" lon="2.54651">
        <ele>615.447</ele>
        <time>2013-06-22T07:57:03Z</time>
      </trkpt>
      <trkpt lat="44.58997" lon="2.54632">
        <ele>613.797</ele>
        <time>2013-06-22T07:57:28Z</time>
      </trkpt>
      <trkpt lat="44.59022" lon="2.54604">
        <ele>613.022</ele>
        <time>2013-06-22T07:57:56Z</time>
      </trkpt>
      <trkpt lat="44.59046" lon="2.54576">
        <ele>610.958</ele>
        <time>2013-06-22T07:58:25Z</time>
      </trkpt>
      <trkpt lat="44.59072" lon="2.54551">
        <ele>608.516</ele>
        <time>2013-06-22T07:58:54Z</time>
      </trkpt>
      <trkpt lat="44.59101" lon="2.54538">
        <ele>605.743</ele>
        <time>2013-06-22T07:59:24Z</time>
      </trkpt>
      <trkpt lat="44.59105" lon="2.54537">
        <ele>604.934</ele>
        <time>2013-06-22T07:59:29Z</time>
      </trkpt>
      <trkpt lat="44.59129" lon="2.54519">
        <ele>602.922</ele>
        <time>2013-06-22T07:59:55Z</time>
      </trkpt>
      <trkpt lat="44.59145" lon="2.54488">
        <ele>601.158</ele>
        <time>2013-06-22T08:00:22Z</time>
      </trkpt>
      <trkpt lat="44.59162" lon="2.54458">
        <ele>599.469</ele>
        <time>2013-06-22T08:00:49Z</time>
      </trkpt>
      <trkpt lat="44.59176" lon="2.5444">
        <ele>597.338</ele>
        <time>2013-06-22T08:01:10Z</time>
      </trkpt>
      <trkpt lat="44.59172" lon="2.54427">
        <ele>594.972</ele>
        <time>2013-06-22T08:01:24Z</time>
      </trkpt>
      <trkpt lat="44.59155" lon="2.54416">
        <ele>593.648</ele>
        <time>2013-06-22T08:01:47Z</time>
      </trkpt>
      <trkpt lat="44.59146" lon="2.54396">
        <ele>590.604</ele>
        <time>2013-06-22T08:02:06Z</time>
      </trkpt>
      <trkpt lat="44.59145" lon="2.54386">
        <ele>588.728</ele>
        <time>2013-06-22T08:02:15Z</time>
      </trkpt>
      <trkpt lat="44.5914" lon="2.54357">
        <ele>585.696</ele>
        <time>2013-06-22T08:02:38Z</time>
      </trkpt>
      <trkpt lat="44.59133" lon="2.54324">
        <ele>583.779</ele>
        <time>2013-06-22T08:03:03Z</time>
      </trkpt>
      <trkpt lat="44.59124" lon="2.54297">
        <ele>580.548</ele>
        <time>2013-06-22T08:03:26Z</time>
      </trkpt>
      <trkpt lat="44.59122" lon="2.5428">
        <ele>578.766</ele>
        <time>2013-06-22T08:03:43Z</time>
      </trkpt>
      <trkpt lat="44.5912" lon="2.54261">
        <ele>575.531</ele>
        <time>2013-06-22T08:03:59Z</time>
      </trkpt>
      <trkpt lat="44.59119" lon="2.54249">
        <ele>575.491</ele>
        <time>2013-06-22T08:04:14Z</time>
      </trkpt>
      <trkpt lat="44.59117" lon="2.54252">
        <ele>575.448</ele>
        <time>2013-06-22T08:04:26Z</time>
      </trkpt>
      <trkpt lat="44.59115" lon="2.54253">
        <ele>574.971</ele>
        <time>2013-06-22T08:04:28Z</time>
      </trkpt>
      <trkpt lat="44.59098" lon="2.54252">
        <ele>574.378</ele>
        <time>2013-06-22T08:04:49Z</time>
      </trkpt>
      <trkpt lat="44.59092" lon="2.54242">
        <ele>572.978</ele>
        <time>2013-06-22T08:05:07Z</time>
      </trkpt>
      <trkpt lat="44.59091" lon="2.54245">
        <ele>573.149</ele>
        <time>2013-06-22T08:06:11Z</time>
      </trkpt>
      <trkpt lat="44.59091" lon="2.54243">
        <ele>573.097</ele>
        <time>2013-06-22T08:06:35Z</time>
      </trkpt>
      <trkpt lat="44.59088" lon="2.54224">
        <ele>570.244</ele>
        <time>2013-06-22T08:06:55Z</time>
      </trkpt>
      <trkpt lat="44.59089" lon="2.54213">
        <ele>568.615</ele>
        <time>2013-06-22T08:07:12Z</time>
      </trkpt>
      <trkpt lat="44.59097" lon="2.54195">
        <ele>566.548</ele>
        <time>2013-06-22T08:07:31Z</time>
      </trkpt>
      <trkpt lat="44.59116" lon="2.54177">
        <ele>564.666</ele>
        <time>2013-06-22T08:07:56Z</time>
      </trkpt>
      <trkpt lat="44.59132" lon="2.54174">
        <ele>562.645</ele>
        <time>2013-06-22T08:08:15Z</time>
      </trkpt>
      <trkpt lat="44.59139" lon="2.54169">
        <ele>562.02</ele>
        <time>2013-06-22T08:08:34Z</time>
      </trkpt>
      <trkpt lat="44.59145" lon="2.5416">
        <ele>561.511</ele>
        <time>2013-06-22T08:08:47Z</time>
      </trkpt>
      <trkpt lat="44.59148" lon="2.54139">
        <ele>560.64</ele>
        <time>2013-06-22T08:09:02Z</time>
      </trkpt>
      <trkpt lat="44.59144" lon="2.54118">
        <ele>561.041</ele>
        <time>2013-06-22T08:09:17Z</time>
      </trkpt>
      <trkpt lat="44.59132" lon="2.54104">
        <ele>561.574</ele>
        <time>2013-06-22T08:09:32Z</time>
      </trkpt>
      <trkpt lat="44.5912" lon="2.54092">
        <ele>562.125</ele>
        <time>2013-06-22T08:09:48Z</time>
      </trkpt>
      <trkpt lat="44.59113" lon="2.54084">
        <ele>563.191</ele>
        <time>2013-06-22T08:09:55Z</time>
      </trkpt>
      <trkpt lat="44.59109" lon="2.54061">
        <ele>561.996</ele>
        <time>2013-06-22T08:10:14Z</time>
      </trkpt>
      <trkpt lat="44.59108" lon="2.54045">
        <ele>560.343</ele>
        <time>2013-06-22T08:10:24Z</time>
      </trkpt>
      <trkpt lat="44.59108" lon="2.54027">
        <ele>558.905</ele>
        <time>2013-06-22T08:10:35Z</time>
      </trkpt>
      <trkpt lat="44.59109" lon="2.53989">
        <ele>556.754</ele>
        <time>2013-06-22T08:11:00Z</time>
      </trkpt>
      <trkpt lat="44.59123" lon="2.53965">
        <ele>555.714</ele>
        <time>2013-06-22T08:11:22Z</time>
      </trkpt>
      <trkpt lat="44.59141" lon="2.53947">
        <ele>554.539</ele>
        <time>2013-06-22T08:11:44Z</time>
      </trkpt>
      <trkpt lat="44.59159" lon="2.53932">
        <ele>551.396</ele>
        <time>2013-06-22T08:12:05Z</time>
      </trkpt>
      <trkpt lat="44.5918" lon="2.53915">
        <ele>549.778</ele>
        <time>2013-06-22T08:12:29Z</time>
      </trkpt>
      <trkpt lat="44.59197" lon="2.53899">
        <ele>546.71</ele>
        <time>2013-06-22T08:12:50Z</time>
      </trkpt>
      <trkpt lat="44.59219" lon="2.53883">
        <ele>545.633</ele>
        <time>2013-06-22T08:13:14Z</time>
      </trkpt>
      <trkpt lat="44.59227" lon="2.53879">
        <ele>545.653</ele>
        <time>2013-06-22T08:13:23Z</time>
      </trkpt>
      <trkpt lat="44.59252" lon="2.53877">
        <ele>545.415</ele>
        <time>2013-06-22T08:13:46Z</time>
      </trkpt>
      <trkpt lat="44.59271" lon="2.53886">
        <ele>544.937</ele>
        <time>2013-06-22T08:14:07Z</time>
      </trkpt>
      <trkpt lat="44.59286" lon="2.5389">
        <ele>543.306</ele>
        <time>2013-06-22T08:14:24Z</time>
      </trkpt>
      <trkpt lat="44.59302" lon="2.53887">
        <ele>542.651</ele>
        <time>2013-06-22T08:14:39Z</time>
      </trkpt>
      <trkpt lat="44.59321" lon="2.53887">
        <ele>541.837</ele>
        <time>2013-06-22T08:14:56Z</time>
      </trkpt>
      <trkpt lat="44.59332" lon="2.5389">
        <ele>540.158</ele>
        <time>2013-06-22T08:15:10Z</time>
      </trkpt>
      <trkpt lat="44.59345" lon="2.53886">
        <ele>538.969</ele>
        <time>2013-06-22T08:15:24Z</time>
      </trkpt>
      <trkpt lat="44.59356" lon="2.53879">
        <ele>537.892</ele>
        <time>2013-06-22T08:15:37Z</time>
      </trkpt>
      <trkpt lat="44.59359" lon="2.53876">
        <ele>537.909</ele>
        <time>2013-06-22T08:15:40Z</time>
      </trkpt>
      <trkpt lat="44.59367" lon="2.53862">
        <ele>537.804</ele>
        <time>2013-06-22T08:15:56Z</time>
      </trkpt>
      <trkpt lat="44.59364" lon="2.53857">
        <ele>537.277</ele>
        <time>2013-06-22T08:16:01Z</time>
      </trkpt>
      <trkpt lat="44.59358" lon="2.53831">
        <ele>537.299</ele>
        <time>2013-06-22T08:16:19Z</time>
      </trkpt>
      <trkpt lat="44.59355" lon="2.53824">
        <ele>537.147</ele>
        <time>2013-06-22T08:16:25Z</time>
      </trkpt>
      <trkpt lat="44.59359" lon="2.53806">
        <ele>535.922</ele>
        <time>2013-06-22T08:16:39Z</time>
      </trkpt>
      <trkpt lat="44.59362" lon="2.5379">
        <ele>535.449</ele>
        <time>2013-06-22T08:16:54Z</time>
      </trkpt>
      <trkpt lat="44.59358" lon="2.53766">
        <ele>535.505</ele>
        <time>2013-06-22T08:17:09Z</time>
      </trkpt>
      <trkpt lat="44.59347" lon="2.53749">
        <ele>536.208</ele>
        <time>2013-06-22T08:17:27Z</time>
      </trkpt>
      <trkpt lat="44.59345" lon="2.53738">
        <ele>537.772</ele>
        <time>2013-06-22T08:17:39Z</time>
      </trkpt>
      <trkpt lat="44.59337" lon="2.53725">
        <ele>538.817</ele>
        <time>2013-06-22T08:17:50Z</time>
      </trkpt>
      <trkpt lat="44.59325" lon="2.53705">
        <ele>538.366</ele>
        <time>2013-06-22T08:18:06Z</time>
      </trkpt>
      <trkpt lat="44.59314" lon="2.53688">
        <ele>538.602</ele>
        <time>2013-06-22T08:18:22Z</time>
      </trkpt>
      <trkpt lat="44.59308" lon="2.53683">
        <ele>538.974</ele>
        <time>2013-06-22T08:18:27Z</time>
      </trkpt>
      <trkpt lat="44.59294" lon="2.53666">
        <ele>539.29</ele>
        <time>2013-06-22T08:18:45Z</time>
      </trkpt>
      <trkpt lat="44.59286" lon="2.5366">
        <ele>540.129</ele>
        <time>2013-06-22T08:19:00Z</time>
      </trkpt>
      <trkpt lat="44.59282" lon="2.53647">
        <ele>541.767</ele>
        <time>2013-06-22T08:19:13Z</time>
      </trkpt>
      <trkpt lat="44.59282" lon="2.53628">
        <ele>543.082</ele>
        <time>2013-06-22T08:19:27Z</time>
      </trkpt>
      <trkpt lat="44.59284" lon="2.5361">
        <ele>546.286</ele>
        <time>2013-06-22T08:19:41Z</time>
      </trkpt>
      <trkpt lat="44.59288" lon="2.53594">
        <ele>546.121</ele>
        <time>2013-06-22T08:19:55Z</time>
      </trkpt>
      <trkpt lat="44.59289" lon="2.53575">
        <ele>548.474</ele>
        <time>2013-06-22T08:20:10Z</time>
      </trkpt>
      <trkpt lat="44.59287" lon="2.53564">
        <ele>550.831</ele>
        <time>2013-06-22T08:20:24Z</time>
      </trkpt>
      <trkpt lat="44.59292" lon="2.5355">
        <ele>553.17</ele>
        <time>2013-06-22T08:20:41Z</time>
      </trkpt>
      <trkpt lat="44.59304" lon="2.53536">
        <ele>556.262</ele>
        <time>2013-06-22T08:21:01Z</time>
      </trkpt>
      <trkpt lat="44.59315" lon="2.53526">
        <ele>557.886</ele>
        <time>2013-06-22T08:21:19Z</time>
      </trkpt>
      <trkpt lat="44.59321" lon="2.53525">
        <ele>559.603</ele>
        <time>2013-06-22T08:21:32Z</time>
      </trkpt>
      <trkpt lat="44.59335" lon="2.53521">
        <ele>561.154</ele>
        <time>2013-06-22T08:21:45Z</time>
      </trkpt>
      <trkpt lat="44.59345" lon="2.53519">
        <ele>563.391</ele>
        <time>2013-06-22T08:21:59Z</time>
      </trkpt>
      <trkpt lat="44.59352" lon="2.53519">
        <ele>564.179</ele>
        <time>2013-06-22T08:22:10Z</time>
      </trkpt>
      <trkpt lat="44.59365" lon="2.53516">
        <ele>566.492</ele>
        <time>2013-06-22T08:22:26Z</time>
      </trkpt>
      <trkpt lat="44.5938" lon="2.53512">
        <ele>566.656</ele>
        <time>2013-06-22T08:22:43Z</time>
      </trkpt>
      <trkpt lat="44.59392" lon="2.53508">
        <ele>567.501</ele>
        <time>2013-06-22T08:22:58Z</time>
      </trkpt>
      <trkpt lat="44.59404" lon="2.53503">
        <ele>567.343</ele>
        <time>2013-06-22T08:23:18Z</time>
      </trkpt>
      <trkpt lat="44.59412" lon="2.535">
        <ele>567.53</ele>
        <time>2013-06-22T08:23:33Z</time>
      </trkpt>
      <trkpt lat="44.59419" lon="2.535">
        <ele>567.936</ele>
        <time>2013-06-22T08:23:45Z</time>
      </trkpt>
      <trkpt lat="44.59432" lon="2.53504">
        <ele>568.323</ele>
        <time>2013-06-22T08:24:00Z</time>
      </trkpt>
      <trkpt lat="44.5944" lon="2.535">
        <ele>569.041</ele>
        <time>2013-06-22T08:24:10Z</time>
      </trkpt>
      <trkpt lat="44.59451" lon="2.53505">
        <ele>569.437</ele>
        <time>2013-06-22T08:24:25Z</time>
      </trkpt>
      <trkpt lat="44.5946" lon="2.53511">
        <ele>568.964</ele>
        <time>2013-06-22T08:24:40Z</time>
      </trkpt>
      <trkpt lat="44.59466" lon="2.5352">
        <ele>569.339</ele>
        <time>2013-06-22T08:25:04Z</time>
      </trkpt>
      <trkpt lat="44.59466" lon="2.5353">
        <ele>568.296</ele>
        <time>2013-06-22T08:25:42Z</time>
      </trkpt>
      <trkpt lat="44.59473" lon="2.53524">
        <ele>569.067</ele>
        <time>2013-06-22T08:26:32Z</time>
      </trkpt>
      <trkpt lat="44.59462" lon="2.53526">
        <ele>568.113</ele>
        <time>2013-06-22T08:27:36Z</time>
      </trkpt>
      <trkpt lat="44.59473" lon="2.53528">
        <ele>568.116</ele>
        <time>2013-06-22T08:28:31Z</time>
      </trkpt>
      <trkpt lat="44.59468" lon="2.53528">
        <ele>568.217</ele>
        <time>2013-06-22T08:28:45Z</time>
      </trkpt>
      <trkpt lat="44.5947" lon="2.53519">
        <ele>568.696</ele>
        <time>2013-06-22T08:29:28Z</time>
      </trkpt>
      <trkpt lat="44.5946" lon="2.53522">
        <ele>567.848</ele>
        <time>2013-06-22T08:30:26Z</time>
      </trkpt>
      <trkpt lat="44.59468" lon="2.53523">
        <ele>569.631</ele>
        <time>2013-06-22T08:30:46Z</time>
      </trkpt>
      <trkpt lat="44.59473" lon="2.53525">
        <ele>569.656</ele>
        <time>2013-06-22T08:31:26Z</time>
      </trkpt>
      <trkpt lat="44.59478" lon="2.53526">
        <ele>569.66</ele>
        <time>2013-06-22T08:31:39Z</time>
      </trkpt>
      <trkpt lat="44.59492" lon="2.53533">
        <ele>570.741</ele>
        <time>2013-06-22T08:31:55Z</time>
      </trkpt>
      <trkpt lat="44.59504" lon="2.53545">
        <ele>573.864</ele>
        <time>2013-06-22T08:32:13Z</time>
      </trkpt>
      <trkpt lat="44.59513" lon="2.53554">
        <ele>574.77</ele>
        <time>2013-06-22T08:32:28Z</time>
      </trkpt>
      <trkpt lat="44.5953" lon="2.53553">
        <ele>576.568</ele>
        <time>2013-06-22T08:32:46Z</time>
      </trkpt>
      <trkpt lat="44.59547" lon="2.53547">
        <ele>578.288</ele>
        <time>2013-06-22T08:33:08Z</time>
      </trkpt>
      <trkpt lat="44.59554" lon="2.53547">
        <ele>578.481</ele>
        <time>2013-06-22T08:33:15Z</time>
      </trkpt>
      <trkpt lat="44.59577" lon="2.5354">
        <ele>577.18</ele>
        <time>2013-06-22T08:33:37Z</time>
      </trkpt>
      <trkpt lat="44.59593" lon="2.53533">
        <ele>576.534</ele>
        <time>2013-06-22T08:33:54Z</time>
      </trkpt>
      <trkpt lat="44.59605" lon="2.53518">
        <ele>576.603</ele>
        <time>2013-06-22T08:34:10Z</time>
      </trkpt>
      <trkpt lat="44.59611" lon="2.53495">
        <ele>576.797</ele>
        <time>2013-06-22T08:34:30Z</time>
      </trkpt>
      <trkpt lat="44.59624" lon="2.53481">
        <ele>577.934</ele>
        <time>2013-06-22T08:34:48Z</time>
      </trkpt>
      <trkpt lat="44.59639" lon="2.53477">
        <ele>580.111</ele>
        <time>2013-06-22T08:35:07Z</time>
      </trkpt>
      <trkpt lat="44.59647" lon="2.53474">
        <ele>580.588</ele>
        <time>2013-06-22T08:35:46Z</time>
      </trkpt>
      <trkpt lat="44.59666" lon="2.53471">
        <ele>582.049</ele>
        <time>2013-06-22T08:36:07Z</time>
      </trkpt>
      <trkpt lat="44.59682" lon="2.53471">
        <ele>584.688</ele>
        <time>2013-06-22T08:36:26Z</time>
      </trkpt>
      <trkpt lat="44.59701" lon="2.53475">
        <ele>587.099</ele>
        <time>2013-06-22T08:36:49Z</time>
      </trkpt>
      <trkpt lat="44.59718" lon="2.53481">
        <ele>589.245</ele>
        <time>2013-06-22T08:37:12Z</time>
      </trkpt>
      <trkpt lat="44.59736" lon="2.53485">
        <ele>591.584</ele>
        <time>2013-06-22T08:37:35Z</time>
      </trkpt>
      <trkpt lat="44.59752" lon="2.53488">
        <ele>593.993</ele>
        <time>2013-06-22T08:37:55Z</time>
      </trkpt>
      <trkpt lat="44.5977" lon="2.53481">
        <ele>596.467</ele>
        <time>2013-06-22T08:38:19Z</time>
      </trkpt>
      <trkpt lat="44.59786" lon="2.5347">
        <ele>597.745</ele>
        <time>2013-06-22T08:38:42Z</time>
      </trkpt>
      <trkpt lat="44.59806" lon="2.53456">
        <ele>598.345</ele>
        <time>2013-06-22T08:39:06Z</time>
      </trkpt>
      <trkpt lat="44.59825" lon="2.53442">
        <ele>597.731</ele>
        <time>2013-06-22T08:39:29Z</time>
      </trkpt>
      <trkpt lat="44.59841" lon="2.53427">
        <ele>598.51</ele>
        <time>2013-06-22T08:39:50Z</time>
      </trkpt>
      <trkpt lat="44.59849" lon="2.53409">
        <ele>599.697</ele>
        <time>2013-06-22T08:40:08Z</time>
      </trkpt>
      <trkpt lat="44.59862" lon="2.53383">
        <ele>602.009</ele>
        <time>2013-06-22T08:40:31Z</time>
      </trkpt>
      <trkpt lat="44.59877" lon="2.53371">
        <ele>603.112</ele>
        <time>2013-06-22T08:40:51Z</time>
      </trkpt>
      <trkpt lat="44.59881" lon="2.53367">
        <ele>602.656</ele>
        <time>2013-06-22T08:41:08Z</time>
      </trkpt>
      <trkpt lat="44.59893" lon="2.53357">
        <ele>600.534</ele>
        <time>2013-06-22T08:41:29Z</time>
      </trkpt>
      <trkpt lat="44.59901" lon="2.5335">
        <ele>599.416</ele>
        <time>2013-06-22T08:41:49Z</time>
      </trkpt>
      <trkpt lat="44.59912" lon="2.5335">
        <ele>599.465</ele>
        <time>2013-06-22T08:42:49Z</time>
      </trkpt>
      <trkpt lat="44.59917" lon="2.53342">
        <ele>599.621</ele>
        <time>2013-06-22T08:43:04Z</time>
      </trkpt>
      <trkpt lat="44.59939" lon="2.53323">
        <ele>599.856</ele>
        <time>2013-06-22T08:43:31Z</time>
      </trkpt>
      <trkpt lat="44.59961" lon="2.53312">
        <ele>601.32</ele>
        <time>2013-06-22T08:43:55Z</time>
      </trkpt>
      <trkpt lat="44.59967" lon="2.53302">
        <ele>602.365</ele>
        <time>2013-06-22T08:44:13Z</time>
      </trkpt>
      <trkpt lat="44.5997" lon="2.53299">
        <ele>602.134</ele>
        <time>2013-06-22T08:44:41Z</time>
      </trkpt>
      <trkpt lat="44.59976" lon="2.53283">
        <ele>600.449</ele>
        <time>2013-06-22T08:45:07Z</time>
      </trkpt>
      <trkpt lat="44.59978" lon="2.53254">
        <ele>597.708</ele>
        <time>2013-06-22T08:45:29Z</time>
      </trkpt>
      <trkpt lat="44.5998" lon="2.53228">
        <ele>594.652</ele>
        <time>2013-06-22T08:45:47Z</time>
      </trkpt>
      <trkpt lat="44.59984" lon="2.53208">
        <ele>592.602</ele>
        <time>2013-06-22T08:46:04Z</time>
      </trkpt>
      <trkpt lat="44.59984" lon="2.53199">
        <ele>591.888</ele>
        <time>2013-06-22T08:46:19Z</time>
      </trkpt>
      <trkpt lat="44.5999" lon="2.53175">
        <ele>590.669</ele>
        <time>2013-06-22T08:46:40Z</time>
      </trkpt>
      <trkpt lat="44.59993" lon="2.53148">
        <ele>587.643</ele>
        <time>2013-06-22T08:46:59Z</time>
      </trkpt>
      <trkpt lat="44.59995" lon="2.53118">
        <ele>585.042</ele>
        <time>2013-06-22T08:47:21Z</time>
      </trkpt>
      <trkpt lat="44.59999" lon="2.53095">
        <ele>581.966</ele>
        <time>2013-06-22T08:47:39Z</time>
      </trkpt>
      <trkpt lat="44.6" lon="2.53077">
        <ele>581.089</ele>
        <time>2013-06-22T08:47:53Z</time>
      </trkpt>
      <trkpt lat="44.60005" lon="2.53047">
        <ele>578.026</ele>
        <time>2013-06-22T08:48:13Z</time>
      </trkpt>
      <trkpt lat="44.60015" lon="2.53015">
        <ele>575.878</ele>
        <time>2013-06-22T08:48:35Z</time>
      </trkpt>
      <trkpt lat="44.60029" lon="2.52993">
        <ele>574.755</ele>
        <time>2013-06-22T08:48:53Z</time>
      </trkpt>
      <trkpt lat="44.60046" lon="2.52974">
        <ele>572.637</ele>
        <time>2013-06-22T08:49:14Z</time>
      </trkpt>
      <trkpt lat="44.60071" lon="2.52944">
        <ele>570.298</ele>
        <time>2013-06-22T08:49:45Z</time>
      </trkpt>
      <trkpt lat="44.60089" lon="2.52929">
        <ele>567.09</ele>
        <time>2013-06-22T08:50:05Z</time>
      </trkpt>
      <trkpt lat="44.60108" lon="2.52909">
        <ele>564.248</ele>
        <time>2013-06-22T08:50:27Z</time>
      </trkpt>
      <trkpt lat="44.6013" lon="2.52882">
        <ele>561.576</ele>
        <time>2013-06-22T08:50:55Z</time>
      </trkpt>
      <trkpt lat="44.60148" lon="2.52867">
        <ele>558.21</ele>
        <time>2013-06-22T08:51:15Z</time>
      </trkpt>
      <trkpt lat="44.60174" lon="2.52853">
        <ele>555.113</ele>
        <time>2013-06-22T08:51:41Z</time>
      </trkpt>
      <trkpt lat="44.60193" lon="2.52844">
        <ele>553.556</ele>
        <time>2013-06-22T08:52:00Z</time>
      </trkpt>
      <trkpt lat="44.60211" lon="2.52836">
        <ele>550.919</ele>
        <time>2013-06-22T08:52:19Z</time>
      </trkpt>
      <trkpt lat="44.6021" lon="2.52824">
        <ele>549.653</ele>
        <time>2013-06-22T08:52:32Z</time>
      </trkpt>
      <trkpt lat="44.60197" lon="2.52825">
        <ele>547.988</ele>
        <time>2013-06-22T08:52:52Z</time>
      </trkpt>
      <trkpt lat="44.60188" lon="2.52821">
        <ele>546.419</ele>
        <time>2013-06-22T08:53:09Z</time>
      </trkpt>
      <trkpt lat="44.6018" lon="2.52818">
        <ele>545.745</ele>
        <time>2013-06-22T08:53:18Z</time>
      </trkpt>
      <trkpt lat="44.60177" lon="2.52816">
        <ele>544.963</ele>
        <time>2013-06-22T08:53:21Z</time>
      </trkpt>
      <trkpt lat="44.60153" lon="2.52809">
        <ele>542.176</ele>
        <time>2013-06-22T08:53:43Z</time>
      </trkpt>
      <trkpt lat="44.60129" lon="2.52804">
        <ele>540.062</ele>
        <time>2013-06-22T08:54:05Z</time>
      </trkpt>
      <trkpt lat="44.60103" lon="2.52806">
        <ele>536.635</ele>
        <time>2013-06-22T08:54:33Z</time>
      </trkpt>
      <trkpt lat="44.60091" lon="2.52813">
        <ele>535.402</ele>
        <time>2013-06-22T08:54:49Z</time>
      </trkpt>
      <trkpt lat="44.60081" lon="2.52818">
        <ele>534.816</ele>
        <time>2013-06-22T08:55:07Z</time>
      </trkpt>
      <trkpt lat="44.60076" lon="2.52819">
        <ele>534.341</ele>
        <time>2013-06-22T08:55:13Z</time>
      </trkpt>
      <trkpt lat="44.60056" lon="2.52833">
        <ele>532.174</ele>
        <time>2013-06-22T08:55:35Z</time>
      </trkpt>
      <trkpt lat="44.60043" lon="2.5284">
        <ele>530.685</ele>
        <time>2013-06-22T08:55:49Z</time>
      </trkpt>
      <trkpt lat="44.60017" lon="2.52847">
        <ele>528.212</ele>
        <time>2013-06-22T08:56:13Z</time>
      </trkpt>
      <trkpt lat="44.6" lon="2.52836">
        <ele>525.055</ele>
        <time>2013-06-22T08:56:33Z</time>
      </trkpt>
      <trkpt lat="44.59979" lon="2.52824">
        <ele>522.492</ele>
        <time>2013-06-22T08:56:56Z</time>
      </trkpt>
      <trkpt lat="44.59976" lon="2.52798">
        <ele>520.563</ele>
        <time>2013-06-22T08:57:20Z</time>
      </trkpt>
      <trkpt lat="44.59991" lon="2.52784">
        <ele>518.79</ele>
        <time>2013-06-22T08:57:39Z</time>
      </trkpt>
      <trkpt lat="44.60004" lon="2.5278">
        <ele>516.377</ele>
        <time>2013-06-22T08:57:53Z</time>
      </trkpt>
      <trkpt lat="44.60025" lon="2.52774">
        <ele>514.316</ele>
        <time>2013-06-22T08:58:14Z</time>
      </trkpt>
      <trkpt lat="44.60039" lon="2.52762">
        <ele>512.284</ele>
        <time>2013-06-22T08:58:33Z</time>
      </trkpt>
      <trkpt lat="44.60049" lon="2.52748">
        <ele>510.835</ele>
        <time>2013-06-22T08:58:48Z</time>
      </trkpt>
      <trkpt lat="44.60065" lon="2.52721">
        <ele>508.489</ele>
        <time>2013-06-22T08:59:12Z</time>
      </trkpt>
      <trkpt lat="44.60087" lon="2.52688">
        <ele>506.253</ele>
        <time>2013-06-22T08:59:42Z</time>
      </trkpt>
      <trkpt lat="44.601" lon="2.52679">
        <ele>505.696</ele>
        <time>2013-06-22T09:00:07Z</time>
      </trkpt>
      <trkpt lat="44.60103" lon="2.52679">
        <ele>506.015</ele>
        <time>2013-06-22T09:00:35Z</time>
      </trkpt>
      <trkpt lat="44.60105" lon="2.52679">
        <ele>505.897</ele>
        <time>2013-06-22T09:00:57Z</time>
      </trkpt>
      <trkpt lat="44.60113" lon="2.52681">
        <ele>505.653</ele>
        <time>2013-06-22T09:01:12Z</time>
      </trkpt>
      <trkpt lat="44.60113" lon="2.52682">
        <ele>506.477</ele>
        <time>2013-06-22T09:01:41Z</time>
      </trkpt>
      <trkpt lat="44.60114" lon="2.52684">
        <ele>504.964</ele>
        <time>2013-06-22T09:02:01Z</time>
      </trkpt>
      <trkpt lat="44.60115" lon="2.52686">
        <ele>506.901</ele>
        <time>2013-06-22T09:11:44Z</time>
      </trkpt>
      <trkpt lat="44.60116" lon="2.52685">
        <ele>506.691</ele>
        <time>2013-06-22T09:12:52Z</time>
      </trkpt>
      <trkpt lat="44.60114" lon="2.52687">
        <ele>505.962</ele>
        <time>2013-06-22T09:19:37Z</time>
      </trkpt>
      <trkpt lat="44.60117" lon="2.52689">
        <ele>504.718</ele>
        <time>2013-06-22T09:20:48Z</time>
      </trkpt>
      <trkpt lat="44.60115" lon="2.52688">
        <ele>506.479</ele>
        <time>2013-06-22T09:20:51Z</time>
      </trkpt>
      <trkpt lat="44.60113" lon="2.52683">
        <ele>506.607</ele>
        <time>2013-06-22T09:21:15Z</time>
      </trkpt>
      <trkpt lat="44.60111" lon="2.52683">
        <ele>507.189</ele>
        <time>2013-06-22T09:21:34Z</time>
      </trkpt>
      <trkpt lat="44.6011" lon="2.52684">
        <ele>507.229</ele>
        <time>2013-06-22T09:21:55Z</time>
      </trkpt>
      <trkpt lat="44.60103" lon="2.52679">
        <ele>505.613</ele>
        <time>2013-06-22T09:22:10Z</time>
      </trkpt>
      <trkpt lat="44.60112" lon="2.5267">
        <ele>504.923</ele>
        <time>2013-06-22T09:22:27Z</time>
      </trkpt>
      <trkpt lat="44.60131" lon="2.52671">
        <ele>502.675</ele>
        <time>2013-06-22T09:22:50Z</time>
      </trkpt>
      <trkpt lat="44.60145" lon="2.52671">
        <ele>500.765</ele>
        <time>2013-06-22T09:23:08Z</time>
      </trkpt>
      <trkpt lat="44.60163" lon="2.52657">
        <ele>499.24</ele>
        <time>2013-06-22T09:23:30Z</time>
      </trkpt>
      <trkpt lat="44.60176" lon="2.52631">
        <ele>497.939</ele>
        <time>2013-06-22T09:23:56Z</time>
      </trkpt>
      <trkpt lat="44.60187" lon="2.52599">
        <ele>496.582</ele>
        <time>2013-06-22T09:24:22Z</time>
      </trkpt>
      <trkpt lat="44.60207" lon="2.52564">
        <ele>495.941</ele>
        <time>2013-06-22T09:24:53Z</time>
      </trkpt>
      <trkpt lat="44.6023" lon="2.52543">
        <ele>496.784</ele>
        <time>2013-06-22T09:25:20Z</time>
      </trkpt>
      <trkpt lat="44.60242" lon="2.52535">
        <ele>496.846</ele>
        <time>2013-06-22T09:25:41Z</time>
      </trkpt>
      <trkpt lat="44.60247" lon="2.52532">
        <ele>496.546</ele>
        <time>2013-06-22T09:26:22Z</time>
      </trkpt>
      <trkpt lat="44.6027" lon="2.52513">
        <ele>496.13</ele>
        <time>2013-06-22T09:26:48Z</time>
      </trkpt>
      <trkpt lat="44.60296" lon="2.52493">
        <ele>497.202</ele>
        <time>2013-06-22T09:27:17Z</time>
      </trkpt>
      <trkpt lat="44.60314" lon="2.52474">
        <ele>498.483</ele>
        <time>2013-06-22T09:27:40Z</time>
      </trkpt>
      <trkpt lat="44.60342" lon="2.52462">
        <ele>495.684</ele>
        <time>2013-06-22T09:28:08Z</time>
      </trkpt>
      <trkpt lat="44.60368" lon="2.52449">
        <ele>493.634</ele>
        <time>2013-06-22T09:28:34Z</time>
      </trkpt>
      <trkpt lat="44.60387" lon="2.52431">
        <ele>492.05</ele>
        <time>2013-06-22T09:28:57Z</time>
      </trkpt>
      <trkpt lat="44.60398" lon="2.52401">
        <ele>491.203</ele>
        <time>2013-06-22T09:29:20Z</time>
      </trkpt>
      <trkpt lat="44.60414" lon="2.52382">
        <ele>488.121</ele>
        <time>2013-06-22T09:29:43Z</time>
      </trkpt>
      <trkpt lat="44.60424" lon="2.52365">
        <ele>486.766</ele>
        <time>2013-06-22T09:30:00Z</time>
      </trkpt>
      <trkpt lat="44.60422" lon="2.52343">
        <ele>485.696</ele>
        <time>2013-06-22T09:30:18Z</time>
      </trkpt>
      <trkpt lat="44.60411" lon="2.52323">
        <ele>484.746</ele>
        <time>2013-06-22T09:30:38Z</time>
      </trkpt>
      <trkpt lat="44.60398" lon="2.52291">
        <ele>484.331</ele>
        <time>2013-06-22T09:31:02Z</time>
      </trkpt>
      <trkpt lat="44.60382" lon="2.52263">
        <ele>484.984</ele>
        <time>2013-06-22T09:31:26Z</time>
      </trkpt>
      <trkpt lat="44.60373" lon="2.52235">
        <ele>485.102</ele>
        <time>2013-06-22T09:31:45Z</time>
      </trkpt>
      <trkpt lat="44.60368" lon="2.52207">
        <ele>486.255</ele>
        <time>2013-06-22T09:32:09Z</time>
      </trkpt>
      <trkpt lat="44.60355" lon="2.52185">
        <ele>488.177</ele>
        <time>2013-06-22T09:32:29Z</time>
      </trkpt>
      <trkpt lat="44.6034" lon="2.52155">
        <ele>489.689</ele>
        <time>2013-06-22T09:32:54Z</time>
      </trkpt>
      <trkpt lat="44.6035" lon="2.52123">
        <ele>489.146</ele>
        <time>2013-06-22T09:33:17Z</time>
      </trkpt>
      <trkpt lat="44.60371" lon="2.52094">
        <ele>487.651</ele>
        <time>2013-06-22T09:33:45Z</time>
      </trkpt>
      <trkpt lat="44.6039" lon="2.52079">
        <ele>485.998</ele>
        <time>2013-06-22T09:34:05Z</time>
      </trkpt>
      <trkpt lat="44.60414" lon="2.52056">
        <ele>483.809</ele>
        <time>2013-06-22T09:34:31Z</time>
      </trkpt>
      <trkpt lat="44.60433" lon="2.52032">
        <ele>482.724</ele>
        <time>2013-06-22T09:34:55Z</time>
      </trkpt>
      <trkpt lat="44.60456" lon="2.52008">
        <ele>479.648</ele>
        <time>2013-06-22T09:35:22Z</time>
      </trkpt>
      <trkpt lat="44.60477" lon="2.51979">
        <ele>476.869</ele>
        <time>2013-06-22T09:35:49Z</time>
      </trkpt>
      <trkpt lat="44.60497" lon="2.51952">
        <ele>474.446</ele>
        <time>2013-06-22T09:36:16Z</time>
      </trkpt>
      <trkpt lat="44.60518" lon="2.51943">
        <ele>473.273</ele>
        <time>2013-06-22T09:36:37Z</time>
      </trkpt>
      <trkpt lat="44.60527" lon="2.5194">
        <ele>472.247</ele>
        <time>2013-06-22T09:36:46Z</time>
      </trkpt>
      <trkpt lat="44.60532" lon="2.51939">
        <ele>472.019</ele>
        <time>2013-06-22T09:36:50Z</time>
      </trkpt>
      <trkpt lat="44.60537" lon="2.51937">
        <ele>471.733</ele>
        <time>2013-06-22T09:36:55Z</time>
      </trkpt>
      <trkpt lat="44.60555" lon="2.51915">
        <ele>470.413</ele>
        <time>2013-06-22T09:37:18Z</time>
      </trkpt>
      <trkpt lat="44.60556" lon="2.51914">
        <ele>470.585</ele>
        <time>2013-06-22T09:37:19Z</time>
      </trkpt>
      <trkpt lat="44.60577" lon="2.51894">
        <ele>468.64</ele>
        <time>2013-06-22T09:37:44Z</time>
      </trkpt>
      <trkpt lat="44.60592" lon="2.51877">
        <ele>465.344</ele>
        <time>2013-06-22T09:38:08Z</time>
      </trkpt>
      <trkpt lat="44.60586" lon="2.51862">
        <ele>463.165</ele>
        <time>2013-06-22T09:38:27Z</time>
      </trkpt>
      <trkpt lat="44.60583" lon="2.51861">
        <ele>463.168</ele>
        <time>2013-06-22T09:38:30Z</time>
      </trkpt>
      <trkpt lat="44.60571" lon="2.51851">
        <ele>461.78</ele>
        <time>2013-06-22T09:38:45Z</time>
      </trkpt>
      <trkpt lat="44.6055" lon="2.51834">
        <ele>459.474</ele>
        <time>2013-06-22T09:39:09Z</time>
      </trkpt>
      <trkpt lat="44.60547" lon="2.51831">
        <ele>459.364</ele>
        <time>2013-06-22T09:39:12Z</time>
      </trkpt>
      <trkpt lat="44.60543" lon="2.51821">
        <ele>458.794</ele>
        <time>2013-06-22T09:39:20Z</time>
      </trkpt>
      <trkpt lat="44.60546" lon="2.51796">
        <ele>458.571</ele>
        <time>2013-06-22T09:39:42Z</time>
      </trkpt>
      <trkpt lat="44.60547" lon="2.51792">
        <ele>458.509</ele>
        <time>2013-06-22T09:40:21Z</time>
      </trkpt>
      <trkpt lat="44.6055" lon="2.51785">
        <ele>458.887</ele>
        <time>2013-06-22T09:40:37Z</time>
      </trkpt>
      <trkpt lat="44.60552" lon="2.51779">
        <ele>459.142</ele>
        <time>2013-06-22T09:40:42Z</time>
      </trkpt>
      <trkpt lat="44.6057" lon="2.51762">
        <ele>457.986</ele>
        <time>2013-06-22T09:41:05Z</time>
      </trkpt>
      <trkpt lat="44.60579" lon="2.51752">
        <ele>456.67</ele>
        <time>2013-06-22T09:41:19Z</time>
      </trkpt>
      <trkpt lat="44.60602" lon="2.51727">
        <ele>453.343</ele>
        <time>2013-06-22T09:41:47Z</time>
      </trkpt>
      <trkpt lat="44.60612" lon="2.51715">
        <ele>452.957</ele>
        <time>2013-06-22T09:41:59Z</time>
      </trkpt>
      <trkpt lat="44.6063" lon="2.51692">
        <ele>450.958</ele>
        <time>2013-06-22T09:42:24Z</time>
      </trkpt>
      <trkpt lat="44.60633" lon="2.51686">
        <ele>451.234</ele>
        <time>2013-06-22T09:42:47Z</time>
      </trkpt>
      <trkpt lat="44.60634" lon="2.51684">
        <ele>449.847</ele>
        <time>2013-06-22T09:43:02Z</time>
      </trkpt>
      <trkpt lat="44.60633" lon="2.51684">
        <ele>450.818</ele>
        <time>2013-06-22T09:43:29Z</time>
      </trkpt>
      <trkpt lat="44.60636" lon="2.51678">
        <ele>450.918</ele>
        <time>2013-06-22T09:43:55Z</time>
      </trkpt>
      <trkpt lat="44.60634" lon="2.51674">
        <ele>450.982</ele>
        <time>2013-06-22T09:44:39Z</time>
      </trkpt>
      <trkpt lat="44.60631" lon="2.5167">
        <ele>450.503</ele>
        <time>2013-06-22T09:44:55Z</time>
      </trkpt>
      <trkpt lat="44.60623" lon="2.51657">
        <ele>450.092</ele>
        <time>2013-06-22T09:45:09Z</time>
      </trkpt>
      <trkpt lat="44.60622" lon="2.5164">
        <ele>449.244</ele>
        <time>2013-06-22T09:45:24Z</time>
      </trkpt>
      <trkpt lat="44.60636" lon="2.51628">
        <ele>450.512</ele>
        <time>2013-06-22T09:45:44Z</time>
      </trkpt>
      <trkpt lat="44.60649" lon="2.51616">
        <ele>450.849</ele>
        <time>2013-06-22T09:46:02Z</time>
      </trkpt>
      <trkpt lat="44.60664" lon="2.51608">
        <ele>452.549</ele>
        <time>2013-06-22T09:46:22Z</time>
      </trkpt>
      <trkpt lat="44.60681" lon="2.51596">
        <ele>452.52</ele>
        <time>2013-06-22T09:46:42Z</time>
      </trkpt>
      <trkpt lat="44.60702" lon="2.51583">
        <ele>453.122</ele>
        <time>2013-06-22T09:47:05Z</time>
      </trkpt>
      <trkpt lat="44.60718" lon="2.51573">
        <ele>454.66</ele>
        <time>2013-06-22T09:47:25Z</time>
      </trkpt>
      <trkpt lat="44.60734" lon="2.51567">
        <ele>454.606</ele>
        <time>2013-06-22T09:47:44Z</time>
      </trkpt>
      <trkpt lat="44.60751" lon="2.51565">
        <ele>453.83</ele>
        <time>2013-06-22T09:48:01Z</time>
      </trkpt>
      <trkpt lat="44.60769" lon="2.51569">
        <ele>453.981</ele>
        <time>2013-06-22T09:48:20Z</time>
      </trkpt>
      <trkpt lat="44.60779" lon="2.51577">
        <ele>454.541</ele>
        <time>2013-06-22T09:48:33Z</time>
      </trkpt>
      <trkpt lat="44.60789" lon="2.51592">
        <ele>452.732</ele>
        <time>2013-06-22T09:48:48Z</time>
      </trkpt>
      <trkpt lat="44.60798" lon="2.51599">
        <ele>452.605</ele>
        <time>2013-06-22T09:48:59Z</time>
      </trkpt>
      <trkpt lat="44.60808" lon="2.51606">
        <ele>452.492</ele>
        <time>2013-06-22T09:49:14Z</time>
      </trkpt>
      <trkpt lat="44.60817" lon="2.51615">
        <ele>451.82</ele>
        <time>2013-06-22T09:49:29Z</time>
      </trkpt>
      <trkpt lat="44.60833" lon="2.51619">
        <ele>451.044</ele>
        <time>2013-06-22T09:49:45Z</time>
      </trkpt>
      <trkpt lat="44.60851" lon="2.5162">
        <ele>450.724</ele>
        <time>2013-06-22T09:50:02Z</time>
      </trkpt>
      <trkpt lat="44.60853" lon="2.51621">
        <ele>450.843</ele>
        <time>2013-06-22T09:50:04Z</time>
      </trkpt>
      <trkpt lat="44.60872" lon="2.51623">
        <ele>451.128</ele>
        <time>2013-06-22T09:50:19Z</time>
      </trkpt>
      <trkpt lat="44.6089" lon="2.51634">
        <ele>450.965</ele>
        <time>2013-06-22T09:50:40Z</time>
      </trkpt>
      <trkpt lat="44.609" lon="2.51636">
        <ele>450.494</ele>
        <time>2013-06-22T09:50:59Z</time>
      </trkpt>
      <trkpt lat="44.60906" lon="2.51635">
        <ele>450.789</ele>
        <time>2013-06-22T09:51:05Z</time>
      </trkpt>
      <trkpt lat="44.60915" lon="2.51627">
        <ele>450.615</ele>
        <time>2013-06-22T09:51:25Z</time>
      </trkpt>
      <trkpt lat="44.60916" lon="2.5162">
        <ele>450.73</ele>
        <time>2013-06-22T09:51:46Z</time>
      </trkpt>
      <trkpt lat="44.60917" lon="2.51599">
        <ele>451.217</ele>
        <time>2013-06-22T09:52:05Z</time>
      </trkpt>
      <trkpt lat="44.60917" lon="2.51583">
        <ele>450.694</ele>
        <time>2013-06-22T09:52:25Z</time>
      </trkpt>
      <trkpt lat="44.6092" lon="2.51581">
        <ele>450.494</ele>
        <time>2013-06-22T09:53:43Z</time>
      </trkpt>
      <trkpt lat="44.6092" lon="2.51579">
        <ele>450.293</ele>
        <time>2013-06-22T09:55:21Z</time>
      </trkpt>
      <trkpt lat="44.60922" lon="2.51577">
        <ele>448.975</ele>
        <time>2013-06-22T09:59:36Z</time>
      </trkpt>
      <trkpt lat="44.60933" lon="2.5157">
        <ele>447.795</ele>
        <time>2013-06-22T09:59:55Z</time>
      </trkpt>
      <trkpt lat="44.60934" lon="2.51569">
        <ele>447.877</ele>
        <time>2013-06-22T09:59:58Z</time>
      </trkpt>
      <trkpt lat="44.60957" lon="2.51566">
        <ele>445.964</ele>
        <time>2013-06-22T10:00:22Z</time>
      </trkpt>
      <trkpt lat="44.60963" lon="2.51564">
        <ele>445.294</ele>
        <time>2013-06-22T10:00:29Z</time>
      </trkpt>
      <trkpt lat="44.60968" lon="2.51558">
        <ele>444.475</ele>
        <time>2013-06-22T10:00:36Z</time>
      </trkpt>
      <trkpt lat="44.60982" lon="2.51544">
        <ele>444.339</ele>
        <time>2013-06-22T10:00:53Z</time>
      </trkpt>
      <trkpt lat="44.60983" lon="2.51544">
        <ele>444.445</ele>
        <time>2013-06-22T10:00:54Z</time>
      </trkpt>
      <trkpt lat="44.61001" lon="2.51532">
        <ele>443.694</ele>
        <time>2013-06-22T10:01:13Z</time>
      </trkpt>
      <trkpt lat="44.61021" lon="2.51521">
        <ele>443.369</ele>
        <time>2013-06-22T10:01:34Z</time>
      </trkpt>
      <trkpt lat="44.61036" lon="2.51515">
        <ele>442.237</ele>
        <time>2013-06-22T10:01:50Z</time>
      </trkpt>
      <trkpt lat="44.61039" lon="2.51507">
        <ele>439.573</ele>
        <time>2013-06-22T10:02:07Z</time>
      </trkpt>
      <trkpt lat="44.61041" lon="2.51489">
        <ele>437.06</ele>
        <time>2013-06-22T10:02:23Z</time>
      </trkpt>
      <trkpt lat="44.61036" lon="2.51473">
        <ele>434.324</ele>
        <time>2013-06-22T10:02:38Z</time>
      </trkpt>
      <trkpt lat="44.61035" lon="2.5145">
        <ele>432.163</ele>
        <time>2013-06-22T10:02:56Z</time>
      </trkpt>
      <trkpt lat="44.61039" lon="2.51432">
        <ele>429.09</ele>
        <time>2013-06-22T10:03:13Z</time>
      </trkpt>
      <trkpt lat="44.61048" lon="2.51418">
        <ele>425.556</ele>
        <time>2013-06-22T10:03:27Z</time>
      </trkpt>
      <trkpt lat="44.61053" lon="2.51398">
        <ele>424.11</ele>
        <time>2013-06-22T10:03:44Z</time>
      </trkpt>
      <trkpt lat="44.61053" lon="2.51385">
        <ele>421.001</ele>
        <time>2013-06-22T10:03:57Z</time>
      </trkpt>
      <trkpt lat="44.61058" lon="2.51373">
        <ele>419.317</ele>
        <time>2013-06-22T10:04:09Z</time>
      </trkpt>
      <trkpt lat="44.61071" lon="2.51361">
        <ele>417.503</ele>
        <time>2013-06-22T10:04:26Z</time>
      </trkpt>
      <trkpt lat="44.61088" lon="2.51358">
        <ele>415.598</ele>
        <time>2013-06-22T10:04:43Z</time>
      </trkpt>
      <trkpt lat="44.61108" lon="2.5135">
        <ele>414.069</ele>
        <time>2013-06-22T10:05:03Z</time>
      </trkpt>
      <trkpt lat="44.61123" lon="2.51353">
        <ele>412.889</ele>
        <time>2013-06-22T10:05:21Z</time>
      </trkpt>
      <trkpt lat="44.61134" lon="2.51368">
        <ele>410.731</ele>
        <time>2013-06-22T10:05:39Z</time>
      </trkpt>
      <trkpt lat="44.6114" lon="2.51386">
        <ele>408.644</ele>
        <time>2013-06-22T10:05:53Z</time>
      </trkpt>
      <trkpt lat="44.61145" lon="2.5141">
        <ele>406.673</ele>
        <time>2013-06-22T10:06:11Z</time>
      </trkpt>
      <trkpt lat="44.61147" lon="2.5142">
        <ele>404.519</ele>
        <time>2013-06-22T10:06:26Z</time>
      </trkpt>
      <trkpt lat="44.61155" lon="2.51426">
        <ele>403.48</ele>
        <time>2013-06-22T10:06:44Z</time>
      </trkpt>
      <trkpt lat="44.61163" lon="2.51433">
        <ele>401.383</ele>
        <time>2013-06-22T10:07:00Z</time>
      </trkpt>
      <trkpt lat="44.61175" lon="2.51439">
        <ele>400.704</ele>
        <time>2013-06-22T10:07:15Z</time>
      </trkpt>
      <trkpt lat="44.61185" lon="2.51445">
        <ele>398.929</ele>
        <time>2013-06-22T10:07:30Z</time>
      </trkpt>
      <trkpt lat="44.6119" lon="2.51453">
        <ele>397.186</ele>
        <time>2013-06-22T10:07:47Z</time>
      </trkpt>
      <trkpt lat="44.61197" lon="2.51462">
        <ele>394.583</ele>
        <time>2013-06-22T10:08:01Z</time>
      </trkpt>
      <trkpt lat="44.61197" lon="2.51462">
        <ele>394.477</ele>
        <time>2013-06-22T10:08:02Z</time>
      </trkpt>
      <trkpt lat="44.61207" lon="2.51479">
        <ele>393.927</ele>
        <time>2013-06-22T10:08:17Z</time>
      </trkpt>
      <trkpt lat="44.61211" lon="2.51497">
        <ele>394.422</ele>
        <time>2013-06-22T10:08:29Z</time>
      </trkpt>
      <trkpt lat="44.6121" lon="2.51521">
        <ele>393.909</ele>
        <time>2013-06-22T10:08:45Z</time>
      </trkpt>
      <trkpt lat="44.61211" lon="2.51532">
        <ele>394.31</ele>
        <time>2013-06-22T10:08:59Z</time>
      </trkpt>
      <trkpt lat="44.61211" lon="2.51531">
        <ele>394.563</ele>
        <time>2013-06-22T10:09:15Z</time>
      </trkpt>
      <trkpt lat="44.61217" lon="2.51536">
        <ele>395.665</ele>
        <time>2013-06-22T10:09:34Z</time>
      </trkpt>
      <trkpt lat="44.61224" lon="2.51533">
        <ele>395.905</ele>
        <time>2013-06-22T10:09:53Z</time>
      </trkpt>
      <trkpt lat="44.61228" lon="2.51522">
        <ele>397.702</ele>
        <time>2013-06-22T10:10:09Z</time>
      </trkpt>
      <trkpt lat="44.61232" lon="2.51514">
        <ele>398.455</ele>
        <time>2013-06-22T10:10:39Z</time>
      </trkpt>
      <trkpt lat="44.61229" lon="2.51513">
        <ele>397.636</ele>
        <time>2013-06-22T10:11:12Z</time>
      </trkpt>
      <trkpt lat="44.61228" lon="2.515">
        <ele>395.136</ele>
        <time>2013-06-22T10:11:30Z</time>
      </trkpt>
      <trkpt lat="44.61226" lon="2.51476">
        <ele>395.189</ele>
        <time>2013-06-22T10:11:49Z</time>
      </trkpt>
      <trkpt lat="44.6123" lon="2.5145">
        <ele>395.2</ele>
        <time>2013-06-22T10:12:07Z</time>
      </trkpt>
      <trkpt lat="44.61228" lon="2.51429">
        <ele>394.977</ele>
        <time>2013-06-22T10:12:23Z</time>
      </trkpt>
      <trkpt lat="44.61225" lon="2.5142">
        <ele>396.131</ele>
        <time>2013-06-22T10:12:30Z</time>
      </trkpt>
      <trkpt lat="44.61217" lon="2.51396">
        <ele>397.301</ele>
        <time>2013-06-22T10:12:50Z</time>
      </trkpt>
      <trkpt lat="44.61227" lon="2.51374">
        <ele>399.238</ele>
        <time>2013-06-22T10:13:10Z</time>
      </trkpt>
      <trkpt lat="44.61233" lon="2.51359">
        <ele>400.414</ele>
        <time>2013-06-22T10:13:26Z</time>
      </trkpt>
      <trkpt lat="44.61238" lon="2.51349">
        <ele>401.699</ele>
        <time>2013-06-22T10:13:34Z</time>
      </trkpt>
      <trkpt lat="44.61244" lon="2.51337">
        <ele>402.968</ele>
        <time>2013-06-22T10:13:48Z</time>
      </trkpt>
      <trkpt lat="44.61253" lon="2.51325">
        <ele>402.926</ele>
        <time>2013-06-22T10:14:02Z</time>
      </trkpt>
      <trkpt lat="44.6126" lon="2.51312">
        <ele>403.06</ele>
        <time>2013-06-22T10:14:16Z</time>
      </trkpt>
      <trkpt lat="44.61251" lon="2.51295">
        <ele>402.619</ele>
        <time>2013-06-22T10:14:32Z</time>
      </trkpt>
      <trkpt lat="44.61245" lon="2.51266">
        <ele>403.062</ele>
        <time>2013-06-22T10:14:52Z</time>
      </trkpt>
      <trkpt lat="44.61242" lon="2.51239">
        <ele>402.785</ele>
        <time>2013-06-22T10:15:11Z</time>
      </trkpt>
      <trkpt lat="44.61237" lon="2.51208">
        <ele>403.545</ele>
        <time>2013-06-22T10:15:35Z</time>
      </trkpt>
      <trkpt lat="44.6124" lon="2.51179">
        <ele>403.278</ele>
        <time>2013-06-22T10:15:56Z</time>
      </trkpt>
      <trkpt lat="44.61247" lon="2.51159">
        <ele>403.637</ele>
        <time>2013-06-22T10:16:19Z</time>
      </trkpt>
      <trkpt lat="44.61248" lon="2.51151">
        <ele>403.781</ele>
        <time>2013-06-22T10:16:49Z</time>
      </trkpt>
      <trkpt lat="44.61255" lon="2.51126">
        <ele>403.629</ele>
        <time>2013-06-22T10:17:10Z</time>
      </trkpt>
      <trkpt lat="44.61257" lon="2.5112">
        <ele>404.225</ele>
        <time>2013-06-22T10:17:15Z</time>
      </trkpt>
      <trkpt lat="44.61268" lon="2.51092">
        <ele>404.899</ele>
        <time>2013-06-22T10:17:41Z</time>
      </trkpt>
      <trkpt lat="44.6127" lon="2.51087">
        <ele>404.86</ele>
        <time>2013-06-22T10:18:07Z</time>
      </trkpt>
      <trkpt lat="44.61277" lon="2.51071">
        <ele>405.04</ele>
        <time>2013-06-22T10:18:27Z</time>
      </trkpt>
      <trkpt lat="44.61269" lon="2.51056">
        <ele>404.126</ele>
        <time>2013-06-22T10:18:44Z</time>
      </trkpt>
      <trkpt lat="44.61259" lon="2.51041">
        <ele>402.947</ele>
        <time>2013-06-22T10:19:02Z</time>
      </trkpt>
      <trkpt lat="44.61251" lon="2.51019">
        <ele>402.452</ele>
        <time>2013-06-22T10:19:20Z</time>
      </trkpt>
      <trkpt lat="44.61246" lon="2.51004">
        <ele>401.247</ele>
        <time>2013-06-22T10:19:31Z</time>
      </trkpt>
      <trkpt lat="44.61238" lon="2.50963">
        <ele>398.574</ele>
        <time>2013-06-22T10:20:00Z</time>
      </trkpt>
      <trkpt lat="44.61231" lon="2.50949">
        <ele>397.657</ele>
        <time>2013-06-22T10:20:13Z</time>
      </trkpt>
      <trkpt lat="44.61208" lon="2.50932">
        <ele>397.3</ele>
        <time>2013-06-22T10:20:39Z</time>
      </trkpt>
      <trkpt lat="44.61198" lon="2.50926">
        <ele>397.848</ele>
        <time>2013-06-22T10:20:59Z</time>
      </trkpt>
      <trkpt lat="44.61196" lon="2.50922">
        <ele>398.092</ele>
        <time>2013-06-22T10:21:31Z</time>
      </trkpt>
      <trkpt lat="44.61197" lon="2.50923">
        <ele>398.348</ele>
        <time>2013-06-22T10:21:49Z</time>
      </trkpt>
      <trkpt lat="44.61199" lon="2.50925">
        <ele>398.102</ele>
        <time>2013-06-22T10:22:13Z</time>
      </trkpt>
      <trkpt lat="44.61192" lon="2.50923">
        <ele>395.768</ele>
        <time>2013-06-22T10:22:30Z</time>
      </trkpt>
      <trkpt lat="44.61189" lon="2.50927">
        <ele>395.826</ele>
        <time>2013-06-22T10:22:38Z</time>
      </trkpt>
      <trkpt lat="44.61183" lon="2.50933">
        <ele>394.764</ele>
        <time>2013-06-22T10:22:44Z</time>
      </trkpt>
      <trkpt lat="44.61181" lon="2.5095">
        <ele>394.709</ele>
        <time>2013-06-22T10:22:56Z</time>
      </trkpt>
      <trkpt lat="44.61183" lon="2.5097">
        <ele>393.238</ele>
        <time>2013-06-22T10:23:13Z</time>
      </trkpt>
      <trkpt lat="44.61184" lon="2.50978">
        <ele>392.388</ele>
        <time>2013-06-22T10:23:25Z</time>
      </trkpt>
      <trkpt lat="44.61191" lon="2.50992">
        <ele>391.428</ele>
        <time>2013-06-22T10:23:39Z</time>
      </trkpt>
      <trkpt lat="44.61186" lon="2.51009">
        <ele>390.456</ele>
        <time>2013-06-22T10:23:54Z</time>
      </trkpt>
      <trkpt lat="44.61185" lon="2.51008">
        <ele>390.884</ele>
        <time>2013-06-22T10:23:55Z</time>
      </trkpt>
      <trkpt lat="44.61164" lon="2.50986">
        <ele>389.345</ele>
        <time>2013-06-22T10:24:22Z</time>
      </trkpt>
      <trkpt lat="44.6116" lon="2.50991">
        <ele>389.187</ele>
        <time>2013-06-22T10:24:42Z</time>
      </trkpt>
      <trkpt lat="44.61159" lon="2.50986">
        <ele>389.08</ele>
        <time>2013-06-22T10:24:47Z</time>
      </trkpt>
      <trkpt lat="44.61154" lon="2.50974">
        <ele>388.363</ele>
        <time>2013-06-22T10:24:54Z</time>
      </trkpt>
      <trkpt lat="44.61138" lon="2.50953">
        <ele>387.192</ele>
        <time>2013-06-22T10:25:14Z</time>
      </trkpt>
      <trkpt lat="44.61118" lon="2.50936">
        <ele>384.866</ele>
        <time>2013-06-22T10:25:38Z</time>
      </trkpt>
      <trkpt lat="44.61093" lon="2.50914">
        <ele>381.934</ele>
        <time>2013-06-22T10:26:07Z</time>
      </trkpt>
      <trkpt lat="44.61079" lon="2.509">
        <ele>378.604</ele>
        <time>2013-06-22T10:26:24Z</time>
      </trkpt>
      <trkpt lat="44.61055" lon="2.5087">
        <ele>375.492</ele>
        <time>2013-06-22T10:26:56Z</time>
      </trkpt>
      <trkpt lat="44.6104" lon="2.5085">
        <ele>372.356</ele>
        <time>2013-06-22T10:27:19Z</time>
      </trkpt>
      <trkpt lat="44.61027" lon="2.50846">
        <ele>369.961</ele>
        <time>2013-06-22T10:27:33Z</time>
      </trkpt>
      <trkpt lat="44.60998" lon="2.50835">
        <ele>367.772</ele>
        <time>2013-06-22T10:28:04Z</time>
      </trkpt>
      <trkpt lat="44.60991" lon="2.5083">
        <ele>368.082</ele>
        <time>2013-06-22T10:28:18Z</time>
      </trkpt>
      <trkpt lat="44.60997" lon="2.50822">
        <ele>367.932</ele>
        <time>2013-06-22T10:29:05Z</time>
      </trkpt>
      <trkpt lat="44.60988" lon="2.50832">
        <ele>368.954</ele>
        <time>2013-06-22T10:29:19Z</time>
      </trkpt>
      <trkpt lat="44.60979" lon="2.50852">
        <ele>370.39</ele>
        <time>2013-06-22T10:29:41Z</time>
      </trkpt>
      <trkpt lat="44.60974" lon="2.50867">
        <ele>372.345</ele>
        <time>2013-06-22T10:29:59Z</time>
      </trkpt>
      <trkpt lat="44.6097" lon="2.50877">
        <ele>375.4</ele>
        <time>2013-06-22T10:30:11Z</time>
      </trkpt>
      <trkpt lat="44.60966" lon="2.50889">
        <ele>378.032</ele>
        <time>2013-06-22T10:30:31Z</time>
      </trkpt>
      <trkpt lat="44.60965" lon="2.50902">
        <ele>379.98</ele>
        <time>2013-06-22T10:30:48Z</time>
      </trkpt>
      <trkpt lat="44.60958" lon="2.50917">
        <ele>382.267</ele>
        <time>2013-06-22T10:31:07Z</time>
      </trkpt>
      <trkpt lat="44.60955" lon="2.50928">
        <ele>384.291</ele>
        <time>2013-06-22T10:31:24Z</time>
      </trkpt>
      <trkpt lat="44.60949" lon="2.50941">
        <ele>385.448</ele>
        <time>2013-06-22T10:31:42Z</time>
      </trkpt>
      <trkpt lat="44.60941" lon="2.50951">
        <ele>388.557</ele>
        <time>2013-06-22T10:32:00Z</time>
      </trkpt>
      <trkpt lat="44.60933" lon="2.50967">
        <ele>388.942</ele>
        <time>2013-06-22T10:32:18Z</time>
      </trkpt>
      <trkpt lat="44.60925" lon="2.50969">
        <ele>389.907</ele>
        <time>2013-06-22T10:32:36Z</time>
      </trkpt>
      <trkpt lat="44.60914" lon="2.50964">
        <ele>391.499</ele>
        <time>2013-06-22T10:32:56Z</time>
      </trkpt>
      <trkpt lat="44.60907" lon="2.50958">
        <ele>392.441</ele>
        <time>2013-06-22T10:33:17Z</time>
      </trkpt>
      <trkpt lat="44.60908" lon="2.5094">
        <ele>392.239</ele>
        <time>2013-06-22T10:33:36Z</time>
      </trkpt>
      <trkpt lat="44.60909" lon="2.50934">
        <ele>393.108</ele>
        <time>2013-06-22T10:33:41Z</time>
      </trkpt>
      <trkpt lat="44.60905" lon="2.50909">
        <ele>395.107</ele>
        <time>2013-06-22T10:34:04Z</time>
      </trkpt>
      <trkpt lat="44.60901" lon="2.50887">
        <ele>396.015</ele>
        <time>2013-06-22T10:34:24Z</time>
      </trkpt>
      <trkpt lat="44.60898" lon="2.50878">
        <ele>396.533</ele>
        <time>2013-06-22T10:34:31Z</time>
      </trkpt>
      <trkpt lat="44.60887" lon="2.50845">
        <ele>397.646</ele>
        <time>2013-06-22T10:34:56Z</time>
      </trkpt>
      <trkpt lat="44.60877" lon="2.50814">
        <ele>398.127</ele>
        <time>2013-06-22T10:35:22Z</time>
      </trkpt>
      <trkpt lat="44.60872" lon="2.50786">
        <ele>401.235</ele>
        <time>2013-06-22T10:35:45Z</time>
      </trkpt>
      <trkpt lat="44.60868" lon="2.50753">
        <ele>402.347</ele>
        <time>2013-06-22T10:36:10Z</time>
      </trkpt>
      <trkpt lat="44.60869" lon="2.50732">
        <ele>404.63</ele>
        <time>2013-06-22T10:36:30Z</time>
      </trkpt>
      <trkpt lat="44.60868" lon="2.50711">
        <ele>407.469</ele>
        <time>2013-06-22T10:36:53Z</time>
      </trkpt>
      <trkpt lat="44.60874" lon="2.50687">
        <ele>409.694</ele>
        <time>2013-06-22T10:37:15Z</time>
      </trkpt>
      <trkpt lat="44.60873" lon="2.50662">
        <ele>410.344</ele>
        <time>2013-06-22T10:37:35Z</time>
      </trkpt>
      <trkpt lat="44.60864" lon="2.50621">
        <ele>411.142</ele>
        <time>2013-06-22T10:38:06Z</time>
      </trkpt>
      <trkpt lat="44.60854" lon="2.5058">
        <ele>412.616</ele>
        <time>2013-06-22T10:38:37Z</time>
      </trkpt>
      <trkpt lat="44.60849" lon="2.50563">
        <ele>412.739</ele>
        <time>2013-06-22T10:38:57Z</time>
      </trkpt>
      <trkpt lat="44.6084" lon="2.50531">
        <ele>415.02</ele>
        <time>2013-06-22T10:39:23Z</time>
      </trkpt>
      <trkpt lat="44.60835" lon="2.50497">
        <ele>415.853</ele>
        <time>2013-06-22T10:39:48Z</time>
      </trkpt>
      <trkpt lat="44.60827" lon="2.50472">
        <ele>418.947</ele>
        <time>2013-06-22T10:40:10Z</time>
      </trkpt>
      <trkpt lat="44.60825" lon="2.50458">
        <ele>419.334</ele>
        <time>2013-06-22T10:40:40Z</time>
      </trkpt>
      <trkpt lat="44.60808" lon="2.50433">
        <ele>421.044</ele>
        <time>2013-06-22T10:41:06Z</time>
      </trkpt>
      <trkpt lat="44.60786" lon="2.50415">
        <ele>421.519</ele>
        <time>2013-06-22T10:41:33Z</time>
      </trkpt>
      <trkpt lat="44.60768" lon="2.50395">
        <ele>422.487</ele>
        <time>2013-06-22T10:41:58Z</time>
      </trkpt>
      <trkpt lat="44.60745" lon="2.50376">
        <ele>424.652</ele>
        <time>2013-06-22T10:42:26Z</time>
      </trkpt>
      <trkpt lat="44.60737" lon="2.50367">
        <ele>425.174</ele>
        <time>2013-06-22T10:42:48Z</time>
      </trkpt>
      <trkpt lat="44.60731" lon="2.50362">
        <ele>425.177</ele>
        <time>2013-06-22T10:43:04Z</time>
      </trkpt>
      <trkpt lat="44.60733" lon="2.50359">
        <ele>424.663</ele>
        <time>2013-06-22T10:43:16Z</time>
      </trkpt>
      <trkpt lat="44.60735" lon="2.50358">
        <ele>425.591</ele>
        <time>2013-06-22T10:45:10Z</time>
      </trkpt>
      <trkpt lat="44.60735" lon="2.50357">
        <ele>425.76</ele>
        <time>2013-06-22T10:45:41Z</time>
      </trkpt>
      <trkpt lat="44.60733" lon="2.50359">
        <ele>426.062</ele>
        <time>2013-06-22T10:47:00Z</time>
      </trkpt>
      <trkpt lat="44.60711" lon="2.50354">
        <ele>424.204</ele>
        <time>2013-06-22T10:47:22Z</time>
      </trkpt>
      <trkpt lat="44.60695" lon="2.5034">
        <ele>421.976</ele>
        <time>2013-06-22T10:47:45Z</time>
      </trkpt>
      <trkpt lat="44.60692" lon="2.50324">
        <ele>419.349</ele>
        <time>2013-06-22T10:48:02Z</time>
      </trkpt>
      <trkpt lat="44.6069" lon="2.50307">
        <ele>417.202</ele>
        <time>2013-06-22T10:48:18Z</time>
      </trkpt>
      <trkpt lat="44.60692" lon="2.50278">
        <ele>415.9</ele>
        <time>2013-06-22T10:48:38Z</time>
      </trkpt>
      <trkpt lat="44.60692" lon="2.50271">
        <ele>415.598</ele>
        <time>2013-06-22T10:48:43Z</time>
      </trkpt>
      <trkpt lat="44.60688" lon="2.50262">
        <ele>415.258</ele>
        <time>2013-06-22T10:48:51Z</time>
      </trkpt>
      <trkpt lat="44.60668" lon="2.50251">
        <ele>413.213</ele>
        <time>2013-06-22T10:49:15Z</time>
      </trkpt>
      <trkpt lat="44.60654" lon="2.50239">
        <ele>412.782</ele>
        <time>2013-06-22T10:49:35Z</time>
      </trkpt>
      <trkpt lat="44.60641" lon="2.50236">
        <ele>415.79</ele>
        <time>2013-06-22T10:49:49Z</time>
      </trkpt>
      <trkpt lat="44.60637" lon="2.50239">
        <ele>416.602</ele>
        <time>2013-06-22T10:50:03Z</time>
      </trkpt>
      <trkpt lat="44.60625" lon="2.50236">
        <ele>417.754</ele>
        <time>2013-06-22T10:50:20Z</time>
      </trkpt>
      <trkpt lat="44.60623" lon="2.50211">
        <ele>418.871</ele>
        <time>2013-06-22T10:50:40Z</time>
      </trkpt>
      <trkpt lat="44.60626" lon="2.50179">
        <ele>420.701</ele>
        <time>2013-06-22T10:51:03Z</time>
      </trkpt>
      <trkpt lat="44.60626" lon="2.50174">
        <ele>420.13</ele>
        <time>2013-06-22T10:51:07Z</time>
      </trkpt>
      <trkpt lat="44.60627" lon="2.50151">
        <ele>420.75</ele>
        <time>2013-06-22T10:51:29Z</time>
      </trkpt>
      <trkpt lat="44.60628" lon="2.50134">
        <ele>421.33</ele>
        <time>2013-06-22T10:52:01Z</time>
      </trkpt>
      <trkpt lat="44.60626" lon="2.50098">
        <ele>422.185</ele>
        <time>2013-06-22T10:52:27Z</time>
      </trkpt>
      <trkpt lat="44.60614" lon="2.50067">
        <ele>422.217</ele>
        <time>2013-06-22T10:52:53Z</time>
      </trkpt>
      <trkpt lat="44.60594" lon="2.50046">
        <ele>423.736</ele>
        <time>2013-06-22T10:53:18Z</time>
      </trkpt>
      <trkpt lat="44.60565" lon="2.50033">
        <ele>424.802</ele>
        <time>2013-06-22T10:53:44Z</time>
      </trkpt>
      <trkpt lat="44.60546" lon="2.50019">
        <ele>425.372</ele>
        <time>2013-06-22T10:54:05Z</time>
      </trkpt>
      <trkpt lat="44.60526" lon="2.50004">
        <ele>425.317</ele>
        <time>2013-06-22T10:54:26Z</time>
      </trkpt>
      <trkpt lat="44.6051" lon="2.49987">
        <ele>425.494</ele>
        <time>2013-06-22T10:54:46Z</time>
      </trkpt>
      <trkpt lat="44.60498" lon="2.4997">
        <ele>425.796</ele>
        <time>2013-06-22T10:55:02Z</time>
      </trkpt>
      <trkpt lat="44.60486" lon="2.49957">
        <ele>426.55</ele>
        <time>2013-06-22T10:55:20Z</time>
      </trkpt>
      <trkpt lat="44.60479" lon="2.49933">
        <ele>426.131</ele>
        <time>2013-06-22T10:55:38Z</time>
      </trkpt>
      <trkpt lat="44.60475" lon="2.49907">
        <ele>426.556</ele>
        <time>2013-06-22T10:55:56Z</time>
      </trkpt>
      <trkpt lat="44.60476" lon="2.49881">
        <ele>426.349</ele>
        <time>2013-06-22T10:56:17Z</time>
      </trkpt>
      <trkpt lat="44.60477" lon="2.49879">
        <ele>426.273</ele>
        <time>2013-06-22T10:56:20Z</time>
      </trkpt>
      <trkpt lat="44.60477" lon="2.49844">
        <ele>426.532</ele>
        <time>2013-06-22T10:56:43Z</time>
      </trkpt>
      <trkpt lat="44.60477" lon="2.49808">
        <ele>426.747</ele>
        <time>2013-06-22T10:57:07Z</time>
      </trkpt>
      <trkpt lat="44.60478" lon="2.49764">
        <ele>426.174</ele>
        <time>2013-06-22T10:57:37Z</time>
      </trkpt>
      <trkpt lat="44.60487" lon="2.49727">
        <ele>425.765</ele>
        <time>2013-06-22T10:58:03Z</time>
      </trkpt>
      <trkpt lat="44.60501" lon="2.49684">
        <ele>424.853</ele>
        <time>2013-06-22T10:58:34Z</time>
      </trkpt>
      <trkpt lat="44.60508" lon="2.49665">
        <ele>424.945</ele>
        <time>2013-06-22T10:58:57Z</time>
      </trkpt>
      <trkpt lat="44.60511" lon="2.49662">
        <ele>424.568</ele>
        <time>2013-06-22T10:59:20Z</time>
      </trkpt>
      <trkpt lat="44.60509" lon="2.49657">
        <ele>424.26</ele>
        <time>2013-06-22T11:00:06Z</time>
      </trkpt>
      <trkpt lat="44.60513" lon="2.49643">
        <ele>425.509</ele>
        <time>2013-06-22T11:02:22Z</time>
      </trkpt>
      <trkpt lat="44.60519" lon="2.49612">
        <ele>425.57</ele>
        <time>2013-06-22T11:02:47Z</time>
      </trkpt>
      <trkpt lat="44.60509" lon="2.49592">
        <ele>426.736</ele>
        <time>2013-06-22T11:03:07Z</time>
      </trkpt>
      <trkpt lat="44.60505" lon="2.49571">
        <ele>429.092</ele>
        <time>2013-06-22T11:03:27Z</time>
      </trkpt>
      <trkpt lat="44.60503" lon="2.49557">
        <ele>431.46</ele>
        <time>2013-06-22T11:03:45Z</time>
      </trkpt>
      <trkpt lat="44.60504" lon="2.49541">
        <ele>433.491</ele>
        <time>2013-06-22T11:04:05Z</time>
      </trkpt>
      <trkpt lat="44.60501" lon="2.49527">
        <ele>435.188</ele>
        <time>2013-06-22T11:04:23Z</time>
      </trkpt>
      <trkpt lat="44.60501" lon="2.49514">
        <ele>436.821</ele>
        <time>2013-06-22T11:04:40Z</time>
      </trkpt>
      <trkpt lat="44.60501" lon="2.49499">
        <ele>438.847</ele>
        <time>2013-06-22T11:04:56Z</time>
      </trkpt>
      <trkpt lat="44.60504" lon="2.49482">
        <ele>440.615</ele>
        <time>2013-06-22T11:05:16Z</time>
      </trkpt>
      <trkpt lat="44.60502" lon="2.49468">
        <ele>443.683</ele>
        <time>2013-06-22T11:05:35Z</time>
      </trkpt>
      <trkpt lat="44.60495" lon="2.49456">
        <ele>444.86</ele>
        <time>2013-06-22T11:05:52Z</time>
      </trkpt>
      <trkpt lat="44.60488" lon="2.49444">
        <ele>446.552</ele>
        <time>2013-06-22T11:06:10Z</time>
      </trkpt>
      <trkpt lat="44.6049" lon="2.49429">
        <ele>448.878</ele>
        <time>2013-06-22T11:06:28Z</time>
      </trkpt>
      <trkpt lat="44.60495" lon="2.49417">
        <ele>449.902</ele>
        <time>2013-06-22T11:06:42Z</time>
      </trkpt>
      <trkpt lat="44.60495" lon="2.49399">
        <ele>451.745</ele>
        <time>2013-06-22T11:07:00Z</time>
      </trkpt>
      <trkpt lat="44.60493" lon="2.49381">
        <ele>453.773</ele>
        <time>2013-06-22T11:07:20Z</time>
      </trkpt>
      <trkpt lat="44.60492" lon="2.49368">
        <ele>455.141</ele>
        <time>2013-06-22T11:07:36Z</time>
      </trkpt>
      <trkpt lat="44.6049" lon="2.49354">
        <ele>457.069</ele>
        <time>2013-06-22T11:07:52Z</time>
      </trkpt>
      <trkpt lat="44.60488" lon="2.49342">
        <ele>459.106</ele>
        <time>2013-06-22T11:08:10Z</time>
      </trkpt>
      <trkpt lat="44.60486" lon="2.49336">
        <ele>459.406</ele>
        <time>2013-06-22T11:08:15Z</time>
      </trkpt>
      <trkpt lat="44.6048" lon="2.49321">
        <ele>461.023</ele>
        <time>2013-06-22T11:08:31Z</time>
      </trkpt>
      <trkpt lat="44.60472" lon="2.49303">
        <ele>462.52</ele>
        <time>2013-06-22T11:08:52Z</time>
      </trkpt>
      <trkpt lat="44.60468" lon="2.49293">
        <ele>464.535</ele>
        <time>2013-06-22T11:09:07Z</time>
      </trkpt>
      <trkpt lat="44.6046" lon="2.49276">
        <ele>465.689</ele>
        <time>2013-06-22T11:09:25Z</time>
      </trkpt>
      <trkpt lat="44.60453" lon="2.49252">
        <ele>467.915</ele>
        <time>2013-06-22T11:09:48Z</time>
      </trkpt>
      <trkpt lat="44.60452" lon="2.49234">
        <ele>468.874</ele>
        <time>2013-06-22T11:10:07Z</time>
      </trkpt>
      <trkpt lat="44.6046" lon="2.49221">
        <ele>471.197</ele>
        <time>2013-06-22T11:10:25Z</time>
      </trkpt>
      <trkpt lat="44.60459" lon="2.49219">
        <ele>471.712</ele>
        <time>2013-06-22T11:10:43Z</time>
      </trkpt>
      <trkpt lat="44.60457" lon="2.49219">
        <ele>471.346</ele>
        <time>2013-06-22T11:11:12Z</time>
      </trkpt>
      <trkpt lat="44.60459" lon="2.49218">
        <ele>471.125</ele>
        <time>2013-06-22T11:11:42Z</time>
      </trkpt>
      <trkpt lat="44.60458" lon="2.4922">
        <ele>471.277</ele>
        <time>2013-06-22T11:13:46Z</time>
      </trkpt>
      <trkpt lat="44.60451" lon="2.49213">
        <ele>472.305</ele>
        <time>2013-06-22T11:14:45Z</time>
      </trkpt>
      <trkpt lat="44.60439" lon="2.49205">
        <ele>475.396</ele>
        <time>2013-06-22T11:15:04Z</time>
      </trkpt>
      <trkpt lat="44.60428" lon="2.49198">
        <ele>477.005</ele>
        <time>2013-06-22T11:15:22Z</time>
      </trkpt>
      <trkpt lat="44.60421" lon="2.49181">
        <ele>479.417</ele>
        <time>2013-06-22T11:15:42Z</time>
      </trkpt>
      <trkpt lat="44.60414" lon="2.4916">
        <ele>481.272</ele>
        <time>2013-06-22T11:16:05Z</time>
      </trkpt>
      <trkpt lat="44.60412" lon="2.49146">
        <ele>483.607</ele>
        <time>2013-06-22T11:16:23Z</time>
      </trkpt>
      <trkpt lat="44.60419" lon="2.49123">
        <ele>485.043</ele>
        <time>2013-06-22T11:16:44Z</time>
      </trkpt>
      <trkpt lat="44.60426" lon="2.491">
        <ele>488.298</ele>
        <time>2013-06-22T11:17:05Z</time>
      </trkpt>
      <trkpt lat="44.60435" lon="2.49074">
        <ele>489.662</ele>
        <time>2013-06-22T11:17:29Z</time>
      </trkpt>
      <trkpt lat="44.60443" lon="2.49056">
        <ele>490.765</ele>
        <time>2013-06-22T11:17:48Z</time>
      </trkpt>
      <trkpt lat="44.60446" lon="2.49048">
        <ele>491.773</ele>
        <time>2013-06-22T11:18:09Z</time>
      </trkpt>
      <trkpt lat="44.60451" lon="2.49031">
        <ele>492.848</ele>
        <time>2013-06-22T11:18:28Z</time>
      </trkpt>
      <trkpt lat="44.60458" lon="2.49006">
        <ele>495.023</ele>
        <time>2013-06-22T11:18:49Z</time>
      </trkpt>
      <trkpt lat="44.60466" lon="2.48981">
        <ele>496.919</ele>
        <time>2013-06-22T11:19:13Z</time>
      </trkpt>
      <trkpt lat="44.60472" lon="2.48959">
        <ele>499.872</ele>
        <time>2013-06-22T11:19:35Z</time>
      </trkpt>
      <trkpt lat="44.6048" lon="2.48939">
        <ele>501.365</ele>
        <time>2013-06-22T11:19:55Z</time>
      </trkpt>
      <trkpt lat="44.6049" lon="2.48913">
        <ele>503.783</ele>
        <time>2013-06-22T11:20:19Z</time>
      </trkpt>
      <trkpt lat="44.60499" lon="2.48888">
        <ele>505.384</ele>
        <time>2013-06-22T11:20:41Z</time>
      </trkpt>
      <trkpt lat="44.60508" lon="2.48861">
        <ele>506.353</ele>
        <time>2013-06-22T11:21:04Z</time>
      </trkpt>
      <trkpt lat="44.60514" lon="2.48841">
        <ele>507.703</ele>
        <time>2013-06-22T11:21:25Z</time>
      </trkpt>
      <trkpt lat="44.60515" lon="2.48815">
        <ele>507.069</ele>
        <time>2013-06-22T11:21:49Z</time>
      </trkpt>
      <trkpt lat="44.60513" lon="2.48822">
        <ele>507.131</ele>
        <time>2013-06-22T11:22:03Z</time>
      </trkpt>
      <trkpt lat="44.60519" lon="2.48814">
        <ele>506.897</ele>
        <time>2013-06-22T11:22:22Z</time>
      </trkpt>
      <trkpt lat="44.6052" lon="2.48811">
        <ele>507.315</ele>
        <time>2013-06-22T11:22:44Z</time>
      </trkpt>
      <trkpt lat="44.60516" lon="2.48797">
        <ele>507.68</ele>
        <time>2013-06-22T11:23:07Z</time>
      </trkpt>
      <trkpt lat="44.60517" lon="2.48796">
        <ele>507.255</ele>
        <time>2013-06-22T11:23:48Z</time>
      </trkpt>
      <trkpt lat="44.60517" lon="2.48798">
        <ele>507.045</ele>
        <time>2013-06-22T11:24:55Z</time>
      </trkpt>
      <trkpt lat="44.60518" lon="2.48796">
        <ele>506.284</ele>
        <time>2013-06-22T11:25:26Z</time>
      </trkpt>
      <trkpt lat="44.6052" lon="2.48788">
        <ele>506.222</ele>
        <time>2013-06-22T11:25:33Z</time>
      </trkpt>
      <trkpt lat="44.60522" lon="2.48763">
        <ele>506.667</ele>
        <time>2013-06-22T11:25:54Z</time>
      </trkpt>
      <trkpt lat="44.60524" lon="2.48746">
        <ele>506.932</ele>
        <time>2013-06-22T11:26:10Z</time>
      </trkpt>
      <trkpt lat="44.6052" lon="2.48715">
        <ele>509.273</ele>
        <time>2013-06-22T11:26:34Z</time>
      </trkpt>
      <trkpt lat="44.6051" lon="2.48694">
        <ele>509.902</ele>
        <time>2013-06-22T11:27:01Z</time>
      </trkpt>
      <trkpt lat="44.60498" lon="2.48677">
        <ele>510.818</ele>
        <time>2013-06-22T11:27:21Z</time>
      </trkpt>
      <trkpt lat="44.60492" lon="2.48652">
        <ele>511.391</ele>
        <time>2013-06-22T11:27:44Z</time>
      </trkpt>
      <trkpt lat="44.60501" lon="2.48633">
        <ele>514.105</ele>
        <time>2013-06-22T11:28:02Z</time>
      </trkpt>
      <trkpt lat="44.60504" lon="2.48616">
        <ele>514.03</ele>
        <time>2013-06-22T11:28:21Z</time>
      </trkpt>
      <trkpt lat="44.60502" lon="2.48601">
        <ele>513.869</ele>
        <time>2013-06-22T11:28:40Z</time>
      </trkpt>
      <trkpt lat="44.60504" lon="2.48601">
        <ele>513.329</ele>
        <time>2013-06-22T11:29:11Z</time>
      </trkpt>
      <trkpt lat="44.60505" lon="2.48601">
        <ele>508.376</ele>
        <time>2013-06-22T11:29:20Z</time>
      </trkpt>
      <trkpt lat="44.60504" lon="2.48601">
        <ele>517.716</ele>
        <time>2013-06-22T11:29:21Z</time>
      </trkpt>
      <trkpt lat="44.60504" lon="2.48601">
        <ele>516.291</ele>
        <time>2013-06-22T11:29:22Z</time>
      </trkpt>
      <trkpt lat="44.60504" lon="2.48601">
        <ele>513.471</ele>
        <time>2013-06-22T11:29:24Z</time>
      </trkpt>
      <trkpt lat="44.60505" lon="2.48602">
        <ele>513.715</ele>
        <time>2013-06-22T11:30:00Z</time>
      </trkpt>
      <trkpt lat="44.60506" lon="2.48602">
        <ele>514.772</ele>
        <time>2013-06-22T11:30:33Z</time>
      </trkpt>
      <trkpt lat="44.60505" lon="2.48602">
        <ele>514.433</ele>
        <time>2013-06-22T11:31:25Z</time>
      </trkpt>
      <trkpt lat="44.60503" lon="2.48601">
        <ele>513.597</ele>
        <time>2013-06-22T11:32:35Z</time>
      </trkpt>
      <trkpt lat="44.60503" lon="2.48602">
        <ele>513.621</ele>
        <time>2013-06-22T11:35:02Z</time>
      </trkpt>
      <trkpt lat="44.60503" lon="2.48601">
        <ele>514.036</ele>
        <time>2013-06-22T11:36:22Z</time>
      </trkpt>
      <trkpt lat="44.60503" lon="2.486">
        <ele>514.104</ele>
        <time>2013-06-22T11:45:45Z</time>
      </trkpt>
      <trkpt lat="44.60503" lon="2.48598">
        <ele>514.008</ele>
        <time>2013-06-22T11:50:47Z</time>
      </trkpt>
      <trkpt lat="44.60502" lon="2.486">
        <ele>515.488</ele>
        <time>2013-06-22T11:58:06Z</time>
      </trkpt>
      <trkpt lat="44.60502" lon="2.48603">
        <ele>515.554</ele>
        <time>2013-06-22T12:03:57Z</time>
      </trkpt>
      <trkpt lat="44.60502" lon="2.48603">
        <ele>515.388</ele>
        <time>2013-06-22T12:05:28Z</time>
      </trkpt>
      <trkpt lat="44.60505" lon="2.486">
        <ele>516.119</ele>
        <time>2013-06-22T12:05:48Z</time>
      </trkpt>
      <trkpt lat="44.60506" lon="2.48596">
        <ele>516.411</ele>
        <time>2013-06-22T12:06:00Z</time>
      </trkpt>
      <trkpt lat="44.60515" lon="2.48601">
        <ele>515.835</ele>
        <time>2013-06-22T12:06:15Z</time>
      </trkpt>
      <trkpt lat="44.60516" lon="2.48602">
        <ele>516.617</ele>
        <time>2013-06-22T12:06:40Z</time>
      </trkpt>
      <trkpt lat="44.60516" lon="2.48602">
        <ele>516.872</ele>
        <time>2013-06-22T12:07:00Z</time>
      </trkpt>
      <trkpt lat="44.60515" lon="2.48595">
        <ele>516.448</ele>
        <time>2013-06-22T12:07:43Z</time>
      </trkpt>
      <trkpt lat="44.60511" lon="2.48592">
        <ele>516.839</ele>
        <time>2013-06-22T12:08:07Z</time>
      </trkpt>
      <trkpt lat="44.60508" lon="2.48581">
        <ele>516.057</ele>
        <time>2013-06-22T12:08:27Z</time>
      </trkpt>
      <trkpt lat="44.60523" lon="2.48566">
        <ele>515.946</ele>
        <time>2013-06-22T12:08:42Z</time>
      </trkpt>
      <trkpt lat="44.60528" lon="2.48575">
        <ele>516.01</ele>
        <time>2013-06-22T12:09:04Z</time>
      </trkpt>
      <trkpt lat="44.6053" lon="2.48574">
        <ele>515.47</ele>
        <time>2013-06-22T12:09:37Z</time>
      </trkpt>
      <trkpt lat="44.60528" lon="2.48574">
        <ele>515.17</ele>
        <time>2013-06-22T12:09:58Z</time>
      </trkpt>
      <trkpt lat="44.60528" lon="2.48564">
        <ele>514.885</ele>
        <time>2013-06-22T12:10:14Z</time>
      </trkpt>
      <trkpt lat="44.60529" lon="2.48558">
        <ele>514.128</ele>
        <time>2013-06-22T12:10:32Z</time>
      </trkpt>
      <trkpt lat="44.60532" lon="2.4855">
        <ele>513.489</ele>
        <time>2013-06-22T12:10:44Z</time>
      </trkpt>
      <trkpt lat="44.60534" lon="2.48551">
        <ele>514.034</ele>
        <time>2013-06-22T12:11:01Z</time>
      </trkpt>
      <trkpt lat="44.6053" lon="2.48547">
        <ele>513.808</ele>
        <time>2013-06-22T12:11:20Z</time>
      </trkpt>
      <trkpt lat="44.60524" lon="2.48544">
        <ele>513.733</ele>
        <time>2013-06-22T12:11:36Z</time>
      </trkpt>
      <trkpt lat="44.60524" lon="2.48525">
        <ele>512.894</ele>
        <time>2013-06-22T12:11:54Z</time>
      </trkpt>
      <trkpt lat="44.60533" lon="2.48524">
        <ele>512.536</ele>
        <time>2013-06-22T12:12:10Z</time>
      </trkpt>
      <trkpt lat="44.60533" lon="2.48524">
        <ele>513.313</ele>
        <time>2013-06-22T12:12:54Z</time>
      </trkpt>
      <trkpt lat="44.60534" lon="2.48519">
        <ele>513.864</ele>
        <time>2013-06-22T12:13:33Z</time>
      </trkpt>
      <trkpt lat="44.60537" lon="2.48522">
        <ele>514.905</ele>
        <time>2013-06-22T12:13:58Z</time>
      </trkpt>
      <trkpt lat="44.60539" lon="2.48533">
        <ele>515.223</ele>
        <time>2013-06-22T12:14:31Z</time>
      </trkpt>
      <trkpt lat="44.60537" lon="2.48525">
        <ele>515.012</ele>
        <time>2013-06-22T12:14:46Z</time>
      </trkpt>
      <trkpt lat="44.60531" lon="2.48527">
        <ele>515.889</ele>
        <time>2013-06-22T12:15:13Z</time>
      </trkpt>
      <trkpt lat="44.60534" lon="2.48529">
        <ele>515.935</ele>
        <time>2013-06-22T12:15:36Z</time>
      </trkpt>
      <trkpt lat="44.60534" lon="2.48535">
        <ele>516.388</ele>
        <time>2013-06-22T12:15:55Z</time>
      </trkpt>
      <trkpt lat="44.60534" lon="2.4854">
        <ele>516.722</ele>
        <time>2013-06-22T12:16:55Z</time>
      </trkpt>
      <trkpt lat="44.60532" lon="2.48537">
        <ele>517.252</ele>
        <time>2013-06-22T12:17:38Z</time>
      </trkpt>
      <trkpt lat="44.60524" lon="2.48532">
        <ele>516.696</ele>
        <time>2013-06-22T12:18:21Z</time>
      </trkpt>
      <trkpt lat="44.60528" lon="2.48535">
        <ele>517.418</ele>
        <time>2013-06-22T12:18:57Z</time>
      </trkpt>
      <trkpt lat="44.60532" lon="2.48537">
        <ele>517.052</ele>
        <time>2013-06-22T12:19:33Z</time>
      </trkpt>
      <trkpt lat="44.60535" lon="2.48521">
        <ele>516.632</ele>
        <time>2013-06-22T12:19:58Z</time>
      </trkpt>
      <trkpt lat="44.6053" lon="2.48504">
        <ele>516.643</ele>
        <time>2013-06-22T12:20:15Z</time>
      </trkpt>
      <trkpt lat="44.60521" lon="2.48483">
        <ele>516.033</ele>
        <time>2013-06-22T12:20:33Z</time>
      </trkpt>
      <trkpt lat="44.60511" lon="2.48467">
        <ele>515.435</ele>
        <time>2013-06-22T12:20:48Z</time>
      </trkpt>
      <trkpt lat="44.60498" lon="2.48442">
        <ele>516</ele>
        <time>2013-06-22T12:21:07Z</time>
      </trkpt>
      <trkpt lat="44.60489" lon="2.48427">
        <ele>516.501</ele>
        <time>2013-06-22T12:21:21Z</time>
      </trkpt>
      <trkpt lat="44.6048" lon="2.4841">
        <ele>517.606</ele>
        <time>2013-06-22T12:21:38Z</time>
      </trkpt>
      <trkpt lat="44.60458" lon="2.48396">
        <ele>518.005</ele>
        <time>2013-06-22T12:21:58Z</time>
      </trkpt>
      <trkpt lat="44.60453" lon="2.48386">
        <ele>518.747</ele>
        <time>2013-06-22T12:22:09Z</time>
      </trkpt>
      <trkpt lat="44.60446" lon="2.48354">
        <ele>519.99</ele>
        <time>2013-06-22T12:22:33Z</time>
      </trkpt>
      <trkpt lat="44.60448" lon="2.48324">
        <ele>520.507</ele>
        <time>2013-06-22T12:22:56Z</time>
      </trkpt>
      <trkpt lat="44.60452" lon="2.48299">
        <ele>522.143</ele>
        <time>2013-06-22T12:23:15Z</time>
      </trkpt>
      <trkpt lat="44.60455" lon="2.48277">
        <ele>524.3</ele>
        <time>2013-06-22T12:23:34Z</time>
      </trkpt>
      <trkpt lat="44.60463" lon="2.48259">
        <ele>526.916</ele>
        <time>2013-06-22T12:23:55Z</time>
      </trkpt>
      <trkpt lat="44.60467" lon="2.48256">
        <ele>527.682</ele>
        <time>2013-06-22T12:24:01Z</time>
      </trkpt>
      <trkpt lat="44.60476" lon="2.48245">
        <ele>528.775</ele>
        <time>2013-06-22T12:24:20Z</time>
      </trkpt>
      <trkpt lat="44.6048" lon="2.48237">
        <ele>531.06</ele>
        <time>2013-06-22T12:24:38Z</time>
      </trkpt>
      <trkpt lat="44.60476" lon="2.48236">
        <ele>533.657</ele>
        <time>2013-06-22T12:24:55Z</time>
      </trkpt>
      <trkpt lat="44.60486" lon="2.48229">
        <ele>534.181</ele>
        <time>2013-06-22T12:25:14Z</time>
      </trkpt>
      <trkpt lat="44.6049" lon="2.48221">
        <ele>534.994</ele>
        <time>2013-06-22T12:26:20Z</time>
      </trkpt>
      <trkpt lat="44.60502" lon="2.48202">
        <ele>537.101</ele>
        <time>2013-06-22T12:26:43Z</time>
      </trkpt>
      <trkpt lat="44.60509" lon="2.48184">
        <ele>539.393</ele>
        <time>2013-06-22T12:27:06Z</time>
      </trkpt>
      <trkpt lat="44.60511" lon="2.48173">
        <ele>542.491</ele>
        <time>2013-06-22T12:27:21Z</time>
      </trkpt>
      <trkpt lat="44.60512" lon="2.48167">
        <ele>542.439</ele>
        <time>2013-06-22T12:27:40Z</time>
      </trkpt>
      <trkpt lat="44.60513" lon="2.48155">
        <ele>541.701</ele>
        <time>2013-06-22T12:28:53Z</time>
      </trkpt>
      <trkpt lat="44.60513" lon="2.48147">
        <ele>545.054</ele>
        <time>2013-06-22T12:29:09Z</time>
      </trkpt>
      <trkpt lat="44.60518" lon="2.48138">
        <ele>546.312</ele>
        <time>2013-06-22T12:29:27Z</time>
      </trkpt>
      <trkpt lat="44.60532" lon="2.48118">
        <ele>549.956</ele>
        <time>2013-06-22T12:29:51Z</time>
      </trkpt>
      <trkpt lat="44.6054" lon="2.48101">
        <ele>550.603</ele>
        <time>2013-06-22T12:30:13Z</time>
      </trkpt>
      <trkpt lat="44.60545" lon="2.48085">
        <ele>553.729</ele>
        <time>2013-06-22T12:30:35Z</time>
      </trkpt>
      <trkpt lat="44.60548" lon="2.48066">
        <ele>555.279</ele>
        <time>2013-06-22T12:30:54Z</time>
      </trkpt>
      <trkpt lat="44.60554" lon="2.48047">
        <ele>558.618</ele>
        <time>2013-06-22T12:31:16Z</time>
      </trkpt>
      <trkpt lat="44.60554" lon="2.48027">
        <ele>560.027</ele>
        <time>2013-06-22T12:31:36Z</time>
      </trkpt>
      <trkpt lat="44.60554" lon="2.48012">
        <ele>562.245</ele>
        <time>2013-06-22T12:31:55Z</time>
      </trkpt>
      <trkpt lat="44.60553" lon="2.48004">
        <ele>563.593</ele>
        <time>2013-06-22T12:32:14Z</time>
      </trkpt>
      <trkpt lat="44.6055" lon="2.47998">
        <ele>563.561</ele>
        <time>2013-06-22T12:32:30Z</time>
      </trkpt>
      <trkpt lat="44.60553" lon="2.47995">
        <ele>563.847</ele>
        <time>2013-06-22T12:32:52Z</time>
      </trkpt>
      <trkpt lat="44.60555" lon="2.47987">
        <ele>565.067</ele>
        <time>2013-06-22T12:34:00Z</time>
      </trkpt>
      <trkpt lat="44.60559" lon="2.47969">
        <ele>566.787</ele>
        <time>2013-06-22T12:34:20Z</time>
      </trkpt>
      <trkpt lat="44.60562" lon="2.47953">
        <ele>567.359</ele>
        <time>2013-06-22T12:34:42Z</time>
      </trkpt>
      <trkpt lat="44.60563" lon="2.47949">
        <ele>568.004</ele>
        <time>2013-06-22T12:35:02Z</time>
      </trkpt>
      <trkpt lat="44.60565" lon="2.47948">
        <ele>566.739</ele>
        <time>2013-06-22T12:35:10Z</time>
      </trkpt>
      <trkpt lat="44.60573" lon="2.47936">
        <ele>566.08</ele>
        <time>2013-06-22T12:35:36Z</time>
      </trkpt>
      <trkpt lat="44.60569" lon="2.47935">
        <ele>567.586</ele>
        <time>2013-06-22T12:35:44Z</time>
      </trkpt>
      <trkpt lat="44.60566" lon="2.47944">
        <ele>567.614</ele>
        <time>2013-06-22T12:36:09Z</time>
      </trkpt>
      <trkpt lat="44.60563" lon="2.4795">
        <ele>567.896</ele>
        <time>2013-06-22T12:36:43Z</time>
      </trkpt>
      <trkpt lat="44.60563" lon="2.47949">
        <ele>567.925</ele>
        <time>2013-06-22T12:37:07Z</time>
      </trkpt>
      <trkpt lat="44.6057" lon="2.47938">
        <ele>569.756</ele>
        <time>2013-06-22T12:37:24Z</time>
      </trkpt>
      <trkpt lat="44.60583" lon="2.4793">
        <ele>571.192</ele>
        <time>2013-06-22T12:37:43Z</time>
      </trkpt>
      <trkpt lat="44.6059" lon="2.4792">
        <ele>573.531</ele>
        <time>2013-06-22T12:38:01Z</time>
      </trkpt>
      <trkpt lat="44.60595" lon="2.47909">
        <ele>575.395</ele>
        <time>2013-06-22T12:38:19Z</time>
      </trkpt>
      <trkpt lat="44.606" lon="2.47895">
        <ele>577.848</ele>
        <time>2013-06-22T12:38:37Z</time>
      </trkpt>
      <trkpt lat="44.60604" lon="2.47882">
        <ele>580.067</ele>
        <time>2013-06-22T12:38:55Z</time>
      </trkpt>
      <trkpt lat="44.6061" lon="2.4787">
        <ele>581.285</ele>
        <time>2013-06-22T12:39:08Z</time>
      </trkpt>
      <trkpt lat="44.60611" lon="2.47852">
        <ele>582.521</ele>
        <time>2013-06-22T12:39:24Z</time>
      </trkpt>
      <trkpt lat="44.60615" lon="2.47835">
        <ele>584.562</ele>
        <time>2013-06-22T12:39:42Z</time>
      </trkpt>
      <trkpt lat="44.60618" lon="2.47818">
        <ele>585.944</ele>
        <time>2013-06-22T12:39:56Z</time>
      </trkpt>
      <trkpt lat="44.60621" lon="2.47797">
        <ele>588.464</ele>
        <time>2013-06-22T12:40:16Z</time>
      </trkpt>
      <trkpt lat="44.6062" lon="2.47781">
        <ele>591.411</ele>
        <time>2013-06-22T12:40:37Z</time>
      </trkpt>
      <trkpt lat="44.60618" lon="2.47768">
        <ele>593.219</ele>
        <time>2013-06-22T12:40:54Z</time>
      </trkpt>
      <trkpt lat="44.60607" lon="2.47747">
        <ele>593.574</ele>
        <time>2013-06-22T12:41:14Z</time>
      </trkpt>
      <trkpt lat="44.60596" lon="2.47726">
        <ele>593.95</ele>
        <time>2013-06-22T12:41:34Z</time>
      </trkpt>
      <trkpt lat="44.60579" lon="2.47697">
        <ele>592.676</ele>
        <time>2013-06-22T12:42:00Z</time>
      </trkpt>
      <trkpt lat="44.60562" lon="2.47669">
        <ele>592.239</ele>
        <time>2013-06-22T12:42:28Z</time>
      </trkpt>
      <trkpt lat="44.60558" lon="2.47644">
        <ele>592.482</ele>
        <time>2013-06-22T12:42:47Z</time>
      </trkpt>
      <trkpt lat="44.60554" lon="2.47619">
        <ele>592.582</ele>
        <time>2013-06-22T12:43:08Z</time>
      </trkpt>
      <trkpt lat="44.60549" lon="2.4759">
        <ele>593.54</ele>
        <time>2013-06-22T12:43:30Z</time>
      </trkpt>
      <trkpt lat="44.60545" lon="2.47561">
        <ele>594.052</ele>
        <time>2013-06-22T12:43:54Z</time>
      </trkpt>
      <trkpt lat="44.60542" lon="2.47531">
        <ele>594.661</ele>
        <time>2013-06-22T12:44:16Z</time>
      </trkpt>
      <trkpt lat="44.60539" lon="2.47507">
        <ele>596.372</ele>
        <time>2013-06-22T12:44:37Z</time>
      </trkpt>
      <trkpt lat="44.60534" lon="2.47485">
        <ele>598.709</ele>
        <time>2013-06-22T12:44:58Z</time>
      </trkpt>
      <trkpt lat="44.60531" lon="2.47464">
        <ele>600.573</ele>
        <time>2013-06-22T12:45:19Z</time>
      </trkpt>
      <trkpt lat="44.60534" lon="2.47448">
        <ele>602.708</ele>
        <time>2013-06-22T12:45:37Z</time>
      </trkpt>
      <trkpt lat="44.60541" lon="2.47423">
        <ele>604.844</ele>
        <time>2013-06-22T12:45:59Z</time>
      </trkpt>
      <trkpt lat="44.6054" lon="2.474">
        <ele>606.704</ele>
        <time>2013-06-22T12:46:20Z</time>
      </trkpt>
      <trkpt lat="44.6054" lon="2.47384">
        <ele>606.911</ele>
        <time>2013-06-22T12:46:34Z</time>
      </trkpt>
      <trkpt lat="44.60539" lon="2.47366">
        <ele>609.272</ele>
        <time>2013-06-22T12:46:51Z</time>
      </trkpt>
      <trkpt lat="44.60542" lon="2.47344">
        <ele>609.739</ele>
        <time>2013-06-22T12:47:08Z</time>
      </trkpt>
      <trkpt lat="44.6054" lon="2.47318">
        <ele>609.741</ele>
        <time>2013-06-22T12:47:29Z</time>
      </trkpt>
      <trkpt lat="44.60538" lon="2.47292">
        <ele>611.353</ele>
        <time>2013-06-22T12:47:50Z</time>
      </trkpt>
      <trkpt lat="44.60534" lon="2.4726">
        <ele>611.656</ele>
        <time>2013-06-22T12:48:14Z</time>
      </trkpt>
      <trkpt lat="44.60529" lon="2.47238">
        <ele>612.91</ele>
        <time>2013-06-22T12:48:33Z</time>
      </trkpt>
      <trkpt lat="44.60529" lon="2.47222">
        <ele>612.761</ele>
        <time>2013-06-22T12:48:46Z</time>
      </trkpt>
      <trkpt lat="44.60525" lon="2.47201">
        <ele>612.277</ele>
        <time>2013-06-22T12:49:04Z</time>
      </trkpt>
      <trkpt lat="44.6052" lon="2.47177">
        <ele>611.574</ele>
        <time>2013-06-22T12:49:23Z</time>
      </trkpt>
      <trkpt lat="44.60518" lon="2.47154">
        <ele>612.768</ele>
        <time>2013-06-22T12:49:40Z</time>
      </trkpt>
      <trkpt lat="44.60516" lon="2.47132">
        <ele>612.931</ele>
        <time>2013-06-22T12:49:57Z</time>
      </trkpt>
      <trkpt lat="44.6052" lon="2.47106">
        <ele>612.838</ele>
        <time>2013-06-22T12:50:16Z</time>
      </trkpt>
      <trkpt lat="44.60528" lon="2.47083">
        <ele>612.642</ele>
        <time>2013-06-22T12:50:32Z</time>
      </trkpt>
      <trkpt lat="44.60533" lon="2.47061">
        <ele>613.238</ele>
        <time>2013-06-22T12:50:51Z</time>
      </trkpt>
      <trkpt lat="44.60538" lon="2.47038">
        <ele>613.489</ele>
        <time>2013-06-22T12:51:08Z</time>
      </trkpt>
      <trkpt lat="44.60547" lon="2.47011">
        <ele>613.389</ele>
        <time>2013-06-22T12:51:27Z</time>
      </trkpt>
      <trkpt lat="44.6055" lon="2.46997">
        <ele>613.577</ele>
        <time>2013-06-22T12:51:42Z</time>
      </trkpt>
      <trkpt lat="44.60552" lon="2.46993">
        <ele>613.18</ele>
        <time>2013-06-22T12:52:12Z</time>
      </trkpt>
      <trkpt lat="44.60551" lon="2.46988">
        <ele>614.061</ele>
        <time>2013-06-22T12:53:03Z</time>
      </trkpt>
      <trkpt lat="44.60553" lon="2.46989">
        <ele>614.565</ele>
        <time>2013-06-22T12:53:37Z</time>
      </trkpt>
      <trkpt lat="44.60557" lon="2.4699">
        <ele>613.887</ele>
        <time>2013-06-22T12:54:10Z</time>
      </trkpt>
      <trkpt lat="44.60562" lon="2.46992">
        <ele>613.774</ele>
        <time>2013-06-22T12:54:45Z</time>
      </trkpt>
      <trkpt lat="44.60559" lon="2.46991">
        <ele>613.663</ele>
        <time>2013-06-22T12:55:05Z</time>
      </trkpt>
      <trkpt lat="44.60557" lon="2.46976">
        <ele>612.837</ele>
        <time>2013-06-22T12:56:39Z</time>
      </trkpt>
      <trkpt lat="44.60563" lon="2.46945">
        <ele>612.776</ele>
        <time>2013-06-22T12:57:03Z</time>
      </trkpt>
      <trkpt lat="44.60576" lon="2.46911">
        <ele>610.379</ele>
        <time>2013-06-22T12:57:29Z</time>
      </trkpt>
      <trkpt lat="44.60586" lon="2.46876">
        <ele>610.886</ele>
        <time>2013-06-22T12:57:54Z</time>
      </trkpt>
      <trkpt lat="44.60587" lon="2.46866">
        <ele>610.958</ele>
        <time>2013-06-22T12:58:02Z</time>
      </trkpt>
      <trkpt lat="44.60587" lon="2.46825">
        <ele>612.855</ele>
        <time>2013-06-22T12:58:31Z</time>
      </trkpt>
      <trkpt lat="44.60593" lon="2.46778">
        <ele>615.054</ele>
        <time>2013-06-22T12:59:04Z</time>
      </trkpt>
      <trkpt lat="44.606" lon="2.46746">
        <ele>616.353</ele>
        <time>2013-06-22T12:59:27Z</time>
      </trkpt>
      <trkpt lat="44.60612" lon="2.46711">
        <ele>617.057</ele>
        <time>2013-06-22T12:59:54Z</time>
      </trkpt>
      <trkpt lat="44.60623" lon="2.46673">
        <ele>617.889</ele>
        <time>2013-06-22T13:00:22Z</time>
      </trkpt>
      <trkpt lat="44.60634" lon="2.46638">
        <ele>618.993</ele>
        <time>2013-06-22T13:00:49Z</time>
      </trkpt>
      <trkpt lat="44.60646" lon="2.46603">
        <ele>619.732</ele>
        <time>2013-06-22T13:01:15Z</time>
      </trkpt>
      <trkpt lat="44.60655" lon="2.46565">
        <ele>619.849</ele>
        <time>2013-06-22T13:01:42Z</time>
      </trkpt>
      <trkpt lat="44.6066" lon="2.46525">
        <ele>618.568</ele>
        <time>2013-06-22T13:02:09Z</time>
      </trkpt>
      <trkpt lat="44.6066" lon="2.46492">
        <ele>618.762</ele>
        <time>2013-06-22T13:02:32Z</time>
      </trkpt>
      <trkpt lat="44.60658" lon="2.46452">
        <ele>619.032</ele>
        <time>2013-06-22T13:03:00Z</time>
      </trkpt>
      <trkpt lat="44.60661" lon="2.46413">
        <ele>619.982</ele>
        <time>2013-06-22T13:03:27Z</time>
      </trkpt>
      <trkpt lat="44.60665" lon="2.4638">
        <ele>620.927</ele>
        <time>2013-06-22T13:03:51Z</time>
      </trkpt>
      <trkpt lat="44.6067" lon="2.46354">
        <ele>621.332</ele>
        <time>2013-06-22T13:04:14Z</time>
      </trkpt>
      <trkpt lat="44.60674" lon="2.46337">
        <ele>624.515</ele>
        <time>2013-06-22T13:04:30Z</time>
      </trkpt>
      <trkpt lat="44.60679" lon="2.46315">
        <ele>626.304</ele>
        <time>2013-06-22T13:04:50Z</time>
      </trkpt>
      <trkpt lat="44.60684" lon="2.46287">
        <ele>627.898</ele>
        <time>2013-06-22T13:05:13Z</time>
      </trkpt>
      <trkpt lat="44.6069" lon="2.46257">
        <ele>628.82</ele>
        <time>2013-06-22T13:05:37Z</time>
      </trkpt>
      <trkpt lat="44.60694" lon="2.46229">
        <ele>631.576</ele>
        <time>2013-06-22T13:06:00Z</time>
      </trkpt>
      <trkpt lat="44.60696" lon="2.46205">
        <ele>631.436</ele>
        <time>2013-06-22T13:06:22Z</time>
      </trkpt>
      <trkpt lat="44.60696" lon="2.46173">
        <ele>631.438</ele>
        <time>2013-06-22T13:06:44Z</time>
      </trkpt>
      <trkpt lat="44.60699" lon="2.46153">
        <ele>632.459</ele>
        <time>2013-06-22T13:06:57Z</time>
      </trkpt>
      <trkpt lat="44.60712" lon="2.46132">
        <ele>633.319</ele>
        <time>2013-06-22T13:07:24Z</time>
      </trkpt>
      <trkpt lat="44.6071" lon="2.46131">
        <ele>632.281</ele>
        <time>2013-06-22T13:07:44Z</time>
      </trkpt>
      <trkpt lat="44.60712" lon="2.46131">
        <ele>632.531</ele>
        <time>2013-06-22T13:08:13Z</time>
      </trkpt>
      <trkpt lat="44.60714" lon="2.46132">
        <ele>633.788</ele>
        <time>2013-06-22T13:09:02Z</time>
      </trkpt>
      <trkpt lat="44.60713" lon="2.46132">
        <ele>633.4</ele>
        <time>2013-06-22T13:09:19Z</time>
      </trkpt>
      <trkpt lat="44.60711" lon="2.46132">
        <ele>632.887</ele>
        <time>2013-06-22T13:09:51Z</time>
      </trkpt>
      <trkpt lat="44.60723" lon="2.4613">
        <ele>633.711</ele>
        <time>2013-06-22T13:10:04Z</time>
      </trkpt>
      <trkpt lat="44.60751" lon="2.46123">
        <ele>635.905</ele>
        <time>2013-06-22T13:10:32Z</time>
      </trkpt>
      <trkpt lat="44.60782" lon="2.46115">
        <ele>635.372</ele>
        <time>2013-06-22T13:11:02Z</time>
      </trkpt>
      <trkpt lat="44.60816" lon="2.46103">
        <ele>635.183</ele>
        <time>2013-06-22T13:11:34Z</time>
      </trkpt>
      <trkpt lat="44.60848" lon="2.46088">
        <ele>634.887</ele>
        <time>2013-06-22T13:12:05Z</time>
      </trkpt>
      <trkpt lat="44.6088" lon="2.46072">
        <ele>634.742</ele>
        <time>2013-06-22T13:12:36Z</time>
      </trkpt>
      <trkpt lat="44.60908" lon="2.46058">
        <ele>635.936</ele>
        <time>2013-06-22T13:13:03Z</time>
      </trkpt>
      <trkpt lat="44.60937" lon="2.46044">
        <ele>636.101</ele>
        <time>2013-06-22T13:13:32Z</time>
      </trkpt>
      <trkpt lat="44.60959" lon="2.46034">
        <ele>636.898</ele>
        <time>2013-06-22T13:14:00Z</time>
      </trkpt>
      <trkpt lat="44.60974" lon="2.46028">
        <ele>636.423</ele>
        <time>2013-06-22T13:14:46Z</time>
      </trkpt>
      <trkpt lat="44.61002" lon="2.46021">
        <ele>635.222</ele>
        <time>2013-06-22T13:15:12Z</time>
      </trkpt>
      <trkpt lat="44.61033" lon="2.46011">
        <ele>634.229</ele>
        <time>2013-06-22T13:15:41Z</time>
      </trkpt>
      <trkpt lat="44.61065" lon="2.46">
        <ele>634.088</ele>
        <time>2013-06-22T13:16:11Z</time>
      </trkpt>
      <trkpt lat="44.61092" lon="2.45986">
        <ele>633.696</ele>
        <time>2013-06-22T13:16:38Z</time>
      </trkpt>
      <trkpt lat="44.61094" lon="2.45991">
        <ele>633.243</ele>
        <time>2013-06-22T13:16:54Z</time>
      </trkpt>
      <trkpt lat="44.61097" lon="2.45983">
        <ele>633.377</ele>
        <time>2013-06-22T13:17:24Z</time>
      </trkpt>
      <trkpt lat="44.61097" lon="2.45968">
        <ele>632.484</ele>
        <time>2013-06-22T13:17:37Z</time>
      </trkpt>
      <trkpt lat="44.61109" lon="2.45926">
        <ele>633.014</ele>
        <time>2013-06-22T13:18:07Z</time>
      </trkpt>
      <trkpt lat="44.61124" lon="2.45887">
        <ele>633.465</ele>
        <time>2013-06-22T13:18:36Z</time>
      </trkpt>
      <trkpt lat="44.61134" lon="2.45858">
        <ele>633.525</ele>
        <time>2013-06-22T13:18:59Z</time>
      </trkpt>
      <trkpt lat="44.61141" lon="2.45836">
        <ele>634.094</ele>
        <time>2013-06-22T13:19:17Z</time>
      </trkpt>
      <trkpt lat="44.6115" lon="2.45801">
        <ele>633.742</ele>
        <time>2013-06-22T13:19:41Z</time>
      </trkpt>
      <trkpt lat="44.61157" lon="2.45764">
        <ele>633.036</ele>
        <time>2013-06-22T13:20:06Z</time>
      </trkpt>
      <trkpt lat="44.61158" lon="2.45764">
        <ele>632.911</ele>
        <time>2013-06-22T13:20:19Z</time>
      </trkpt>
      <trkpt lat="44.61157" lon="2.45764">
        <ele>631.548</ele>
        <time>2013-06-22T13:20:31Z</time>
      </trkpt>
      <trkpt lat="44.61157" lon="2.45764">
        <ele>631.983</ele>
        <time>2013-06-22T13:20:49Z</time>
      </trkpt>
      <trkpt lat="44.61158" lon="2.45765">
        <ele>630.998</ele>
        <time>2013-06-22T13:21:20Z</time>
      </trkpt>
      <trkpt lat="44.61158" lon="2.45763">
        <ele>632.847</ele>
        <time>2013-06-22T13:22:04Z</time>
      </trkpt>
      <trkpt lat="44.61158" lon="2.45763">
        <ele>633.558</ele>
        <time>2013-06-22T13:22:40Z</time>
      </trkpt>
      <trkpt lat="44.61161" lon="2.45753">
        <ele>632.617</ele>
        <time>2013-06-22T13:22:50Z</time>
      </trkpt>
      <trkpt lat="44.61164" lon="2.45743">
        <ele>632.004</ele>
        <time>2013-06-22T13:22:57Z</time>
      </trkpt>
      <trkpt lat="44.61181" lon="2.45714">
        <ele>630.295</ele>
        <time>2013-06-22T13:23:22Z</time>
      </trkpt>
      <trkpt lat="44.61201" lon="2.4569">
        <ele>627.197</ele>
        <time>2013-06-22T13:23:47Z</time>
      </trkpt>
      <trkpt lat="44.61218" lon="2.45672">
        <ele>625.081</ele>
        <time>2013-06-22T13:24:07Z</time>
      </trkpt>
      <trkpt lat="44.61233" lon="2.45652">
        <ele>621.592</ele>
        <time>2013-06-22T13:24:27Z</time>
      </trkpt>
      <trkpt lat="44.61255" lon="2.45631">
        <ele>619.034</ele>
        <time>2013-06-22T13:24:53Z</time>
      </trkpt>
      <trkpt lat="44.61268" lon="2.45608">
        <ele>617.285</ele>
        <time>2013-06-22T13:25:14Z</time>
      </trkpt>
      <trkpt lat="44.61276" lon="2.45592">
        <ele>616.592</ele>
        <time>2013-06-22T13:25:29Z</time>
      </trkpt>
      <trkpt lat="44.61281" lon="2.45583">
        <ele>616.388</ele>
        <time>2013-06-22T13:25:35Z</time>
      </trkpt>
      <trkpt lat="44.61289" lon="2.45566">
        <ele>616.261</ele>
        <time>2013-06-22T13:25:49Z</time>
      </trkpt>
      <trkpt lat="44.61295" lon="2.4554">
        <ele>616.782</ele>
        <time>2013-06-22T13:26:08Z</time>
      </trkpt>
      <trkpt lat="44.61295" lon="2.45534">
        <ele>615.894</ele>
        <time>2013-06-22T13:26:12Z</time>
      </trkpt>
      <trkpt lat="44.61294" lon="2.45524">
        <ele>616.722</ele>
        <time>2013-06-22T13:26:19Z</time>
      </trkpt>
      <trkpt lat="44.61281" lon="2.45483">
        <ele>616.658</ele>
        <time>2013-06-22T13:26:46Z</time>
      </trkpt>
      <trkpt lat="44.61263" lon="2.45449">
        <ele>616.847</ele>
        <time>2013-06-22T13:27:14Z</time>
      </trkpt>
      <trkpt lat="44.61247" lon="2.45408">
        <ele>617.444</ele>
        <time>2013-06-22T13:27:44Z</time>
      </trkpt>
      <trkpt lat="44.61233" lon="2.4537">
        <ele>617.736</ele>
        <time>2013-06-22T13:28:12Z</time>
      </trkpt>
      <trkpt lat="44.61217" lon="2.45343">
        <ele>617.832</ele>
        <time>2013-06-22T13:28:35Z</time>
      </trkpt>
      <trkpt lat="44.61194" lon="2.45312">
        <ele>620.355</ele>
        <time>2013-06-22T13:29:05Z</time>
      </trkpt>
      <trkpt lat="44.61173" lon="2.45283">
        <ele>620.175</ele>
        <time>2013-06-22T13:29:33Z</time>
      </trkpt>
      <trkpt lat="44.6115" lon="2.45253">
        <ele>618.88</ele>
        <time>2013-06-22T13:30:01Z</time>
      </trkpt>
      <trkpt lat="44.61128" lon="2.45228">
        <ele>617.803</ele>
        <time>2013-06-22T13:30:26Z</time>
      </trkpt>
      <trkpt lat="44.61108" lon="2.45206">
        <ele>618.019</ele>
        <time>2013-06-22T13:30:49Z</time>
      </trkpt>
      <trkpt lat="44.61092" lon="2.4518">
        <ele>617.594</ele>
        <time>2013-06-22T13:31:12Z</time>
      </trkpt>
      <trkpt lat="44.61078" lon="2.45148">
        <ele>618.035</ele>
        <time>2013-06-22T13:31:37Z</time>
      </trkpt>
      <trkpt lat="44.61064" lon="2.4511">
        <ele>618.919</ele>
        <time>2013-06-22T13:32:06Z</time>
      </trkpt>
      <trkpt lat="44.61051" lon="2.45074">
        <ele>619.654</ele>
        <time>2013-06-22T13:32:34Z</time>
      </trkpt>
      <trkpt lat="44.61042" lon="2.45037">
        <ele>619.456</ele>
        <time>2013-06-22T13:33:00Z</time>
      </trkpt>
      <trkpt lat="44.61033" lon="2.45004">
        <ele>619.5</ele>
        <time>2013-06-22T13:33:24Z</time>
      </trkpt>
      <trkpt lat="44.61022" lon="2.44976">
        <ele>619.511</ele>
        <time>2013-06-22T13:33:45Z</time>
      </trkpt>
      <trkpt lat="44.61004" lon="2.44945">
        <ele>619.493</ele>
        <time>2013-06-22T13:34:12Z</time>
      </trkpt>
      <trkpt lat="44.61003" lon="2.44943">
        <ele>619.835</ele>
        <time>2013-06-22T13:34:14Z</time>
      </trkpt>
      <trkpt lat="44.60978" lon="2.44928">
        <ele>620.417</ele>
        <time>2013-06-22T13:34:39Z</time>
      </trkpt>
      <trkpt lat="44.60952" lon="2.44908">
        <ele>620.604</ele>
        <time>2013-06-22T13:35:07Z</time>
      </trkpt>
      <trkpt lat="44.60931" lon="2.44889">
        <ele>619.15</ele>
        <time>2013-06-22T13:35:32Z</time>
      </trkpt>
      <trkpt lat="44.60918" lon="2.44861">
        <ele>617.314</ele>
        <time>2013-06-22T13:35:55Z</time>
      </trkpt>
      <trkpt lat="44.60911" lon="2.44849">
        <ele>616.522</ele>
        <time>2013-06-22T13:36:06Z</time>
      </trkpt>
      <trkpt lat="44.60903" lon="2.44848">
        <ele>616.545</ele>
        <time>2013-06-22T13:36:14Z</time>
      </trkpt>
      <trkpt lat="44.60885" lon="2.44851">
        <ele>615.452</ele>
        <time>2013-06-22T13:36:36Z</time>
      </trkpt>
      <trkpt lat="44.60886" lon="2.44851">
        <ele>614.782</ele>
        <time>2013-06-22T13:37:17Z</time>
      </trkpt>
      <trkpt lat="44.60884" lon="2.44851">
        <ele>614.697</ele>
        <time>2013-06-22T13:37:32Z</time>
      </trkpt>
      <trkpt lat="44.60884" lon="2.44852">
        <ele>613.847</ele>
        <time>2013-06-22T13:39:03Z</time>
      </trkpt>
      <trkpt lat="44.60886" lon="2.44852">
        <ele>610.203</ele>
        <time>2013-06-22T13:39:19Z</time>
      </trkpt>
      <trkpt lat="44.60887" lon="2.44852">
        <ele>616.596</ele>
        <time>2013-06-22T13:39:20Z</time>
      </trkpt>
      <trkpt lat="44.60887" lon="2.44852">
        <ele>613.594</ele>
        <time>2013-06-22T13:39:22Z</time>
      </trkpt>
      <trkpt lat="44.60888" lon="2.44851">
        <ele>614.991</ele>
        <time>2013-06-22T13:40:44Z</time>
      </trkpt>
      <trkpt lat="44.60888" lon="2.4485">
        <ele>614.6</ele>
        <time>2013-06-22T13:41:30Z</time>
      </trkpt>
      <trkpt lat="44.60888" lon="2.44849">
        <ele>614.207</ele>
        <time>2013-06-22T13:42:00Z</time>
      </trkpt>
      <trkpt lat="44.60887" lon="2.4485">
        <ele>614.319</ele>
        <time>2013-06-22T13:42:34Z</time>
      </trkpt>
      <trkpt lat="44.60886" lon="2.4485">
        <ele>615.477</ele>
        <time>2013-06-22T13:43:24Z</time>
      </trkpt>
      <trkpt lat="44.60884" lon="2.4485">
        <ele>614.58</ele>
        <time>2013-06-22T13:43:49Z</time>
      </trkpt>
      <trkpt lat="44.60881" lon="2.44847">
        <ele>614.869</ele>
        <time>2013-06-22T13:44:09Z</time>
      </trkpt>
      <trkpt lat="44.60864" lon="2.44839">
        <ele>614.294</ele>
        <time>2013-06-22T13:44:28Z</time>
      </trkpt>
      <trkpt lat="44.60865" lon="2.44802">
        <ele>613.977</ele>
        <time>2013-06-22T13:44:51Z</time>
      </trkpt>
      <trkpt lat="44.60878" lon="2.4476">
        <ele>613.567</ele>
        <time>2013-06-22T13:45:19Z</time>
      </trkpt>
      <trkpt lat="44.60899" lon="2.44713">
        <ele>611.924</ele>
        <time>2013-06-22T13:45:53Z</time>
      </trkpt>
      <trkpt lat="44.60921" lon="2.44667">
        <ele>611.531</ele>
        <time>2013-06-22T13:46:27Z</time>
      </trkpt>
      <trkpt lat="44.60933" lon="2.4463">
        <ele>610.974</ele>
        <time>2013-06-22T13:46:53Z</time>
      </trkpt>
      <trkpt lat="44.60939" lon="2.44591">
        <ele>610.883</ele>
        <time>2013-06-22T13:47:18Z</time>
      </trkpt>
      <trkpt lat="44.60952" lon="2.44545">
        <ele>609.562</ele>
        <time>2013-06-22T13:47:48Z</time>
      </trkpt>
      <trkpt lat="44.60963" lon="2.44501">
        <ele>607.293</ele>
        <time>2013-06-22T13:48:16Z</time>
      </trkpt>
      <trkpt lat="44.60954" lon="2.4446">
        <ele>606.039</ele>
        <time>2013-06-22T13:48:44Z</time>
      </trkpt>
      <trkpt lat="44.60945" lon="2.44452">
        <ele>605.67</ele>
        <time>2013-06-22T13:48:57Z</time>
      </trkpt>
      <trkpt lat="44.60922" lon="2.44432">
        <ele>604.582</ele>
        <time>2013-06-22T13:49:20Z</time>
      </trkpt>
      <trkpt lat="44.60911" lon="2.44395">
        <ele>605.112</ele>
        <time>2013-06-22T13:49:46Z</time>
      </trkpt>
      <trkpt lat="44.60918" lon="2.44342">
        <ele>603.492</ele>
        <time>2013-06-22T13:50:17Z</time>
      </trkpt>
      <trkpt lat="44.60931" lon="2.4429">
        <ele>601.506</ele>
        <time>2013-06-22T13:50:50Z</time>
      </trkpt>
      <trkpt lat="44.60949" lon="2.44244">
        <ele>600.157</ele>
        <time>2013-06-22T13:51:21Z</time>
      </trkpt>
      <trkpt lat="44.60964" lon="2.44199">
        <ele>599.146</ele>
        <time>2013-06-22T13:51:51Z</time>
      </trkpt>
      <trkpt lat="44.60956" lon="2.44152">
        <ele>597.714</ele>
        <time>2013-06-22T13:52:22Z</time>
      </trkpt>
      <trkpt lat="44.60938" lon="2.44119">
        <ele>597.487</ele>
        <time>2013-06-22T13:52:49Z</time>
      </trkpt>
      <trkpt lat="44.60934" lon="2.4407">
        <ele>597.048</ele>
        <time>2013-06-22T13:53:19Z</time>
      </trkpt>
      <trkpt lat="44.60948" lon="2.44014">
        <ele>596.693</ele>
        <time>2013-06-22T13:53:55Z</time>
      </trkpt>
      <trkpt lat="44.60958" lon="2.43979">
        <ele>595.902</ele>
        <time>2013-06-22T13:54:18Z</time>
      </trkpt>
      <trkpt lat="44.60957" lon="2.43926">
        <ele>594.537</ele>
        <time>2013-06-22T13:54:51Z</time>
      </trkpt>
      <trkpt lat="44.60947" lon="2.43885">
        <ele>594.579</ele>
        <time>2013-06-22T13:55:18Z</time>
      </trkpt>
      <trkpt lat="44.60957" lon="2.43845">
        <ele>592.973</ele>
        <time>2013-06-22T13:55:45Z</time>
      </trkpt>
      <trkpt lat="44.60964" lon="2.43836">
        <ele>592.073</ele>
        <time>2013-06-22T13:55:53Z</time>
      </trkpt>
      <trkpt lat="44.6098" lon="2.43806">
        <ele>591.276</ele>
        <time>2013-06-22T13:56:17Z</time>
      </trkpt>
      <trkpt lat="44.60983" lon="2.43785">
        <ele>590.957</ele>
        <time>2013-06-22T13:56:32Z</time>
      </trkpt>
      <trkpt lat="44.60986" lon="2.43753">
        <ele>590.474</ele>
        <time>2013-06-22T13:56:52Z</time>
      </trkpt>
      <trkpt lat="44.60995" lon="2.43723">
        <ele>589.764</ele>
        <time>2013-06-22T13:57:11Z</time>
      </trkpt>
      <trkpt lat="44.61021" lon="2.43694">
        <ele>588.756</ele>
        <time>2013-06-22T13:57:39Z</time>
      </trkpt>
      <trkpt lat="44.61045" lon="2.43684">
        <ele>586.658</ele>
        <time>2013-06-22T13:58:03Z</time>
      </trkpt>
      <trkpt lat="44.6107" lon="2.43669">
        <ele>585.363</ele>
        <time>2013-06-22T13:58:28Z</time>
      </trkpt>
      <trkpt lat="44.61084" lon="2.43667">
        <ele>587.093</ele>
        <time>2013-06-22T13:58:48Z</time>
      </trkpt>
      <trkpt lat="44.61092" lon="2.43663">
        <ele>589.111</ele>
        <time>2013-06-22T13:59:06Z</time>
      </trkpt>
      <trkpt lat="44.61098" lon="2.4367">
        <ele>589.051</ele>
        <time>2013-06-22T14:00:05Z</time>
      </trkpt>
      <trkpt lat="44.61104" lon="2.43663">
        <ele>588.434</ele>
        <time>2013-06-22T14:00:52Z</time>
      </trkpt>
      <trkpt lat="44.61108" lon="2.43654">
        <ele>588.857</ele>
        <time>2013-06-22T14:01:00Z</time>
      </trkpt>
      <trkpt lat="44.61112" lon="2.43624">
        <ele>588.373</ele>
        <time>2013-06-22T14:01:22Z</time>
      </trkpt>
      <trkpt lat="44.61112" lon="2.43607">
        <ele>588.193</ele>
        <time>2013-06-22T14:01:36Z</time>
      </trkpt>
      <trkpt lat="44.61112" lon="2.43602">
        <ele>588.192</ele>
        <time>2013-06-22T14:01:39Z</time>
      </trkpt>
      <trkpt lat="44.61112" lon="2.43576">
        <ele>586.098</ele>
        <time>2013-06-22T14:01:57Z</time>
      </trkpt>
      <trkpt lat="44.61111" lon="2.43544">
        <ele>584.534</ele>
        <time>2013-06-22T14:02:16Z</time>
      </trkpt>
      <trkpt lat="44.61109" lon="2.4351">
        <ele>582.839</ele>
        <time>2013-06-22T14:02:37Z</time>
      </trkpt>
      <trkpt lat="44.61105" lon="2.4347">
        <ele>581.4</ele>
        <time>2013-06-22T14:03:01Z</time>
      </trkpt>
      <trkpt lat="44.61099" lon="2.43428">
        <ele>580.234</ele>
        <time>2013-06-22T14:03:27Z</time>
      </trkpt>
      <trkpt lat="44.61084" lon="2.43389">
        <ele>579.961</ele>
        <time>2013-06-22T14:03:55Z</time>
      </trkpt>
      <trkpt lat="44.61073" lon="2.43354">
        <ele>580.254</ele>
        <time>2013-06-22T14:04:19Z</time>
      </trkpt>
      <trkpt lat="44.61068" lon="2.43307">
        <ele>580.558</ele>
        <time>2013-06-22T14:04:50Z</time>
      </trkpt>
      <trkpt lat="44.61071" lon="2.4326">
        <ele>580.284</ele>
        <time>2013-06-22T14:05:20Z</time>
      </trkpt>
      <trkpt lat="44.61081" lon="2.43214">
        <ele>580.438</ele>
        <time>2013-06-22T14:05:50Z</time>
      </trkpt>
      <trkpt lat="44.61097" lon="2.43177">
        <ele>580.101</ele>
        <time>2013-06-22T14:06:19Z</time>
      </trkpt>
      <trkpt lat="44.61114" lon="2.43156">
        <ele>580.016</ele>
        <time>2013-06-22T14:06:39Z</time>
      </trkpt>
      <trkpt lat="44.61134" lon="2.43127">
        <ele>579.162</ele>
        <time>2013-06-22T14:07:04Z</time>
      </trkpt>
      <trkpt lat="44.61155" lon="2.43102">
        <ele>580.153</ele>
        <time>2013-06-22T14:07:29Z</time>
      </trkpt>
      <trkpt lat="44.6117" lon="2.43077">
        <ele>579.099</ele>
        <time>2013-06-22T14:07:52Z</time>
      </trkpt>
      <trkpt lat="44.61179" lon="2.43049">
        <ele>578.853</ele>
        <time>2013-06-22T14:08:12Z</time>
      </trkpt>
      <trkpt lat="44.61173" lon="2.43005">
        <ele>578.653</ele>
        <time>2013-06-22T14:08:42Z</time>
      </trkpt>
      <trkpt lat="44.61152" lon="2.42979">
        <ele>577.775</ele>
        <time>2013-06-22T14:09:09Z</time>
      </trkpt>
      <trkpt lat="44.61126" lon="2.42963">
        <ele>578.477</ele>
        <time>2013-06-22T14:09:37Z</time>
      </trkpt>
      <trkpt lat="44.61104" lon="2.42946">
        <ele>579.433</ele>
        <time>2013-06-22T14:10:04Z</time>
      </trkpt>
      <trkpt lat="44.61101" lon="2.42937">
        <ele>580.4</ele>
        <time>2013-06-22T14:10:27Z</time>
      </trkpt>
      <trkpt lat="44.61091" lon="2.42941">
        <ele>579.265</ele>
        <time>2013-06-22T14:10:58Z</time>
      </trkpt>
      <trkpt lat="44.61072" lon="2.42935">
        <ele>578.151</ele>
        <time>2013-06-22T14:11:21Z</time>
      </trkpt>
      <trkpt lat="44.61056" lon="2.42928">
        <ele>578.32</ele>
        <time>2013-06-22T14:11:38Z</time>
      </trkpt>
      <trkpt lat="44.61041" lon="2.42916">
        <ele>579.007</ele>
        <time>2013-06-22T14:11:57Z</time>
      </trkpt>
      <trkpt lat="44.61027" lon="2.42907">
        <ele>581.879</ele>
        <time>2013-06-22T14:12:17Z</time>
      </trkpt>
      <trkpt lat="44.61013" lon="2.42893">
        <ele>582.431</ele>
        <time>2013-06-22T14:12:35Z</time>
      </trkpt>
      <trkpt lat="44.61004" lon="2.42874">
        <ele>581.308</ele>
        <time>2013-06-22T14:12:52Z</time>
      </trkpt>
      <trkpt lat="44.60991" lon="2.42842">
        <ele>579.264</ele>
        <time>2013-06-22T14:13:16Z</time>
      </trkpt>
      <trkpt lat="44.60981" lon="2.42815">
        <ele>578.787</ele>
        <time>2013-06-22T14:13:35Z</time>
      </trkpt>
      <trkpt lat="44.60973" lon="2.42792">
        <ele>579.513</ele>
        <time>2013-06-22T14:13:54Z</time>
      </trkpt>
      <trkpt lat="44.60967" lon="2.42774">
        <ele>579.561</ele>
        <time>2013-06-22T14:14:10Z</time>
      </trkpt>
      <trkpt lat="44.60961" lon="2.42765">
        <ele>576.521</ele>
        <time>2013-06-22T14:14:28Z</time>
      </trkpt>
      <trkpt lat="44.60956" lon="2.42765">
        <ele>575.827</ele>
        <time>2013-06-22T14:14:48Z</time>
      </trkpt>
      <trkpt lat="44.60954" lon="2.42762">
        <ele>575.626</ele>
        <time>2013-06-22T14:15:07Z</time>
      </trkpt>
      <trkpt lat="44.60955" lon="2.42763">
        <ele>575.238</ele>
        <time>2013-06-22T14:15:54Z</time>
      </trkpt>
      <trkpt lat="44.60956" lon="2.4276">
        <ele>575.766</ele>
        <time>2013-06-22T14:16:34Z</time>
      </trkpt>
      <trkpt lat="44.60951" lon="2.42744">
        <ele>574.451</ele>
        <time>2013-06-22T14:16:55Z</time>
      </trkpt>
      <trkpt lat="44.60943" lon="2.42723">
        <ele>573.915</ele>
        <time>2013-06-22T14:17:11Z</time>
      </trkpt>
      <trkpt lat="44.60941" lon="2.42696">
        <ele>572.88</ele>
        <time>2013-06-22T14:17:28Z</time>
      </trkpt>
      <trkpt lat="44.60937" lon="2.42658">
        <ele>572.012</ele>
        <time>2013-06-22T14:17:51Z</time>
      </trkpt>
      <trkpt lat="44.60938" lon="2.42626">
        <ele>570.687</ele>
        <time>2013-06-22T14:18:11Z</time>
      </trkpt>
      <trkpt lat="44.60939" lon="2.4259">
        <ele>570.707</ele>
        <time>2013-06-22T14:18:35Z</time>
      </trkpt>
      <trkpt lat="44.6094" lon="2.42552">
        <ele>570.251</ele>
        <time>2013-06-22T14:19:00Z</time>
      </trkpt>
      <trkpt lat="44.6094" lon="2.4252">
        <ele>570.049</ele>
        <time>2013-06-22T14:19:22Z</time>
      </trkpt>
      <trkpt lat="44.60933" lon="2.42479">
        <ele>571.036</ele>
        <time>2013-06-22T14:19:51Z</time>
      </trkpt>
      <trkpt lat="44.60917" lon="2.42437">
        <ele>571.101</ele>
        <time>2013-06-22T14:20:23Z</time>
      </trkpt>
      <trkpt lat="44.60899" lon="2.42412">
        <ele>571.226</ele>
        <time>2013-06-22T14:20:49Z</time>
      </trkpt>
      <trkpt lat="44.60885" lon="2.42391">
        <ele>571.768</ele>
        <time>2013-06-22T14:21:09Z</time>
      </trkpt>
      <trkpt lat="44.60862" lon="2.42365">
        <ele>572.464</ele>
        <time>2013-06-22T14:21:37Z</time>
      </trkpt>
      <trkpt lat="44.60837" lon="2.42332">
        <ele>573.593</ele>
        <time>2013-06-22T14:22:07Z</time>
      </trkpt>
      <trkpt lat="44.60813" lon="2.42302">
        <ele>576.251</ele>
        <time>2013-06-22T14:22:39Z</time>
      </trkpt>
      <trkpt lat="44.60793" lon="2.42277">
        <ele>577.198</ele>
        <time>2013-06-22T14:23:05Z</time>
      </trkpt>
      <trkpt lat="44.60778" lon="2.42256">
        <ele>579.925</ele>
        <time>2013-06-22T14:23:28Z</time>
      </trkpt>
      <trkpt lat="44.6076" lon="2.42231">
        <ele>581.834</ele>
        <time>2013-06-22T14:23:54Z</time>
      </trkpt>
      <trkpt lat="44.60748" lon="2.42212">
        <ele>583.307</ele>
        <time>2013-06-22T14:24:18Z</time>
      </trkpt>
      <trkpt lat="44.60744" lon="2.42198">
        <ele>582.495</ele>
        <time>2013-06-22T14:24:45Z</time>
      </trkpt>
      <trkpt lat="44.60743" lon="2.42171">
        <ele>581.66</ele>
        <time>2013-06-22T14:25:10Z</time>
      </trkpt>
      <trkpt lat="44.60746" lon="2.42148">
        <ele>581.075</ele>
        <time>2013-06-22T14:25:32Z</time>
      </trkpt>
      <trkpt lat="44.60749" lon="2.42123">
        <ele>579.605</ele>
        <time>2013-06-22T14:25:53Z</time>
      </trkpt>
      <trkpt lat="44.60736" lon="2.42101">
        <ele>577.896</ele>
        <time>2013-06-22T14:26:18Z</time>
      </trkpt>
      <trkpt lat="44.60729" lon="2.42095">
        <ele>577.207</ele>
        <time>2013-06-22T14:26:34Z</time>
      </trkpt>
      <trkpt lat="44.60717" lon="2.42096">
        <ele>577.406</ele>
        <time>2013-06-22T14:26:52Z</time>
      </trkpt>
      <trkpt lat="44.60697" lon="2.42093">
        <ele>577.827</ele>
        <time>2013-06-22T14:27:14Z</time>
      </trkpt>
      <trkpt lat="44.60679" lon="2.42087">
        <ele>578.037</ele>
        <time>2013-06-22T14:27:35Z</time>
      </trkpt>
      <trkpt lat="44.60673" lon="2.42082">
        <ele>578.021</ele>
        <time>2013-06-22T14:27:43Z</time>
      </trkpt>
      <trkpt lat="44.60661" lon="2.42071">
        <ele>579.693</ele>
        <time>2013-06-22T14:27:59Z</time>
      </trkpt>
      <trkpt lat="44.6066" lon="2.42066">
        <ele>579.346</ele>
        <time>2013-06-22T14:28:19Z</time>
      </trkpt>
      <trkpt lat="44.60657" lon="2.42064">
        <ele>579.001</ele>
        <time>2013-06-22T14:28:57Z</time>
      </trkpt>
      <trkpt lat="44.60664" lon="2.42065">
        <ele>579.581</ele>
        <time>2013-06-22T14:29:39Z</time>
      </trkpt>
      <trkpt lat="44.60661" lon="2.42064">
        <ele>579.204</ele>
        <time>2013-06-22T14:30:31Z</time>
      </trkpt>
      <trkpt lat="44.60657" lon="2.42062">
        <ele>578.415</ele>
        <time>2013-06-22T14:31:02Z</time>
      </trkpt>
      <trkpt lat="44.60655" lon="2.42061">
        <ele>578.782</ele>
        <time>2013-06-22T14:31:35Z</time>
      </trkpt>
      <trkpt lat="44.60653" lon="2.42054">
        <ele>578.226</ele>
        <time>2013-06-22T14:32:17Z</time>
      </trkpt>
      <trkpt lat="44.60644" lon="2.42039">
        <ele>577.988</ele>
        <time>2013-06-22T14:32:32Z</time>
      </trkpt>
      <trkpt lat="44.60633" lon="2.42006">
        <ele>576.889</ele>
        <time>2013-06-22T14:32:58Z</time>
      </trkpt>
      <trkpt lat="44.6062" lon="2.41973">
        <ele>575.11</ele>
        <time>2013-06-22T14:33:25Z</time>
      </trkpt>
      <trkpt lat="44.60609" lon="2.41961">
        <ele>571.849</ele>
        <time>2013-06-22T14:33:42Z</time>
      </trkpt>
      <trkpt lat="44.60605" lon="2.41958">
        <ele>572.678</ele>
        <time>2013-06-22T14:34:02Z</time>
      </trkpt>
      <trkpt lat="44.60605" lon="2.41954">
        <ele>572.446</ele>
        <time>2013-06-22T14:34:04Z</time>
      </trkpt>
      <trkpt lat="44.60605" lon="2.41955">
        <ele>572.687</ele>
        <time>2013-06-22T14:34:28Z</time>
      </trkpt>
      <trkpt lat="44.60604" lon="2.41949">
        <ele>571.612</ele>
        <time>2013-06-22T14:34:50Z</time>
      </trkpt>
      <trkpt lat="44.60608" lon="2.4194">
        <ele>571.133</ele>
        <time>2013-06-22T14:35:08Z</time>
      </trkpt>
      <trkpt lat="44.60609" lon="2.41941">
        <ele>571.143</ele>
        <time>2013-06-22T14:35:39Z</time>
      </trkpt>
      <trkpt lat="44.60607" lon="2.41934">
        <ele>570.345</ele>
        <time>2013-06-22T14:35:52Z</time>
      </trkpt>
      <trkpt lat="44.60604" lon="2.41929">
        <ele>569.884</ele>
        <time>2013-06-22T14:35:56Z</time>
      </trkpt>
      <trkpt lat="44.606" lon="2.41911">
        <ele>568.174</ele>
        <time>2013-06-22T14:36:10Z</time>
      </trkpt>
      <trkpt lat="44.60596" lon="2.41901">
        <ele>566.823</ele>
        <time>2013-06-22T14:36:19Z</time>
      </trkpt>
      <trkpt lat="44.60589" lon="2.41868">
        <ele>565.132</ele>
        <time>2013-06-22T14:36:42Z</time>
      </trkpt>
      <trkpt lat="44.60578" lon="2.41846">
        <ele>564.565</ele>
        <time>2013-06-22T14:37:00Z</time>
      </trkpt>
      <trkpt lat="44.60569" lon="2.41833">
        <ele>564.902</ele>
        <time>2013-06-22T14:37:15Z</time>
      </trkpt>
      <trkpt lat="44.60559" lon="2.41837">
        <ele>564.77</ele>
        <time>2013-06-22T14:37:37Z</time>
      </trkpt>
      <trkpt lat="44.60551" lon="2.41836">
        <ele>564.923</ele>
        <time>2013-06-22T14:37:50Z</time>
      </trkpt>
      <trkpt lat="44.60534" lon="2.41834">
        <ele>564.929</ele>
        <time>2013-06-22T14:38:08Z</time>
      </trkpt>
      <trkpt lat="44.60528" lon="2.41834">
        <ele>564.81</ele>
        <time>2013-06-22T14:38:14Z</time>
      </trkpt>
      <trkpt lat="44.60506" lon="2.41822">
        <ele>565.09</ele>
        <time>2013-06-22T14:38:36Z</time>
      </trkpt>
      <trkpt lat="44.60488" lon="2.41782">
        <ele>565.658</ele>
        <time>2013-06-22T14:39:05Z</time>
      </trkpt>
      <trkpt lat="44.60477" lon="2.4175">
        <ele>566.144</ele>
        <time>2013-06-22T14:39:28Z</time>
      </trkpt>
      <trkpt lat="44.60466" lon="2.41715">
        <ele>567.292</ele>
        <time>2013-06-22T14:39:52Z</time>
      </trkpt>
      <trkpt lat="44.60452" lon="2.41683">
        <ele>567.664</ele>
        <time>2013-06-22T14:40:18Z</time>
      </trkpt>
      <trkpt lat="44.60441" lon="2.41645">
        <ele>568.278</ele>
        <time>2013-06-22T14:40:45Z</time>
      </trkpt>
      <trkpt lat="44.60439" lon="2.41609">
        <ele>568.159</ele>
        <time>2013-06-22T14:41:09Z</time>
      </trkpt>
      <trkpt lat="44.60447" lon="2.41567">
        <ele>568.423</ele>
        <time>2013-06-22T14:41:38Z</time>
      </trkpt>
      <trkpt lat="44.60464" lon="2.41529">
        <ele>567.675</ele>
        <time>2013-06-22T14:42:08Z</time>
      </trkpt>
      <trkpt lat="44.60481" lon="2.41503">
        <ele>567.572</ele>
        <time>2013-06-22T14:42:31Z</time>
      </trkpt>
      <trkpt lat="44.605" lon="2.41476">
        <ele>566.9</ele>
        <time>2013-06-22T14:42:56Z</time>
      </trkpt>
      <trkpt lat="44.60522" lon="2.4145">
        <ele>565.743</ele>
        <time>2013-06-22T14:43:22Z</time>
      </trkpt>
      <trkpt lat="44.60548" lon="2.41421">
        <ele>565.417</ele>
        <time>2013-06-22T14:43:54Z</time>
      </trkpt>
      <trkpt lat="44.60571" lon="2.41396">
        <ele>563.813</ele>
        <time>2013-06-22T14:44:21Z</time>
      </trkpt>
      <trkpt lat="44.60585" lon="2.41379">
        <ele>563.265</ele>
        <time>2013-06-22T14:44:39Z</time>
      </trkpt>
      <trkpt lat="44.60607" lon="2.41349">
        <ele>560.261</ele>
        <time>2013-06-22T14:45:08Z</time>
      </trkpt>
      <trkpt lat="44.60626" lon="2.41319">
        <ele>558.229</ele>
        <time>2013-06-22T14:45:37Z</time>
      </trkpt>
      <trkpt lat="44.6064" lon="2.41283">
        <ele>557.839</ele>
        <time>2013-06-22T14:46:06Z</time>
      </trkpt>
      <trkpt lat="44.60641" lon="2.41284">
        <ele>557.224</ele>
        <time>2013-06-22T14:46:29Z</time>
      </trkpt>
      <trkpt lat="44.60645" lon="2.41279">
        <ele>557.129</ele>
        <time>2013-06-22T14:47:30Z</time>
      </trkpt>
      <trkpt lat="44.60639" lon="2.41249">
        <ele>556.554</ele>
        <time>2013-06-22T14:47:52Z</time>
      </trkpt>
      <trkpt lat="44.60625" lon="2.41211">
        <ele>555.702</ele>
        <time>2013-06-22T14:48:21Z</time>
      </trkpt>
      <trkpt lat="44.60618" lon="2.41204">
        <ele>555.721</ele>
        <time>2013-06-22T14:48:45Z</time>
      </trkpt>
      <trkpt lat="44.6061" lon="2.41193">
        <ele>554.808</ele>
        <time>2013-06-22T14:49:01Z</time>
      </trkpt>
      <trkpt lat="44.6059" lon="2.41174">
        <ele>553.698</ele>
        <time>2013-06-22T14:49:25Z</time>
      </trkpt>
      <trkpt lat="44.60569" lon="2.4115">
        <ele>552.415</ele>
        <time>2013-06-22T14:49:52Z</time>
      </trkpt>
      <trkpt lat="44.60564" lon="2.41141">
        <ele>551.567</ele>
        <time>2013-06-22T14:50:17Z</time>
      </trkpt>
      <trkpt lat="44.60561" lon="2.41128">
        <ele>551.704</ele>
        <time>2013-06-22T14:51:43Z</time>
      </trkpt>
      <trkpt lat="44.6056" lon="2.41126">
        <ele>551.857</ele>
        <time>2013-06-22T14:51:45Z</time>
      </trkpt>
      <trkpt lat="44.60558" lon="2.41121">
        <ele>551.805</ele>
        <time>2013-06-22T14:51:49Z</time>
      </trkpt>
      <trkpt lat="44.60554" lon="2.41087">
        <ele>550.432</ele>
        <time>2013-06-22T14:52:13Z</time>
      </trkpt>
      <trkpt lat="44.60551" lon="2.41048">
        <ele>549.781</ele>
        <time>2013-06-22T14:52:40Z</time>
      </trkpt>
      <trkpt lat="44.60547" lon="2.41022">
        <ele>550.01</ele>
        <time>2013-06-22T14:52:59Z</time>
      </trkpt>
      <trkpt lat="44.60539" lon="2.40988">
        <ele>549.987</ele>
        <time>2013-06-22T14:53:24Z</time>
      </trkpt>
      <trkpt lat="44.60535" lon="2.40952">
        <ele>550.327</ele>
        <time>2013-06-22T14:53:47Z</time>
      </trkpt>
      <trkpt lat="44.6053" lon="2.40912">
        <ele>549.366</ele>
        <time>2013-06-22T14:54:12Z</time>
      </trkpt>
      <trkpt lat="44.60519" lon="2.40869">
        <ele>548.909</ele>
        <time>2013-06-22T14:54:40Z</time>
      </trkpt>
      <trkpt lat="44.60515" lon="2.40856">
        <ele>547.802</ele>
        <time>2013-06-22T14:54:50Z</time>
      </trkpt>
      <trkpt lat="44.60505" lon="2.40827">
        <ele>548.282</ele>
        <time>2013-06-22T14:55:11Z</time>
      </trkpt>
      <trkpt lat="44.60493" lon="2.40806">
        <ele>547.506</ele>
        <time>2013-06-22T14:55:32Z</time>
      </trkpt>
      <trkpt lat="44.60482" lon="2.40802">
        <ele>545.131</ele>
        <time>2013-06-22T14:55:52Z</time>
      </trkpt>
      <trkpt lat="44.60478" lon="2.40797">
        <ele>543.845</ele>
        <time>2013-06-22T14:56:21Z</time>
      </trkpt>
      <trkpt lat="44.60473" lon="2.40781">
        <ele>541.353</ele>
        <time>2013-06-22T14:56:40Z</time>
      </trkpt>
      <trkpt lat="44.60468" lon="2.40764">
        <ele>537.961</ele>
        <time>2013-06-22T14:56:57Z</time>
      </trkpt>
      <trkpt lat="44.60462" lon="2.40742">
        <ele>535.075</ele>
        <time>2013-06-22T14:57:17Z</time>
      </trkpt>
      <trkpt lat="44.60455" lon="2.40728">
        <ele>532.843</ele>
        <time>2013-06-22T14:57:33Z</time>
      </trkpt>
      <trkpt lat="44.60449" lon="2.40705">
        <ele>529.96</ele>
        <time>2013-06-22T14:57:52Z</time>
      </trkpt>
      <trkpt lat="44.60442" lon="2.4069">
        <ele>526.812</ele>
        <time>2013-06-22T14:58:08Z</time>
      </trkpt>
      <trkpt lat="44.60431" lon="2.40671">
        <ele>523.68</ele>
        <time>2013-06-22T14:58:29Z</time>
      </trkpt>
      <trkpt lat="44.60425" lon="2.40659">
        <ele>520.553</ele>
        <time>2013-06-22T14:58:42Z</time>
      </trkpt>
      <trkpt lat="44.60417" lon="2.40642">
        <ele>517.45</ele>
        <time>2013-06-22T14:59:00Z</time>
      </trkpt>
      <trkpt lat="44.60407" lon="2.40626">
        <ele>514.377</ele>
        <time>2013-06-22T14:59:17Z</time>
      </trkpt>
      <trkpt lat="44.60396" lon="2.40609">
        <ele>511.878</ele>
        <time>2013-06-22T14:59:36Z</time>
      </trkpt>
      <trkpt lat="44.60389" lon="2.40602">
        <ele>508.727</ele>
        <time>2013-06-22T14:59:46Z</time>
      </trkpt>
      <trkpt lat="44.60383" lon="2.40583">
        <ele>506.815</ele>
        <time>2013-06-22T15:00:05Z</time>
      </trkpt>
      <trkpt lat="44.60377" lon="2.40568">
        <ele>504.646</ele>
        <time>2013-06-22T15:00:29Z</time>
      </trkpt>
      <trkpt lat="44.60377" lon="2.40568">
        <ele>504.268</ele>
        <time>2013-06-22T15:00:43Z</time>
      </trkpt>
      <trkpt lat="44.60381" lon="2.4057">
        <ele>504.13</ele>
        <time>2013-06-22T15:01:34Z</time>
      </trkpt>
      <trkpt lat="44.60382" lon="2.4057">
        <ele>504.059</ele>
        <time>2013-06-22T15:01:57Z</time>
      </trkpt>
      <trkpt lat="44.6038" lon="2.40571">
        <ele>503.738</ele>
        <time>2013-06-22T15:02:33Z</time>
      </trkpt>
      <trkpt lat="44.60387" lon="2.40573">
        <ele>504.319</ele>
        <time>2013-06-22T15:03:59Z</time>
      </trkpt>
      <trkpt lat="44.60379" lon="2.40561">
        <ele>503.636</ele>
        <time>2013-06-22T15:04:16Z</time>
      </trkpt>
      <trkpt lat="44.6037" lon="2.40542">
        <ele>501.141</ele>
        <time>2013-06-22T15:04:36Z</time>
      </trkpt>
      <trkpt lat="44.60365" lon="2.40534">
        <ele>498.755</ele>
        <time>2013-06-22T15:04:55Z</time>
      </trkpt>
      <trkpt lat="44.60359" lon="2.40526">
        <ele>495.709</ele>
        <time>2013-06-22T15:05:19Z</time>
      </trkpt>
      <trkpt lat="44.60352" lon="2.40514">
        <ele>493.957</ele>
        <time>2013-06-22T15:05:35Z</time>
      </trkpt>
      <trkpt lat="44.60345" lon="2.40502">
        <ele>490.957</ele>
        <time>2013-06-22T15:05:51Z</time>
      </trkpt>
      <trkpt lat="44.60337" lon="2.40487">
        <ele>489.522</ele>
        <time>2013-06-22T15:06:11Z</time>
      </trkpt>
      <trkpt lat="44.60333" lon="2.40481">
        <ele>488.171</ele>
        <time>2013-06-22T15:06:25Z</time>
      </trkpt>
      <trkpt lat="44.60326" lon="2.40475">
        <ele>486.48</ele>
        <time>2013-06-22T15:06:38Z</time>
      </trkpt>
      <trkpt lat="44.60324" lon="2.40455">
        <ele>484.479</ele>
        <time>2013-06-22T15:06:57Z</time>
      </trkpt>
      <trkpt lat="44.60314" lon="2.40445">
        <ele>481.734</ele>
        <time>2013-06-22T15:07:13Z</time>
      </trkpt>
      <trkpt lat="44.60308" lon="2.40431">
        <ele>480.541</ele>
        <time>2013-06-22T15:07:32Z</time>
      </trkpt>
      <trkpt lat="44.60299" lon="2.40422">
        <ele>479.155</ele>
        <time>2013-06-22T15:07:49Z</time>
      </trkpt>
      <trkpt lat="44.60285" lon="2.40417">
        <ele>476.804</ele>
        <time>2013-06-22T15:08:04Z</time>
      </trkpt>
      <trkpt lat="44.60277" lon="2.40407">
        <ele>473.704</ele>
        <time>2013-06-22T15:08:22Z</time>
      </trkpt>
      <trkpt lat="44.6027" lon="2.40399">
        <ele>471.244</ele>
        <time>2013-06-22T15:08:39Z</time>
      </trkpt>
      <trkpt lat="44.60261" lon="2.4039">
        <ele>469.342</ele>
        <time>2013-06-22T15:08:58Z</time>
      </trkpt>
      <trkpt lat="44.60256" lon="2.40375">
        <ele>466.041</ele>
        <time>2013-06-22T15:09:21Z</time>
      </trkpt>
      <trkpt lat="44.60245" lon="2.4036">
        <ele>465.418</ele>
        <time>2013-06-22T15:09:41Z</time>
      </trkpt>
      <trkpt lat="44.60238" lon="2.40352">
        <ele>463.357</ele>
        <time>2013-06-22T15:09:55Z</time>
      </trkpt>
      <trkpt lat="44.60221" lon="2.40341">
        <ele>460.642</ele>
        <time>2013-06-22T15:10:25Z</time>
      </trkpt>
      <trkpt lat="44.6021" lon="2.40332">
        <ele>458.291</ele>
        <time>2013-06-22T15:10:38Z</time>
      </trkpt>
      <trkpt lat="44.60206" lon="2.40326">
        <ele>457.672</ele>
        <time>2013-06-22T15:10:51Z</time>
      </trkpt>
      <trkpt lat="44.60209" lon="2.40324">
        <ele>456.575</ele>
        <time>2013-06-22T15:11:25Z</time>
      </trkpt>
      <trkpt lat="44.6021" lon="2.40323">
        <ele>456.024</ele>
        <time>2013-06-22T15:12:14Z</time>
      </trkpt>
      <trkpt lat="44.60213" lon="2.40322">
        <ele>456.025</ele>
        <time>2013-06-22T15:13:15Z</time>
      </trkpt>
      <trkpt lat="44.60206" lon="2.40323">
        <ele>455.362</ele>
        <time>2013-06-22T15:14:01Z</time>
      </trkpt>
      <trkpt lat="44.60197" lon="2.40319">
        <ele>454.761</ele>
        <time>2013-06-22T15:14:20Z</time>
      </trkpt>
      <trkpt lat="44.60193" lon="2.40312">
        <ele>453.717</ele>
        <time>2013-06-22T15:14:34Z</time>
      </trkpt>
      <trkpt lat="44.6019" lon="2.40303">
        <ele>450.782</ele>
        <time>2013-06-22T15:14:47Z</time>
      </trkpt>
      <trkpt lat="44.6019" lon="2.40291">
        <ele>449.886</ele>
        <time>2013-06-22T15:15:02Z</time>
      </trkpt>
      <trkpt lat="44.6019" lon="2.40282">
        <ele>449.508</ele>
        <time>2013-06-22T15:15:15Z</time>
      </trkpt>
      <trkpt lat="44.60189" lon="2.40277">
        <ele>447.533</ele>
        <time>2013-06-22T15:15:28Z</time>
      </trkpt>
      <trkpt lat="44.60188" lon="2.40265">
        <ele>446.38</ele>
        <time>2013-06-22T15:15:56Z</time>
      </trkpt>
      <trkpt lat="44.60186" lon="2.40258">
        <ele>444.644</ele>
        <time>2013-06-22T15:16:11Z</time>
      </trkpt>
      <trkpt lat="44.60184" lon="2.40253">
        <ele>444.021</ele>
        <time>2013-06-22T15:16:37Z</time>
      </trkpt>
      <trkpt lat="44.60181" lon="2.4026">
        <ele>441.761</ele>
        <time>2013-06-22T15:16:56Z</time>
      </trkpt>
      <trkpt lat="44.60175" lon="2.40269">
        <ele>440.346</ele>
        <time>2013-06-22T15:17:12Z</time>
      </trkpt>
      <trkpt lat="44.60169" lon="2.40281">
        <ele>439.606</ele>
        <time>2013-06-22T15:17:27Z</time>
      </trkpt>
      <trkpt lat="44.60162" lon="2.40296">
        <ele>438.509</ele>
        <time>2013-06-22T15:17:43Z</time>
      </trkpt>
      <trkpt lat="44.60156" lon="2.40311">
        <ele>437.029</ele>
        <time>2013-06-22T15:17:58Z</time>
      </trkpt>
      <trkpt lat="44.60148" lon="2.40338">
        <ele>434.64</ele>
        <time>2013-06-22T15:18:20Z</time>
      </trkpt>
      <trkpt lat="44.60148" lon="2.4036">
        <ele>433.072</ele>
        <time>2013-06-22T15:18:40Z</time>
      </trkpt>
      <trkpt lat="44.60148" lon="2.40377">
        <ele>432.317</ele>
        <time>2013-06-22T15:18:56Z</time>
      </trkpt>
      <trkpt lat="44.60148" lon="2.40394">
        <ele>430.765</ele>
        <time>2013-06-22T15:19:11Z</time>
      </trkpt>
      <trkpt lat="44.60151" lon="2.40407">
        <ele>429.406</ele>
        <time>2013-06-22T15:19:25Z</time>
      </trkpt>
      <trkpt lat="44.6016" lon="2.40427">
        <ele>428.194</ele>
        <time>2013-06-22T15:19:42Z</time>
      </trkpt>
      <trkpt lat="44.60161" lon="2.40445">
        <ele>427.165</ele>
        <time>2013-06-22T15:19:58Z</time>
      </trkpt>
      <trkpt lat="44.60162" lon="2.40461">
        <ele>425.775</ele>
        <time>2013-06-22T15:20:11Z</time>
      </trkpt>
      <trkpt lat="44.60164" lon="2.40479">
        <ele>425.435</ele>
        <time>2013-06-22T15:20:23Z</time>
      </trkpt>
      <trkpt lat="44.60168" lon="2.40496">
        <ele>423.821</ele>
        <time>2013-06-22T15:20:37Z</time>
      </trkpt>
      <trkpt lat="44.60178" lon="2.40504">
        <ele>423.631</ele>
        <time>2013-06-22T15:21:01Z</time>
      </trkpt>
      <trkpt lat="44.60174" lon="2.40506">
        <ele>423.955</ele>
        <time>2013-06-22T15:21:22Z</time>
      </trkpt>
      <trkpt lat="44.60178" lon="2.40509">
        <ele>423.122</ele>
        <time>2013-06-22T15:21:44Z</time>
      </trkpt>
      <trkpt lat="44.60182" lon="2.40514">
        <ele>422.608</ele>
        <time>2013-06-22T15:22:18Z</time>
      </trkpt>
      <trkpt lat="44.6018" lon="2.40526">
        <ele>419.606</ele>
        <time>2013-06-22T15:22:37Z</time>
      </trkpt>
      <trkpt lat="44.60181" lon="2.40542">
        <ele>417.906</ele>
        <time>2013-06-22T15:22:54Z</time>
      </trkpt>
      <trkpt lat="44.60168" lon="2.40555">
        <ele>414.8</ele>
        <time>2013-06-22T15:23:22Z</time>
      </trkpt>
      <trkpt lat="44.60157" lon="2.40562">
        <ele>411.549</ele>
        <time>2013-06-22T15:23:44Z</time>
      </trkpt>
      <trkpt lat="44.60159" lon="2.40568">
        <ele>410.444</ele>
        <time>2013-06-22T15:23:55Z</time>
      </trkpt>
      <trkpt lat="44.60154" lon="2.40582">
        <ele>407.149</ele>
        <time>2013-06-22T15:24:15Z</time>
      </trkpt>
      <trkpt lat="44.60137" lon="2.40596">
        <ele>404.052</ele>
        <time>2013-06-22T15:24:40Z</time>
      </trkpt>
      <trkpt lat="44.60136" lon="2.40598">
        <ele>402.903</ele>
        <time>2013-06-22T15:24:46Z</time>
      </trkpt>
      <trkpt lat="44.60123" lon="2.40605">
        <ele>401.447</ele>
        <time>2013-06-22T15:25:36Z</time>
      </trkpt>
      <trkpt lat="44.60125" lon="2.40602">
        <ele>401.66</ele>
        <time>2013-06-22T15:25:59Z</time>
      </trkpt>
      <trkpt lat="44.60122" lon="2.40605">
        <ele>401.307</ele>
        <time>2013-06-22T15:26:47Z</time>
      </trkpt>
      <trkpt lat="44.60115" lon="2.40608">
        <ele>398.267</ele>
        <time>2013-06-22T15:27:33Z</time>
      </trkpt>
      <trkpt lat="44.60104" lon="2.40609">
        <ele>394.897</ele>
        <time>2013-06-22T15:27:50Z</time>
      </trkpt>
      <trkpt lat="44.60079" lon="2.40601">
        <ele>392.883</ele>
        <time>2013-06-22T15:29:05Z</time>
      </trkpt>
      <trkpt lat="44.60083" lon="2.40601">
        <ele>390.781</ele>
        <time>2013-06-22T15:30:41Z</time>
      </trkpt>
      <trkpt lat="44.60082" lon="2.40591">
        <ele>387.993</ele>
        <time>2013-06-22T15:31:08Z</time>
      </trkpt>
      <trkpt lat="44.6007" lon="2.40591">
        <ele>385.236</ele>
        <time>2013-06-22T15:31:34Z</time>
      </trkpt>
      <trkpt lat="44.60056" lon="2.40584">
        <ele>381.924</ele>
        <time>2013-06-22T15:32:02Z</time>
      </trkpt>
      <trkpt lat="44.60044" lon="2.40568">
        <ele>378.823</ele>
        <time>2013-06-22T15:32:28Z</time>
      </trkpt>
      <trkpt lat="44.60037" lon="2.40549">
        <ele>375.655</ele>
        <time>2013-06-22T15:32:51Z</time>
      </trkpt>
      <trkpt lat="44.60026" lon="2.40534">
        <ele>374.557</ele>
        <time>2013-06-22T15:33:13Z</time>
      </trkpt>
      <trkpt lat="44.60019" lon="2.40521">
        <ele>371.954</ele>
        <time>2013-06-22T15:33:32Z</time>
      </trkpt>
      <trkpt lat="44.60016" lon="2.40512">
        <ele>370.894</ele>
        <time>2013-06-22T15:33:42Z</time>
      </trkpt>
      <trkpt lat="44.60012" lon="2.40503">
        <ele>370.047</ele>
        <time>2013-06-22T15:33:54Z</time>
      </trkpt>
      <trkpt lat="44.60007" lon="2.40495">
        <ele>368.82</ele>
        <time>2013-06-22T15:34:03Z</time>
      </trkpt>
      <trkpt lat="44.60003" lon="2.40481">
        <ele>367.032</ele>
        <time>2013-06-22T15:34:16Z</time>
      </trkpt>
      <trkpt lat="44.59994" lon="2.40465">
        <ele>364.509</ele>
        <time>2013-06-22T15:34:36Z</time>
      </trkpt>
      <trkpt lat="44.59992" lon="2.40453">
        <ele>362.965</ele>
        <time>2013-06-22T15:34:56Z</time>
      </trkpt>
      <trkpt lat="44.5999" lon="2.40441">
        <ele>363.547</ele>
        <time>2013-06-22T15:37:41Z</time>
      </trkpt>
      <trkpt lat="44.59992" lon="2.40444">
        <ele>363.888</ele>
        <time>2013-06-22T15:39:33Z</time>
      </trkpt>
      <trkpt lat="44.59995" lon="2.40445">
        <ele>363.942</ele>
        <time>2013-06-22T15:39:54Z</time>
      </trkpt>
      <trkpt lat="44.59991" lon="2.40439">
        <ele>363.64</ele>
        <time>2013-06-22T15:40:06Z</time>
      </trkpt>
      <trkpt lat="44.59984" lon="2.40425">
        <ele>361.332</ele>
        <time>2013-06-22T15:40:22Z</time>
      </trkpt>
      <trkpt lat="44.59975" lon="2.40412">
        <ele>358.198</ele>
        <time>2013-06-22T15:40:37Z</time>
      </trkpt>
      <trkpt lat="44.59974" lon="2.40391">
        <ele>357.04</ele>
        <time>2013-06-22T15:40:54Z</time>
      </trkpt>
      <trkpt lat="44.59971" lon="2.40362">
        <ele>354.808</ele>
        <time>2013-06-22T15:41:17Z</time>
      </trkpt>
      <trkpt lat="44.59968" lon="2.40348">
        <ele>353.272</ele>
        <time>2013-06-22T15:41:30Z</time>
      </trkpt>
      <trkpt lat="44.59968" lon="2.40332">
        <ele>351.409</ele>
        <time>2013-06-22T15:41:43Z</time>
      </trkpt>
      <trkpt lat="44.59967" lon="2.4032">
        <ele>348.86</ele>
        <time>2013-06-22T15:41:54Z</time>
      </trkpt>
      <trkpt lat="44.59969" lon="2.40305">
        <ele>347.134</ele>
        <time>2013-06-22T15:42:12Z</time>
      </trkpt>
      <trkpt lat="44.59958" lon="2.40291">
        <ele>344.589</ele>
        <time>2013-06-22T15:42:32Z</time>
      </trkpt>
      <trkpt lat="44.59957" lon="2.40276">
        <ele>342.872</ele>
        <time>2013-06-22T15:42:45Z</time>
      </trkpt>
      <trkpt lat="44.59959" lon="2.40267">
        <ele>342.271</ele>
        <time>2013-06-22T15:42:52Z</time>
      </trkpt>
      <trkpt lat="44.59963" lon="2.4023">
        <ele>341.153</ele>
        <time>2013-06-22T15:43:17Z</time>
      </trkpt>
      <trkpt lat="44.59959" lon="2.40224">
        <ele>340.852</ele>
        <time>2013-06-22T15:43:36Z</time>
      </trkpt>
      <trkpt lat="44.59959" lon="2.40205">
        <ele>340.731</ele>
        <time>2013-06-22T15:43:56Z</time>
      </trkpt>
      <trkpt lat="44.5996" lon="2.40199">
        <ele>340.093</ele>
        <time>2013-06-22T15:44:51Z</time>
      </trkpt>
      <trkpt lat="44.59957" lon="2.4016">
        <ele>338.414</ele>
        <time>2013-06-22T15:45:18Z</time>
      </trkpt>
      <trkpt lat="44.59957" lon="2.40143">
        <ele>337.52</ele>
        <time>2013-06-22T15:45:30Z</time>
      </trkpt>
      <trkpt lat="44.59955" lon="2.40131">
        <ele>337.197</ele>
        <time>2013-06-22T15:45:41Z</time>
      </trkpt>
      <trkpt lat="44.59954" lon="2.40096">
        <ele>335.16</ele>
        <time>2013-06-22T15:46:04Z</time>
      </trkpt>
      <trkpt lat="44.59954" lon="2.40068">
        <ele>333.531</ele>
        <time>2013-06-22T15:46:25Z</time>
      </trkpt>
      <trkpt lat="44.59951" lon="2.40064">
        <ele>333.137</ele>
        <time>2013-06-22T15:46:40Z</time>
      </trkpt>
      <trkpt lat="44.59948" lon="2.40031">
        <ele>333.381</ele>
        <time>2013-06-22T15:47:05Z</time>
      </trkpt>
      <trkpt lat="44.59938" lon="2.40005">
        <ele>332.571</ele>
        <time>2013-06-22T15:47:29Z</time>
      </trkpt>
      <trkpt lat="44.5993" lon="2.39993">
        <ele>331.796</ele>
        <time>2013-06-22T15:47:45Z</time>
      </trkpt>
      <trkpt lat="44.59931" lon="2.39978">
        <ele>331.535</ele>
        <time>2013-06-22T15:48:01Z</time>
      </trkpt>
      <trkpt lat="44.59932" lon="2.39969">
        <ele>330.767</ele>
        <time>2013-06-22T15:48:15Z</time>
      </trkpt>
      <trkpt lat="44.59933" lon="2.39953">
        <ele>330.455</ele>
        <time>2013-06-22T15:48:30Z</time>
      </trkpt>
      <trkpt lat="44.59937" lon="2.39938">
        <ele>328.575</ele>
        <time>2013-06-22T15:48:45Z</time>
      </trkpt>
      <trkpt lat="44.59944" lon="2.39924">
        <ele>327.335</ele>
        <time>2013-06-22T15:49:12Z</time>
      </trkpt>
      <trkpt lat="44.59942" lon="2.39913">
        <ele>327.319</ele>
        <time>2013-06-22T15:49:29Z</time>
      </trkpt>
      <trkpt lat="44.59947" lon="2.39911">
        <ele>327.117</ele>
        <time>2013-06-22T15:49:48Z</time>
      </trkpt>
      <trkpt lat="44.59952" lon="2.399">
        <ele>326.208</ele>
        <time>2013-06-22T15:50:07Z</time>
      </trkpt>
      <trkpt lat="44.59953" lon="2.39899">
        <ele>326.127</ele>
        <time>2013-06-22T15:50:08Z</time>
      </trkpt>
      <trkpt lat="44.59964" lon="2.39886">
        <ele>325.329</ele>
        <time>2013-06-22T15:50:22Z</time>
      </trkpt>
      <trkpt lat="44.59967" lon="2.3988">
        <ele>324.491</ele>
        <time>2013-06-22T15:50:36Z</time>
      </trkpt>
      <trkpt lat="44.59964" lon="2.39867">
        <ele>323.639</ele>
        <time>2013-06-22T15:50:49Z</time>
      </trkpt>
      <trkpt lat="44.59968" lon="2.39858">
        <ele>323.085</ele>
        <time>2013-06-22T15:51:05Z</time>
      </trkpt>
      <trkpt lat="44.59969" lon="2.39835">
        <ele>321.478</ele>
        <time>2013-06-22T15:51:24Z</time>
      </trkpt>
      <trkpt lat="44.59978" lon="2.39812">
        <ele>319.991</ele>
        <time>2013-06-22T15:51:51Z</time>
      </trkpt>
      <trkpt lat="44.59983" lon="2.39802">
        <ele>319.626</ele>
        <time>2013-06-22T15:52:04Z</time>
      </trkpt>
      <trkpt lat="44.59981" lon="2.39787">
        <ele>318.051</ele>
        <time>2013-06-22T15:52:19Z</time>
      </trkpt>
      <trkpt lat="44.59979" lon="2.39774">
        <ele>317.484</ele>
        <time>2013-06-22T15:52:30Z</time>
      </trkpt>
      <trkpt lat="44.59974" lon="2.39755">
        <ele>318.279</ele>
        <time>2013-06-22T15:52:49Z</time>
      </trkpt>
      <trkpt lat="44.59961" lon="2.39786">
        <ele>316.121</ele>
        <time>2013-06-22T15:53:21Z</time>
      </trkpt>
      <trkpt lat="44.59951" lon="2.39801">
        <ele>315.333</ele>
        <time>2013-06-22T15:53:41Z</time>
      </trkpt>
      <trkpt lat="44.5993" lon="2.39812">
        <ele>315.551</ele>
        <time>2013-06-22T15:53:55Z</time>
      </trkpt>
      <trkpt lat="44.59907" lon="2.39838">
        <ele>315.112</ele>
        <time>2013-06-22T15:54:11Z</time>
      </trkpt>
      <trkpt lat="44.59905" lon="2.39858">
        <ele>315.509</ele>
        <time>2013-06-22T15:54:28Z</time>
      </trkpt>
      <trkpt lat="44.59903" lon="2.39859">
        <ele>316.588</ele>
        <time>2013-06-22T15:54:42Z</time>
      </trkpt>
    </trkseg>
  </trk>
</gpx>